<?xml version="1.0" encoding="UTF-8" standalone="no" ?>
<gpx xmlns="http://www.topografix.com/GPX/1/1" xmlns:xsi="http://www.w3.org/2001/XMLSchema-instance" xsi:schemaLocation="http://www.topografix.com/GPX/1/1 http://www.topografix.com/GPX/1/1/gpx.xsd" version="1.1" creator="VisuGPX - https://www.visugpx.com">
  <metadata>
    <name>rando de 21 -boucle de Dourdan (91)</name>
    <desc><![CDATA[Jolie boucle de 21 km dans la forêt de Dourdan (91). Récit sur [url]http://trekkingzone.wordpress.com[/url]]]></desc>
  </metadata>
  <trk>
    <name><![CDATA[7 avr. 2019 à 10:03:53]]></name>
    <cmt><![CDATA[7 avr. 2019 à 10:03:53]]></cmt>
    <trkseg>
      <trkpt lat="48.53238" lon="2.0092">
        <ele>122</ele>
        <time>2019-04-07T08:03:54Z</time>
      </trkpt>
      <trkpt lat="48.53237" lon="2.00921">
        <ele>122</ele>
        <time>2019-04-07T08:03:55Z</time>
      </trkpt>
      <trkpt lat="48.53229" lon="2.00922">
        <ele>125</ele>
        <time>2019-04-07T08:04:01Z</time>
      </trkpt>
      <trkpt lat="48.53226" lon="2.00912">
        <ele>124</ele>
        <time>2019-04-07T08:04:10Z</time>
      </trkpt>
      <trkpt lat="48.53229" lon="2.00906">
        <ele>124</ele>
        <time>2019-04-07T08:04:15Z</time>
      </trkpt>
      <trkpt lat="48.53235" lon="2.00898">
        <ele>122</ele>
        <time>2019-04-07T08:04:24Z</time>
      </trkpt>
      <trkpt lat="48.5324" lon="2.00894">
        <ele>121</ele>
        <time>2019-04-07T08:04:28Z</time>
      </trkpt>
      <trkpt lat="48.53242" lon="2.00887">
        <ele>121</ele>
        <time>2019-04-07T08:04:31Z</time>
      </trkpt>
      <trkpt lat="48.53249" lon="2.00876">
        <ele>121</ele>
        <time>2019-04-07T08:04:37Z</time>
      </trkpt>
      <trkpt lat="48.53254" lon="2.00864">
        <ele>121</ele>
        <time>2019-04-07T08:04:43Z</time>
      </trkpt>
      <trkpt lat="48.5326" lon="2.00853">
        <ele>122</ele>
        <time>2019-04-07T08:04:52Z</time>
      </trkpt>
      <trkpt lat="48.53262" lon="2.00845">
        <ele>122</ele>
        <time>2019-04-07T08:04:59Z</time>
      </trkpt>
      <trkpt lat="48.5327" lon="2.0084">
        <ele>121</ele>
        <time>2019-04-07T08:05:14Z</time>
      </trkpt>
      <trkpt lat="48.53273" lon="2.00836">
        <ele>121</ele>
        <time>2019-04-07T08:05:22Z</time>
      </trkpt>
      <trkpt lat="48.53268" lon="2.00831">
        <ele>121</ele>
        <time>2019-04-07T08:05:28Z</time>
      </trkpt>
      <trkpt lat="48.53263" lon="2.0083">
        <ele>121</ele>
        <time>2019-04-07T08:05:32Z</time>
      </trkpt>
      <trkpt lat="48.53259" lon="2.00828">
        <ele>120</ele>
        <time>2019-04-07T08:05:37Z</time>
      </trkpt>
      <trkpt lat="48.53245" lon="2.00806">
        <ele>117</ele>
        <time>2019-04-07T08:05:59Z</time>
      </trkpt>
      <trkpt lat="48.53245" lon="2.00798">
        <ele>116</ele>
        <time>2019-04-07T08:06:05Z</time>
      </trkpt>
      <trkpt lat="48.53243" lon="2.00792">
        <ele>116</ele>
        <time>2019-04-07T08:06:09Z</time>
      </trkpt>
      <trkpt lat="48.53216" lon="2.0076">
        <ele>111</ele>
        <time>2019-04-07T08:06:40Z</time>
      </trkpt>
      <trkpt lat="48.532" lon="2.00728">
        <ele>107</ele>
        <time>2019-04-07T08:07:07Z</time>
      </trkpt>
      <trkpt lat="48.53193" lon="2.00725">
        <ele>106</ele>
        <time>2019-04-07T08:07:17Z</time>
      </trkpt>
      <trkpt lat="48.53166" lon="2.00751">
        <ele>105</ele>
        <time>2019-04-07T08:07:41Z</time>
      </trkpt>
      <trkpt lat="48.53155" lon="2.00759">
        <ele>104</ele>
        <time>2019-04-07T08:07:50Z</time>
      </trkpt>
      <trkpt lat="48.53146" lon="2.00757">
        <ele>104</ele>
        <time>2019-04-07T08:07:58Z</time>
      </trkpt>
      <trkpt lat="48.53139" lon="2.00743">
        <ele>103</ele>
        <time>2019-04-07T08:08:08Z</time>
      </trkpt>
      <trkpt lat="48.53136" lon="2.00729">
        <ele>101</ele>
        <time>2019-04-07T08:08:15Z</time>
      </trkpt>
      <trkpt lat="48.53133" lon="2.00722">
        <ele>101</ele>
        <time>2019-04-07T08:08:19Z</time>
      </trkpt>
      <trkpt lat="48.5313" lon="2.00717">
        <ele>101</ele>
        <time>2019-04-07T08:08:23Z</time>
      </trkpt>
      <trkpt lat="48.53131" lon="2.00708">
        <ele>101</ele>
        <time>2019-04-07T08:08:27Z</time>
      </trkpt>
      <trkpt lat="48.53134" lon="2.00702">
        <ele>101</ele>
        <time>2019-04-07T08:08:31Z</time>
      </trkpt>
      <trkpt lat="48.53147" lon="2.00686">
        <ele>101</ele>
        <time>2019-04-07T08:08:43Z</time>
      </trkpt>
      <trkpt lat="48.5315" lon="2.00679">
        <ele>101</ele>
        <time>2019-04-07T08:08:50Z</time>
      </trkpt>
      <trkpt lat="48.53163" lon="2.00666">
        <ele>101</ele>
        <time>2019-04-07T08:09:03Z</time>
      </trkpt>
      <trkpt lat="48.5319" lon="2.00609">
        <ele>101</ele>
        <time>2019-04-07T08:09:35Z</time>
      </trkpt>
      <trkpt lat="48.53196" lon="2.00596">
        <ele>101</ele>
        <time>2019-04-07T08:09:42Z</time>
      </trkpt>
      <trkpt lat="48.53207" lon="2.00565">
        <ele>101</ele>
        <time>2019-04-07T08:10:00Z</time>
      </trkpt>
      <trkpt lat="48.53208" lon="2.00557">
        <ele>101</ele>
        <time>2019-04-07T08:10:04Z</time>
      </trkpt>
      <trkpt lat="48.53224" lon="2.0049">
        <ele>101</ele>
        <time>2019-04-07T08:10:38Z</time>
      </trkpt>
      <trkpt lat="48.53225" lon="2.00482">
        <ele>101</ele>
        <time>2019-04-07T08:10:42Z</time>
      </trkpt>
      <trkpt lat="48.53227" lon="2.00476">
        <ele>101</ele>
        <time>2019-04-07T08:10:46Z</time>
      </trkpt>
      <trkpt lat="48.53229" lon="2.00444">
        <ele>100</ele>
        <time>2019-04-07T08:11:02Z</time>
      </trkpt>
      <trkpt lat="48.53235" lon="2.00421">
        <ele>100</ele>
        <time>2019-04-07T08:11:15Z</time>
      </trkpt>
      <trkpt lat="48.53246" lon="2.00385">
        <ele>100</ele>
        <time>2019-04-07T08:11:34Z</time>
      </trkpt>
      <trkpt lat="48.53257" lon="2.00331">
        <ele>100</ele>
        <time>2019-04-07T08:12:02Z</time>
      </trkpt>
      <trkpt lat="48.53257" lon="2.00291">
        <ele>100</ele>
        <time>2019-04-07T08:12:19Z</time>
      </trkpt>
      <trkpt lat="48.53263" lon="2.00262">
        <ele>100</ele>
        <time>2019-04-07T08:12:33Z</time>
      </trkpt>
      <trkpt lat="48.53263" lon="2.00197">
        <ele>99</ele>
        <time>2019-04-07T08:13:06Z</time>
      </trkpt>
      <trkpt lat="48.53263" lon="2.0018">
        <ele>99</ele>
        <time>2019-04-07T08:13:13Z</time>
      </trkpt>
      <trkpt lat="48.53258" lon="2.00165">
        <ele>99</ele>
        <time>2019-04-07T08:13:21Z</time>
      </trkpt>
      <trkpt lat="48.53264" lon="2.00159">
        <ele>99</ele>
        <time>2019-04-07T08:13:31Z</time>
      </trkpt>
      <trkpt lat="48.53276" lon="2.0016">
        <ele>100</ele>
        <time>2019-04-07T08:13:39Z</time>
      </trkpt>
      <trkpt lat="48.53281" lon="2.0016">
        <ele>100</ele>
        <time>2019-04-07T08:13:43Z</time>
      </trkpt>
      <trkpt lat="48.53291" lon="2.00163">
        <ele>100</ele>
        <time>2019-04-07T08:13:51Z</time>
      </trkpt>
      <trkpt lat="48.53326" lon="2.0015">
        <ele>102</ele>
        <time>2019-04-07T08:14:19Z</time>
      </trkpt>
      <trkpt lat="48.53366" lon="2.00154">
        <ele>105</ele>
        <time>2019-04-07T08:14:51Z</time>
      </trkpt>
      <trkpt lat="48.53405" lon="2.00158">
        <ele>108</ele>
        <time>2019-04-07T08:15:23Z</time>
      </trkpt>
      <trkpt lat="48.53426" lon="2.00162">
        <ele>109</ele>
        <time>2019-04-07T08:15:39Z</time>
      </trkpt>
      <trkpt lat="48.53436" lon="2.00167">
        <ele>110</ele>
        <time>2019-04-07T08:15:47Z</time>
      </trkpt>
      <trkpt lat="48.5344" lon="2.00172">
        <ele>110</ele>
        <time>2019-04-07T08:15:51Z</time>
      </trkpt>
      <trkpt lat="48.53444" lon="2.00193">
        <ele>111</ele>
        <time>2019-04-07T08:16:03Z</time>
      </trkpt>
      <trkpt lat="48.53449" lon="2.00195">
        <ele>111</ele>
        <time>2019-04-07T08:16:07Z</time>
      </trkpt>
      <trkpt lat="48.53454" lon="2.00195">
        <ele>111</ele>
        <time>2019-04-07T08:16:11Z</time>
      </trkpt>
      <trkpt lat="48.53463" lon="2.00184">
        <ele>111</ele>
        <time>2019-04-07T08:16:19Z</time>
      </trkpt>
      <trkpt lat="48.53474" lon="2.00181">
        <ele>111</ele>
        <time>2019-04-07T08:16:31Z</time>
      </trkpt>
      <trkpt lat="48.53476" lon="2.00174">
        <ele>111</ele>
        <time>2019-04-07T08:16:35Z</time>
      </trkpt>
      <trkpt lat="48.53496" lon="2.00169">
        <ele>111</ele>
        <time>2019-04-07T08:16:55Z</time>
      </trkpt>
      <trkpt lat="48.53502" lon="2.00152">
        <ele>112</ele>
        <time>2019-04-07T08:17:12Z</time>
      </trkpt>
      <trkpt lat="48.53505" lon="2.00141">
        <ele>113</ele>
        <time>2019-04-07T08:17:24Z</time>
      </trkpt>
      <trkpt lat="48.53512" lon="2.00137">
        <ele>114</ele>
        <time>2019-04-07T08:17:36Z</time>
      </trkpt>
      <trkpt lat="48.53516" lon="2.00134">
        <ele>114</ele>
        <time>2019-04-07T08:18:48Z</time>
      </trkpt>
      <trkpt lat="48.53529" lon="2.00118">
        <ele>115</ele>
        <time>2019-04-07T08:19:20Z</time>
      </trkpt>
      <trkpt lat="48.5355" lon="2.00093">
        <ele>117</ele>
        <time>2019-04-07T08:19:38Z</time>
      </trkpt>
      <trkpt lat="48.53558" lon="2.00084">
        <ele>118</ele>
        <time>2019-04-07T08:19:45Z</time>
      </trkpt>
      <trkpt lat="48.53567" lon="2.00076">
        <ele>118</ele>
        <time>2019-04-07T08:19:52Z</time>
      </trkpt>
      <trkpt lat="48.53571" lon="2.00071">
        <ele>118</ele>
        <time>2019-04-07T08:19:56Z</time>
      </trkpt>
      <trkpt lat="48.53579" lon="2.0007">
        <ele>119</ele>
        <time>2019-04-07T08:20:06Z</time>
      </trkpt>
      <trkpt lat="48.53589" lon="2.00061">
        <ele>119</ele>
        <time>2019-04-07T08:20:14Z</time>
      </trkpt>
      <trkpt lat="48.53625" lon="2.00019">
        <ele>120</ele>
        <time>2019-04-07T08:20:47Z</time>
      </trkpt>
      <trkpt lat="48.53637" lon="2.00003">
        <ele>121</ele>
        <time>2019-04-07T08:20:59Z</time>
      </trkpt>
      <trkpt lat="48.53643" lon="1.99991">
        <ele>121</ele>
        <time>2019-04-07T08:21:09Z</time>
      </trkpt>
      <trkpt lat="48.53647" lon="1.99986">
        <ele>121</ele>
        <time>2019-04-07T08:21:13Z</time>
      </trkpt>
      <trkpt lat="48.53673" lon="1.99958">
        <ele>123</ele>
        <time>2019-04-07T08:21:39Z</time>
      </trkpt>
      <trkpt lat="48.53684" lon="1.99941">
        <ele>123</ele>
        <time>2019-04-07T08:21:52Z</time>
      </trkpt>
      <trkpt lat="48.53688" lon="1.99939">
        <ele>124</ele>
        <time>2019-04-07T08:22:01Z</time>
      </trkpt>
      <trkpt lat="48.53693" lon="1.99935">
        <ele>124</ele>
        <time>2019-04-07T08:22:06Z</time>
      </trkpt>
      <trkpt lat="48.53722" lon="1.99905">
        <ele>126</ele>
        <time>2019-04-07T08:22:33Z</time>
      </trkpt>
      <trkpt lat="48.53731" lon="1.99898">
        <ele>126</ele>
        <time>2019-04-07T08:22:43Z</time>
      </trkpt>
      <trkpt lat="48.53736" lon="1.99897">
        <ele>126</ele>
        <time>2019-04-07T08:22:47Z</time>
      </trkpt>
      <trkpt lat="48.53749" lon="1.99887">
        <ele>127</ele>
        <time>2019-04-07T08:22:59Z</time>
      </trkpt>
      <trkpt lat="48.5376" lon="1.99873">
        <ele>127</ele>
        <time>2019-04-07T08:23:09Z</time>
      </trkpt>
      <trkpt lat="48.53765" lon="1.99872">
        <ele>127</ele>
        <time>2019-04-07T08:23:12Z</time>
      </trkpt>
      <trkpt lat="48.538" lon="1.99852">
        <ele>129</ele>
        <time>2019-04-07T08:23:43Z</time>
      </trkpt>
      <trkpt lat="48.53804" lon="1.99838">
        <ele>130</ele>
        <time>2019-04-07T08:23:52Z</time>
      </trkpt>
      <trkpt lat="48.53805" lon="1.99831">
        <ele>130</ele>
        <time>2019-04-07T08:23:56Z</time>
      </trkpt>
      <trkpt lat="48.53807" lon="1.99821">
        <ele>130</ele>
        <time>2019-04-07T08:24:02Z</time>
      </trkpt>
      <trkpt lat="48.53806" lon="1.99813">
        <ele>131</ele>
        <time>2019-04-07T08:24:06Z</time>
      </trkpt>
      <trkpt lat="48.53808" lon="1.99806">
        <ele>131</ele>
        <time>2019-04-07T08:24:10Z</time>
      </trkpt>
      <trkpt lat="48.53833" lon="1.99768">
        <ele>132</ele>
        <time>2019-04-07T08:24:39Z</time>
      </trkpt>
      <trkpt lat="48.53836" lon="1.99755">
        <ele>133</ele>
        <time>2019-04-07T08:24:47Z</time>
      </trkpt>
      <trkpt lat="48.53865" lon="1.997">
        <ele>136</ele>
        <time>2019-04-07T08:25:21Z</time>
      </trkpt>
      <trkpt lat="48.53886" lon="1.99667">
        <ele>137</ele>
        <time>2019-04-07T08:25:43Z</time>
      </trkpt>
      <trkpt lat="48.53893" lon="1.9967">
        <ele>138</ele>
        <time>2019-04-07T08:26:03Z</time>
      </trkpt>
      <trkpt lat="48.53895" lon="1.99671">
        <ele>138</ele>
        <time>2019-04-07T08:27:12Z</time>
      </trkpt>
      <trkpt lat="48.53887" lon="1.99665">
        <ele>138</ele>
        <time>2019-04-07T08:27:48Z</time>
      </trkpt>
      <trkpt lat="48.53883" lon="1.99645">
        <ele>138</ele>
        <time>2019-04-07T08:28:38Z</time>
      </trkpt>
      <trkpt lat="48.53893" lon="1.99647">
        <ele>137</ele>
        <time>2019-04-07T08:30:22Z</time>
      </trkpt>
      <trkpt lat="48.53898" lon="1.99642">
        <ele>137</ele>
        <time>2019-04-07T08:37:09Z</time>
      </trkpt>
      <trkpt lat="48.53906" lon="1.99635">
        <ele>138</ele>
        <time>2019-04-07T08:37:18Z</time>
      </trkpt>
      <trkpt lat="48.53908" lon="1.99628">
        <ele>138</ele>
        <time>2019-04-07T08:37:23Z</time>
      </trkpt>
      <trkpt lat="48.53926" lon="1.9961">
        <ele>139</ele>
        <time>2019-04-07T08:37:40Z</time>
      </trkpt>
      <trkpt lat="48.53936" lon="1.99603">
        <ele>140</ele>
        <time>2019-04-07T08:37:49Z</time>
      </trkpt>
      <trkpt lat="48.53962" lon="1.99584">
        <ele>142</ele>
        <time>2019-04-07T08:38:20Z</time>
      </trkpt>
      <trkpt lat="48.53987" lon="1.99577">
        <ele>143</ele>
        <time>2019-04-07T08:38:41Z</time>
      </trkpt>
      <trkpt lat="48.53994" lon="1.99569">
        <ele>144</ele>
        <time>2019-04-07T08:38:47Z</time>
      </trkpt>
      <trkpt lat="48.53994" lon="1.99548">
        <ele>144</ele>
        <time>2019-04-07T08:39:02Z</time>
      </trkpt>
      <trkpt lat="48.53997" lon="1.99532">
        <ele>144</ele>
        <time>2019-04-07T08:39:09Z</time>
      </trkpt>
      <trkpt lat="48.53991" lon="1.99506">
        <ele>146</ele>
        <time>2019-04-07T08:39:24Z</time>
      </trkpt>
      <trkpt lat="48.5399" lon="1.9949">
        <ele>148</ele>
        <time>2019-04-07T08:39:40Z</time>
      </trkpt>
      <trkpt lat="48.53988" lon="1.99477">
        <ele>150</ele>
        <time>2019-04-07T08:39:52Z</time>
      </trkpt>
      <trkpt lat="48.53988" lon="1.99419">
        <ele>156</ele>
        <time>2019-04-07T08:40:34Z</time>
      </trkpt>
      <trkpt lat="48.53987" lon="1.99403">
        <ele>156</ele>
        <time>2019-04-07T08:40:45Z</time>
      </trkpt>
      <trkpt lat="48.53976" lon="1.99373">
        <ele>156</ele>
        <time>2019-04-07T08:41:07Z</time>
      </trkpt>
      <trkpt lat="48.53978" lon="1.99358">
        <ele>156</ele>
        <time>2019-04-07T08:41:12Z</time>
      </trkpt>
      <trkpt lat="48.5397" lon="1.99332">
        <ele>156</ele>
        <time>2019-04-07T08:41:23Z</time>
      </trkpt>
      <trkpt lat="48.53975" lon="1.99289">
        <ele>152</ele>
        <time>2019-04-07T08:41:47Z</time>
      </trkpt>
      <trkpt lat="48.53969" lon="1.99277">
        <ele>149</ele>
        <time>2019-04-07T08:41:56Z</time>
      </trkpt>
      <trkpt lat="48.53941" lon="1.99238">
        <ele>145</ele>
        <time>2019-04-07T08:42:24Z</time>
      </trkpt>
      <trkpt lat="48.53934" lon="1.9922">
        <ele>141</ele>
        <time>2019-04-07T08:42:43Z</time>
      </trkpt>
      <trkpt lat="48.53933" lon="1.99205">
        <ele>138</ele>
        <time>2019-04-07T08:42:53Z</time>
      </trkpt>
      <trkpt lat="48.53938" lon="1.99186">
        <ele>135</ele>
        <time>2019-04-07T08:43:10Z</time>
      </trkpt>
      <trkpt lat="48.53968" lon="1.99162">
        <ele>133</ele>
        <time>2019-04-07T08:43:35Z</time>
      </trkpt>
      <trkpt lat="48.53977" lon="1.99158">
        <ele>133</ele>
        <time>2019-04-07T08:43:43Z</time>
      </trkpt>
      <trkpt lat="48.54004" lon="1.99135">
        <ele>133</ele>
        <time>2019-04-07T08:43:59Z</time>
      </trkpt>
      <trkpt lat="48.54019" lon="1.99117">
        <ele>134</ele>
        <time>2019-04-07T08:44:11Z</time>
      </trkpt>
      <trkpt lat="48.54027" lon="1.99113">
        <ele>134</ele>
        <time>2019-04-07T08:44:18Z</time>
      </trkpt>
      <trkpt lat="48.54036" lon="1.99102">
        <ele>135</ele>
        <time>2019-04-07T08:44:24Z</time>
      </trkpt>
      <trkpt lat="48.54055" lon="1.99062">
        <ele>138</ele>
        <time>2019-04-07T08:44:58Z</time>
      </trkpt>
      <trkpt lat="48.54062" lon="1.99052">
        <ele>138</ele>
        <time>2019-04-07T08:45:05Z</time>
      </trkpt>
      <trkpt lat="48.54071" lon="1.99045">
        <ele>139</ele>
        <time>2019-04-07T08:45:10Z</time>
      </trkpt>
      <trkpt lat="48.5408" lon="1.99041">
        <ele>139</ele>
        <time>2019-04-07T08:45:17Z</time>
      </trkpt>
      <trkpt lat="48.54088" lon="1.99034">
        <ele>140</ele>
        <time>2019-04-07T08:45:25Z</time>
      </trkpt>
      <trkpt lat="48.54096" lon="1.99018">
        <ele>141</ele>
        <time>2019-04-07T08:45:33Z</time>
      </trkpt>
      <trkpt lat="48.54105" lon="1.99014">
        <ele>141</ele>
        <time>2019-04-07T08:45:41Z</time>
      </trkpt>
      <trkpt lat="48.54113" lon="1.99005">
        <ele>141</ele>
        <time>2019-04-07T08:45:48Z</time>
      </trkpt>
      <trkpt lat="48.54128" lon="1.98987">
        <ele>143</ele>
        <time>2019-04-07T08:46:02Z</time>
      </trkpt>
      <trkpt lat="48.54145" lon="1.98973">
        <ele>145</ele>
        <time>2019-04-07T08:46:16Z</time>
      </trkpt>
      <trkpt lat="48.54148" lon="1.98959">
        <ele>146</ele>
        <time>2019-04-07T08:46:25Z</time>
      </trkpt>
      <trkpt lat="48.54155" lon="1.98948">
        <ele>146</ele>
        <time>2019-04-07T08:46:31Z</time>
      </trkpt>
      <trkpt lat="48.54174" lon="1.98934">
        <ele>148</ele>
        <time>2019-04-07T08:46:53Z</time>
      </trkpt>
      <trkpt lat="48.54202" lon="1.98921">
        <ele>152</ele>
        <time>2019-04-07T08:47:16Z</time>
      </trkpt>
      <trkpt lat="48.54218" lon="1.98905">
        <ele>154</ele>
        <time>2019-04-07T08:47:34Z</time>
      </trkpt>
      <trkpt lat="48.54229" lon="1.98881">
        <ele>156</ele>
        <time>2019-04-07T08:47:50Z</time>
      </trkpt>
      <trkpt lat="48.54254" lon="1.98856">
        <ele>159</ele>
        <time>2019-04-07T08:48:11Z</time>
      </trkpt>
      <trkpt lat="48.5428" lon="1.98813">
        <ele>159</ele>
        <time>2019-04-07T08:48:40Z</time>
      </trkpt>
      <trkpt lat="48.54285" lon="1.98802">
        <ele>160</ele>
        <time>2019-04-07T08:48:48Z</time>
      </trkpt>
      <trkpt lat="48.54293" lon="1.98793">
        <ele>161</ele>
        <time>2019-04-07T08:48:57Z</time>
      </trkpt>
      <trkpt lat="48.54307" lon="1.9876">
        <ele>160</ele>
        <time>2019-04-07T08:49:24Z</time>
      </trkpt>
      <trkpt lat="48.54314" lon="1.98731">
        <ele>160</ele>
        <time>2019-04-07T08:50:21Z</time>
      </trkpt>
      <trkpt lat="48.54332" lon="1.98697">
        <ele>160</ele>
        <time>2019-04-07T08:50:46Z</time>
      </trkpt>
      <trkpt lat="48.54332" lon="1.98682">
        <ele>160</ele>
        <time>2019-04-07T08:50:53Z</time>
      </trkpt>
      <trkpt lat="48.54329" lon="1.9867">
        <ele>160</ele>
        <time>2019-04-07T08:51:00Z</time>
      </trkpt>
      <trkpt lat="48.54331" lon="1.98656">
        <ele>160</ele>
        <time>2019-04-07T08:51:06Z</time>
      </trkpt>
      <trkpt lat="48.54347" lon="1.986">
        <ele>160</ele>
        <time>2019-04-07T08:51:36Z</time>
      </trkpt>
      <trkpt lat="48.54344" lon="1.98556">
        <ele>160</ele>
        <time>2019-04-07T08:51:56Z</time>
      </trkpt>
      <trkpt lat="48.54338" lon="1.98545">
        <ele>160</ele>
        <time>2019-04-07T08:52:01Z</time>
      </trkpt>
      <trkpt lat="48.54343" lon="1.98514">
        <ele>160</ele>
        <time>2019-04-07T08:52:19Z</time>
      </trkpt>
      <trkpt lat="48.54331" lon="1.98457">
        <ele>160</ele>
        <time>2019-04-07T08:52:47Z</time>
      </trkpt>
      <trkpt lat="48.54336" lon="1.98444">
        <ele>160</ele>
        <time>2019-04-07T08:52:56Z</time>
      </trkpt>
      <trkpt lat="48.54335" lon="1.9843">
        <ele>161</ele>
        <time>2019-04-07T08:53:03Z</time>
      </trkpt>
      <trkpt lat="48.54329" lon="1.9842">
        <ele>161</ele>
        <time>2019-04-07T08:53:08Z</time>
      </trkpt>
      <trkpt lat="48.54332" lon="1.98391">
        <ele>160</ele>
        <time>2019-04-07T08:53:24Z</time>
      </trkpt>
      <trkpt lat="48.54346" lon="1.98369">
        <ele>161</ele>
        <time>2019-04-07T08:53:37Z</time>
      </trkpt>
      <trkpt lat="48.54345" lon="1.98343">
        <ele>161</ele>
        <time>2019-04-07T08:53:49Z</time>
      </trkpt>
      <trkpt lat="48.5434" lon="1.98331">
        <ele>161</ele>
        <time>2019-04-07T08:53:55Z</time>
      </trkpt>
      <trkpt lat="48.5434" lon="1.98313">
        <ele>161</ele>
        <time>2019-04-07T08:54:08Z</time>
      </trkpt>
      <trkpt lat="48.54345" lon="1.98299">
        <ele>160</ele>
        <time>2019-04-07T08:54:16Z</time>
      </trkpt>
      <trkpt lat="48.54362" lon="1.98267">
        <ele>160</ele>
        <time>2019-04-07T08:54:40Z</time>
      </trkpt>
      <trkpt lat="48.54358" lon="1.98253">
        <ele>160</ele>
        <time>2019-04-07T08:54:46Z</time>
      </trkpt>
      <trkpt lat="48.54358" lon="1.98238">
        <ele>160</ele>
        <time>2019-04-07T08:54:53Z</time>
      </trkpt>
      <trkpt lat="48.54353" lon="1.98217">
        <ele>160</ele>
        <time>2019-04-07T08:55:06Z</time>
      </trkpt>
      <trkpt lat="48.54354" lon="1.98202">
        <ele>160</ele>
        <time>2019-04-07T08:55:15Z</time>
      </trkpt>
      <trkpt lat="48.5436" lon="1.98191">
        <ele>160</ele>
        <time>2019-04-07T08:55:21Z</time>
      </trkpt>
      <trkpt lat="48.54363" lon="1.98186">
        <ele>160</ele>
        <time>2019-04-07T08:55:24Z</time>
      </trkpt>
      <trkpt lat="48.54385" lon="1.98134">
        <ele>159</ele>
        <time>2019-04-07T08:55:57Z</time>
      </trkpt>
      <trkpt lat="48.5439" lon="1.98127">
        <ele>159</ele>
        <time>2019-04-07T08:56:01Z</time>
      </trkpt>
      <trkpt lat="48.54397" lon="1.98101">
        <ele>160</ele>
        <time>2019-04-07T08:56:17Z</time>
      </trkpt>
      <trkpt lat="48.544" lon="1.98086">
        <ele>160</ele>
        <time>2019-04-07T08:56:24Z</time>
      </trkpt>
      <trkpt lat="48.54403" lon="1.9808">
        <ele>160</ele>
        <time>2019-04-07T08:56:27Z</time>
      </trkpt>
      <trkpt lat="48.54407" lon="1.98076">
        <ele>160</ele>
        <time>2019-04-07T08:56:31Z</time>
      </trkpt>
      <trkpt lat="48.54421" lon="1.98043">
        <ele>160</ele>
        <time>2019-04-07T08:56:50Z</time>
      </trkpt>
      <trkpt lat="48.54437" lon="1.97989">
        <ele>160</ele>
        <time>2019-04-07T08:57:18Z</time>
      </trkpt>
      <trkpt lat="48.54444" lon="1.97977">
        <ele>160</ele>
        <time>2019-04-07T08:57:25Z</time>
      </trkpt>
      <trkpt lat="48.54452" lon="1.97956">
        <ele>160</ele>
        <time>2019-04-07T08:57:37Z</time>
      </trkpt>
      <trkpt lat="48.54454" lon="1.97942">
        <ele>160</ele>
        <time>2019-04-07T08:57:45Z</time>
      </trkpt>
      <trkpt lat="48.54459" lon="1.97935">
        <ele>160</ele>
        <time>2019-04-07T08:57:50Z</time>
      </trkpt>
      <trkpt lat="48.54464" lon="1.97915">
        <ele>160</ele>
        <time>2019-04-07T08:58:02Z</time>
      </trkpt>
      <trkpt lat="48.54465" lon="1.97907">
        <ele>160</ele>
        <time>2019-04-07T08:58:06Z</time>
      </trkpt>
      <trkpt lat="48.54469" lon="1.979">
        <ele>160</ele>
        <time>2019-04-07T08:58:10Z</time>
      </trkpt>
      <trkpt lat="48.54472" lon="1.97895">
        <ele>160</ele>
        <time>2019-04-07T08:58:14Z</time>
      </trkpt>
      <trkpt lat="48.54483" lon="1.97861">
        <ele>160</ele>
        <time>2019-04-07T08:58:34Z</time>
      </trkpt>
      <trkpt lat="48.54489" lon="1.97849">
        <ele>160</ele>
        <time>2019-04-07T08:58:41Z</time>
      </trkpt>
      <trkpt lat="48.54494" lon="1.97823">
        <ele>160</ele>
        <time>2019-04-07T08:58:55Z</time>
      </trkpt>
      <trkpt lat="48.54505" lon="1.97804">
        <ele>160</ele>
        <time>2019-04-07T08:59:07Z</time>
      </trkpt>
      <trkpt lat="48.54524" lon="1.9774">
        <ele>160</ele>
        <time>2019-04-07T08:59:46Z</time>
      </trkpt>
      <trkpt lat="48.5454" lon="1.97706">
        <ele>160</ele>
        <time>2019-04-07T09:00:06Z</time>
      </trkpt>
      <trkpt lat="48.54543" lon="1.97698">
        <ele>160</ele>
        <time>2019-04-07T09:00:11Z</time>
      </trkpt>
      <trkpt lat="48.54543" lon="1.97692">
        <ele>160</ele>
        <time>2019-04-07T09:00:15Z</time>
      </trkpt>
      <trkpt lat="48.54561" lon="1.97644">
        <ele>160</ele>
        <time>2019-04-07T09:00:47Z</time>
      </trkpt>
      <trkpt lat="48.54566" lon="1.97634">
        <ele>160</ele>
        <time>2019-04-07T09:00:54Z</time>
      </trkpt>
      <trkpt lat="48.54568" lon="1.9762">
        <ele>160</ele>
        <time>2019-04-07T09:01:00Z</time>
      </trkpt>
      <trkpt lat="48.54574" lon="1.97598">
        <ele>160</ele>
        <time>2019-04-07T09:01:12Z</time>
      </trkpt>
      <trkpt lat="48.54582" lon="1.97589">
        <ele>160</ele>
        <time>2019-04-07T09:01:18Z</time>
      </trkpt>
      <trkpt lat="48.54592" lon="1.9755">
        <ele>161</ele>
        <time>2019-04-07T09:01:41Z</time>
      </trkpt>
      <trkpt lat="48.54598" lon="1.9754">
        <ele>161</ele>
        <time>2019-04-07T09:01:49Z</time>
      </trkpt>
      <trkpt lat="48.54601" lon="1.97526">
        <ele>160</ele>
        <time>2019-04-07T09:01:56Z</time>
      </trkpt>
      <trkpt lat="48.54608" lon="1.97516">
        <ele>161</ele>
        <time>2019-04-07T09:02:04Z</time>
      </trkpt>
      <trkpt lat="48.54615" lon="1.97508">
        <ele>161</ele>
        <time>2019-04-07T09:02:10Z</time>
      </trkpt>
      <trkpt lat="48.5462" lon="1.97494">
        <ele>161</ele>
        <time>2019-04-07T09:02:17Z</time>
      </trkpt>
      <trkpt lat="48.5463" lon="1.97468">
        <ele>161</ele>
        <time>2019-04-07T09:02:30Z</time>
      </trkpt>
      <trkpt lat="48.54633" lon="1.97454">
        <ele>161</ele>
        <time>2019-04-07T09:02:38Z</time>
      </trkpt>
      <trkpt lat="48.5464" lon="1.97444">
        <ele>161</ele>
        <time>2019-04-07T09:02:45Z</time>
      </trkpt>
      <trkpt lat="48.54654" lon="1.97398">
        <ele>160</ele>
        <time>2019-04-07T09:03:09Z</time>
      </trkpt>
      <trkpt lat="48.54657" lon="1.97371">
        <ele>160</ele>
        <time>2019-04-07T09:03:22Z</time>
      </trkpt>
      <trkpt lat="48.54663" lon="1.97359">
        <ele>160</ele>
        <time>2019-04-07T09:03:28Z</time>
      </trkpt>
      <trkpt lat="48.5467" lon="1.97349">
        <ele>160</ele>
        <time>2019-04-07T09:03:34Z</time>
      </trkpt>
      <trkpt lat="48.54676" lon="1.9734">
        <ele>160</ele>
        <time>2019-04-07T09:03:41Z</time>
      </trkpt>
      <trkpt lat="48.54679" lon="1.97326">
        <ele>160</ele>
        <time>2019-04-07T09:03:47Z</time>
      </trkpt>
      <trkpt lat="48.54684" lon="1.973">
        <ele>160</ele>
        <time>2019-04-07T09:03:58Z</time>
      </trkpt>
      <trkpt lat="48.54688" lon="1.97289">
        <ele>160</ele>
        <time>2019-04-07T09:04:04Z</time>
      </trkpt>
      <trkpt lat="48.54692" lon="1.97265">
        <ele>160</ele>
        <time>2019-04-07T09:04:18Z</time>
      </trkpt>
      <trkpt lat="48.54698" lon="1.97254">
        <ele>160</ele>
        <time>2019-04-07T09:04:26Z</time>
      </trkpt>
      <trkpt lat="48.54703" lon="1.97245">
        <ele>160</ele>
        <time>2019-04-07T09:04:32Z</time>
      </trkpt>
      <trkpt lat="48.54707" lon="1.97231">
        <ele>159</ele>
        <time>2019-04-07T09:04:41Z</time>
      </trkpt>
      <trkpt lat="48.54719" lon="1.97197">
        <ele>159</ele>
        <time>2019-04-07T09:05:02Z</time>
      </trkpt>
      <trkpt lat="48.54719" lon="1.97192">
        <ele>159</ele>
        <time>2019-04-07T09:05:06Z</time>
      </trkpt>
      <trkpt lat="48.54716" lon="1.9718">
        <ele>159</ele>
        <time>2019-04-07T09:05:31Z</time>
      </trkpt>
      <trkpt lat="48.54709" lon="1.97175">
        <ele>160</ele>
        <time>2019-04-07T09:08:08Z</time>
      </trkpt>
      <trkpt lat="48.54708" lon="1.97168">
        <ele>160</ele>
        <time>2019-04-07T09:08:32Z</time>
      </trkpt>
      <trkpt lat="48.54713" lon="1.97167">
        <ele>161</ele>
        <time>2019-04-07T09:10:07Z</time>
      </trkpt>
      <trkpt lat="48.54718" lon="1.97166">
        <ele>161</ele>
        <time>2019-04-07T09:10:13Z</time>
      </trkpt>
      <trkpt lat="48.54738" lon="1.97154">
        <ele>162</ele>
        <time>2019-04-07T09:10:39Z</time>
      </trkpt>
      <trkpt lat="48.54751" lon="1.97141">
        <ele>162</ele>
        <time>2019-04-07T09:10:54Z</time>
      </trkpt>
      <trkpt lat="48.54757" lon="1.97135">
        <ele>162</ele>
        <time>2019-04-07T09:11:01Z</time>
      </trkpt>
      <trkpt lat="48.54761" lon="1.97131">
        <ele>162</ele>
        <time>2019-04-07T09:11:06Z</time>
      </trkpt>
      <trkpt lat="48.54775" lon="1.97119">
        <ele>162</ele>
        <time>2019-04-07T09:11:21Z</time>
      </trkpt>
      <trkpt lat="48.54788" lon="1.97104">
        <ele>162</ele>
        <time>2019-04-07T09:11:35Z</time>
      </trkpt>
      <trkpt lat="48.5483" lon="1.97073">
        <ele>163</ele>
        <time>2019-04-07T09:12:06Z</time>
      </trkpt>
      <trkpt lat="48.54855" lon="1.97053">
        <ele>163</ele>
        <time>2019-04-07T09:12:24Z</time>
      </trkpt>
      <trkpt lat="48.54868" lon="1.9704">
        <ele>163</ele>
        <time>2019-04-07T09:12:36Z</time>
      </trkpt>
      <trkpt lat="48.54878" lon="1.97037">
        <ele>164</ele>
        <time>2019-04-07T09:12:42Z</time>
      </trkpt>
      <trkpt lat="48.54916" lon="1.97002">
        <ele>164</ele>
        <time>2019-04-07T09:13:14Z</time>
      </trkpt>
      <trkpt lat="48.54924" lon="1.96993">
        <ele>164</ele>
        <time>2019-04-07T09:13:20Z</time>
      </trkpt>
      <trkpt lat="48.54972" lon="1.96951">
        <ele>165</ele>
        <time>2019-04-07T09:13:57Z</time>
      </trkpt>
      <trkpt lat="48.55008" lon="1.96914">
        <ele>165</ele>
        <time>2019-04-07T09:14:30Z</time>
      </trkpt>
      <trkpt lat="48.55016" lon="1.96906">
        <ele>165</ele>
        <time>2019-04-07T09:14:39Z</time>
      </trkpt>
      <trkpt lat="48.55042" lon="1.96887">
        <ele>165</ele>
        <time>2019-04-07T09:15:02Z</time>
      </trkpt>
      <trkpt lat="48.55051" lon="1.96876">
        <ele>166</ele>
        <time>2019-04-07T09:15:10Z</time>
      </trkpt>
      <trkpt lat="48.5509" lon="1.96843">
        <ele>166</ele>
        <time>2019-04-07T09:15:44Z</time>
      </trkpt>
      <trkpt lat="48.55095" lon="1.96839">
        <ele>166</ele>
        <time>2019-04-07T09:15:48Z</time>
      </trkpt>
      <trkpt lat="48.55101" lon="1.96828">
        <ele>166</ele>
        <time>2019-04-07T09:15:56Z</time>
      </trkpt>
      <trkpt lat="48.55112" lon="1.96823">
        <ele>166</ele>
        <time>2019-04-07T09:16:05Z</time>
      </trkpt>
      <trkpt lat="48.55115" lon="1.96815">
        <ele>166</ele>
        <time>2019-04-07T09:16:10Z</time>
      </trkpt>
      <trkpt lat="48.55131" lon="1.96795">
        <ele>167</ele>
        <time>2019-04-07T09:16:27Z</time>
      </trkpt>
      <trkpt lat="48.55167" lon="1.96763">
        <ele>167</ele>
        <time>2019-04-07T09:16:58Z</time>
      </trkpt>
      <trkpt lat="48.55178" lon="1.96748">
        <ele>167</ele>
        <time>2019-04-07T09:17:12Z</time>
      </trkpt>
      <trkpt lat="48.55187" lon="1.96742">
        <ele>167</ele>
        <time>2019-04-07T09:17:19Z</time>
      </trkpt>
      <trkpt lat="48.55212" lon="1.96711">
        <ele>168</ele>
        <time>2019-04-07T09:17:44Z</time>
      </trkpt>
      <trkpt lat="48.5525" lon="1.96679">
        <ele>168</ele>
        <time>2019-04-07T09:18:17Z</time>
      </trkpt>
      <trkpt lat="48.55284" lon="1.9665">
        <ele>169</ele>
        <time>2019-04-07T09:18:51Z</time>
      </trkpt>
      <trkpt lat="48.55309" lon="1.9663">
        <ele>168</ele>
        <time>2019-04-07T09:19:09Z</time>
      </trkpt>
      <trkpt lat="48.55316" lon="1.9662">
        <ele>168</ele>
        <time>2019-04-07T09:19:16Z</time>
      </trkpt>
      <trkpt lat="48.55318" lon="1.96616">
        <ele>168</ele>
        <time>2019-04-07T09:19:19Z</time>
      </trkpt>
      <trkpt lat="48.55322" lon="1.96612">
        <ele>169</ele>
        <time>2019-04-07T09:19:24Z</time>
      </trkpt>
      <trkpt lat="48.55326" lon="1.96594">
        <ele>169</ele>
        <time>2019-04-07T09:19:58Z</time>
      </trkpt>
      <trkpt lat="48.55325" lon="1.96585">
        <ele>170</ele>
        <time>2019-04-07T09:20:34Z</time>
      </trkpt>
      <trkpt lat="48.55318" lon="1.96582">
        <ele>170</ele>
        <time>2019-04-07T09:21:09Z</time>
      </trkpt>
      <trkpt lat="48.5531" lon="1.96585">
        <ele>170</ele>
        <time>2019-04-07T09:21:17Z</time>
      </trkpt>
      <trkpt lat="48.55294" lon="1.96581">
        <ele>170</ele>
        <time>2019-04-07T09:21:29Z</time>
      </trkpt>
      <trkpt lat="48.55285" lon="1.96575">
        <ele>170</ele>
        <time>2019-04-07T09:21:36Z</time>
      </trkpt>
      <trkpt lat="48.55265" lon="1.96565">
        <ele>169</ele>
        <time>2019-04-07T09:21:50Z</time>
      </trkpt>
      <trkpt lat="48.55232" lon="1.96541">
        <ele>170</ele>
        <time>2019-04-07T09:22:26Z</time>
      </trkpt>
      <trkpt lat="48.55233" lon="1.96526">
        <ele>170</ele>
        <time>2019-04-07T09:22:42Z</time>
      </trkpt>
      <trkpt lat="48.55236" lon="1.96522">
        <ele>170</ele>
        <time>2019-04-07T09:22:50Z</time>
      </trkpt>
      <trkpt lat="48.55235" lon="1.96514">
        <ele>170</ele>
        <time>2019-04-07T09:22:56Z</time>
      </trkpt>
      <trkpt lat="48.55236" lon="1.96507">
        <ele>170</ele>
        <time>2019-04-07T09:23:01Z</time>
      </trkpt>
      <trkpt lat="48.55235" lon="1.965">
        <ele>170</ele>
        <time>2019-04-07T09:23:06Z</time>
      </trkpt>
      <trkpt lat="48.55241" lon="1.96499">
        <ele>170</ele>
        <time>2019-04-07T09:23:19Z</time>
      </trkpt>
      <trkpt lat="48.55245" lon="1.96494">
        <ele>170</ele>
        <time>2019-04-07T09:23:56Z</time>
      </trkpt>
      <trkpt lat="48.55249" lon="1.96486">
        <ele>170</ele>
        <time>2019-04-07T09:24:10Z</time>
      </trkpt>
      <trkpt lat="48.55255" lon="1.96488">
        <ele>172</ele>
        <time>2019-04-07T09:25:09Z</time>
      </trkpt>
      <trkpt lat="48.55253" lon="1.96477">
        <ele>171</ele>
        <time>2019-04-07T09:25:37Z</time>
      </trkpt>
      <trkpt lat="48.55262" lon="1.96471">
        <ele>171</ele>
        <time>2019-04-07T09:25:45Z</time>
      </trkpt>
      <trkpt lat="48.5527" lon="1.96461">
        <ele>171</ele>
        <time>2019-04-07T09:25:53Z</time>
      </trkpt>
      <trkpt lat="48.55275" lon="1.96459">
        <ele>171</ele>
        <time>2019-04-07T09:25:56Z</time>
      </trkpt>
      <trkpt lat="48.55278" lon="1.96455">
        <ele>171</ele>
        <time>2019-04-07T09:25:59Z</time>
      </trkpt>
      <trkpt lat="48.55282" lon="1.96451">
        <ele>171</ele>
        <time>2019-04-07T09:26:04Z</time>
      </trkpt>
      <trkpt lat="48.55288" lon="1.96451">
        <ele>171</ele>
        <time>2019-04-07T09:26:08Z</time>
      </trkpt>
      <trkpt lat="48.55303" lon="1.96441">
        <ele>171</ele>
        <time>2019-04-07T09:26:25Z</time>
      </trkpt>
      <trkpt lat="48.55319" lon="1.9644">
        <ele>171</ele>
        <time>2019-04-07T09:26:38Z</time>
      </trkpt>
      <trkpt lat="48.55324" lon="1.96437">
        <ele>172</ele>
        <time>2019-04-07T09:26:43Z</time>
      </trkpt>
      <trkpt lat="48.55327" lon="1.96433">
        <ele>172</ele>
        <time>2019-04-07T09:26:48Z</time>
      </trkpt>
      <trkpt lat="48.55328" lon="1.96426">
        <ele>172</ele>
        <time>2019-04-07T09:26:52Z</time>
      </trkpt>
      <trkpt lat="48.55326" lon="1.96415">
        <ele>172</ele>
        <time>2019-04-07T09:26:58Z</time>
      </trkpt>
      <trkpt lat="48.55321" lon="1.96361">
        <ele>172</ele>
        <time>2019-04-07T09:27:26Z</time>
      </trkpt>
      <trkpt lat="48.55321" lon="1.96305">
        <ele>172</ele>
        <time>2019-04-07T09:27:54Z</time>
      </trkpt>
      <trkpt lat="48.55316" lon="1.96245">
        <ele>172</ele>
        <time>2019-04-07T09:28:26Z</time>
      </trkpt>
      <trkpt lat="48.55313" lon="1.96184">
        <ele>172</ele>
        <time>2019-04-07T09:28:58Z</time>
      </trkpt>
      <trkpt lat="48.55313" lon="1.96162">
        <ele>171</ele>
        <time>2019-04-07T09:29:10Z</time>
      </trkpt>
      <trkpt lat="48.55311" lon="1.96143">
        <ele>171</ele>
        <time>2019-04-07T09:29:20Z</time>
      </trkpt>
      <trkpt lat="48.55311" lon="1.96129">
        <ele>172</ele>
        <time>2019-04-07T09:29:28Z</time>
      </trkpt>
      <trkpt lat="48.55311" lon="1.96121">
        <ele>171</ele>
        <time>2019-04-07T09:29:32Z</time>
      </trkpt>
      <trkpt lat="48.55312" lon="1.96107">
        <ele>171</ele>
        <time>2019-04-07T09:29:40Z</time>
      </trkpt>
      <trkpt lat="48.55309" lon="1.96047">
        <ele>171</ele>
        <time>2019-04-07T09:30:12Z</time>
      </trkpt>
      <trkpt lat="48.55309" lon="1.96039">
        <ele>171</ele>
        <time>2019-04-07T09:30:16Z</time>
      </trkpt>
      <trkpt lat="48.55307" lon="1.96023">
        <ele>170</ele>
        <time>2019-04-07T09:30:24Z</time>
      </trkpt>
      <trkpt lat="48.55306" lon="1.9596">
        <ele>170</ele>
        <time>2019-04-07T09:30:56Z</time>
      </trkpt>
      <trkpt lat="48.55306" lon="1.95945">
        <ele>170</ele>
        <time>2019-04-07T09:31:04Z</time>
      </trkpt>
      <trkpt lat="48.55307" lon="1.95938">
        <ele>170</ele>
        <time>2019-04-07T09:31:08Z</time>
      </trkpt>
      <trkpt lat="48.55305" lon="1.95875">
        <ele>170</ele>
        <time>2019-04-07T09:31:40Z</time>
      </trkpt>
      <trkpt lat="48.55304" lon="1.9586">
        <ele>170</ele>
        <time>2019-04-07T09:31:47Z</time>
      </trkpt>
      <trkpt lat="48.55305" lon="1.95852">
        <ele>170</ele>
        <time>2019-04-07T09:31:52Z</time>
      </trkpt>
      <trkpt lat="48.55304" lon="1.95787">
        <ele>170</ele>
        <time>2019-04-07T09:32:45Z</time>
      </trkpt>
      <trkpt lat="48.55303" lon="1.9578">
        <ele>169</ele>
        <time>2019-04-07T09:32:49Z</time>
      </trkpt>
      <trkpt lat="48.55302" lon="1.95772">
        <ele>170</ele>
        <time>2019-04-07T09:32:54Z</time>
      </trkpt>
      <trkpt lat="48.55304" lon="1.9576">
        <ele>169</ele>
        <time>2019-04-07T09:33:02Z</time>
      </trkpt>
      <trkpt lat="48.55303" lon="1.95752">
        <ele>169</ele>
        <time>2019-04-07T09:33:06Z</time>
      </trkpt>
      <trkpt lat="48.55303" lon="1.95745">
        <ele>169</ele>
        <time>2019-04-07T09:33:11Z</time>
      </trkpt>
      <trkpt lat="48.55303" lon="1.95727">
        <ele>169</ele>
        <time>2019-04-07T09:33:21Z</time>
      </trkpt>
      <trkpt lat="48.55301" lon="1.95721">
        <ele>169</ele>
        <time>2019-04-07T09:33:24Z</time>
      </trkpt>
      <trkpt lat="48.553" lon="1.95683">
        <ele>169</ele>
        <time>2019-04-07T09:33:43Z</time>
      </trkpt>
      <trkpt lat="48.55301" lon="1.95672">
        <ele>170</ele>
        <time>2019-04-07T09:34:09Z</time>
      </trkpt>
      <trkpt lat="48.55301" lon="1.95665">
        <ele>169</ele>
        <time>2019-04-07T09:34:16Z</time>
      </trkpt>
      <trkpt lat="48.55298" lon="1.95652">
        <ele>170</ele>
        <time>2019-04-07T09:34:26Z</time>
      </trkpt>
      <trkpt lat="48.55299" lon="1.95629">
        <ele>169</ele>
        <time>2019-04-07T09:34:37Z</time>
      </trkpt>
      <trkpt lat="48.55299" lon="1.95621">
        <ele>169</ele>
        <time>2019-04-07T09:34:41Z</time>
      </trkpt>
      <trkpt lat="48.55299" lon="1.95613">
        <ele>169</ele>
        <time>2019-04-07T09:34:45Z</time>
      </trkpt>
      <trkpt lat="48.55303" lon="1.95589">
        <ele>169</ele>
        <time>2019-04-07T09:34:58Z</time>
      </trkpt>
      <trkpt lat="48.553" lon="1.95555">
        <ele>169</ele>
        <time>2019-04-07T09:35:12Z</time>
      </trkpt>
      <trkpt lat="48.553" lon="1.95541">
        <ele>169</ele>
        <time>2019-04-07T09:35:18Z</time>
      </trkpt>
      <trkpt lat="48.55295" lon="1.9551">
        <ele>169</ele>
        <time>2019-04-07T09:35:35Z</time>
      </trkpt>
      <trkpt lat="48.55296" lon="1.95489">
        <ele>169</ele>
        <time>2019-04-07T09:35:45Z</time>
      </trkpt>
      <trkpt lat="48.55304" lon="1.95467">
        <ele>169</ele>
        <time>2019-04-07T09:35:58Z</time>
      </trkpt>
      <trkpt lat="48.55311" lon="1.95459">
        <ele>169</ele>
        <time>2019-04-07T09:36:07Z</time>
      </trkpt>
      <trkpt lat="48.55328" lon="1.95422">
        <ele>169</ele>
        <time>2019-04-07T09:36:28Z</time>
      </trkpt>
      <trkpt lat="48.55336" lon="1.95413">
        <ele>169</ele>
        <time>2019-04-07T09:36:34Z</time>
      </trkpt>
      <trkpt lat="48.55339" lon="1.95396">
        <ele>169</ele>
        <time>2019-04-07T09:36:41Z</time>
      </trkpt>
      <trkpt lat="48.5534" lon="1.95368">
        <ele>169</ele>
        <time>2019-04-07T09:36:53Z</time>
      </trkpt>
      <trkpt lat="48.55351" lon="1.95339">
        <ele>170</ele>
        <time>2019-04-07T09:37:10Z</time>
      </trkpt>
      <trkpt lat="48.55356" lon="1.95317">
        <ele>170</ele>
        <time>2019-04-07T09:37:20Z</time>
      </trkpt>
      <trkpt lat="48.55367" lon="1.95296">
        <ele>169</ele>
        <time>2019-04-07T09:37:32Z</time>
      </trkpt>
      <trkpt lat="48.55374" lon="1.95275">
        <ele>169</ele>
        <time>2019-04-07T09:37:43Z</time>
      </trkpt>
      <trkpt lat="48.55387" lon="1.95252">
        <ele>169</ele>
        <time>2019-04-07T09:37:59Z</time>
      </trkpt>
      <trkpt lat="48.55391" lon="1.95237">
        <ele>169</ele>
        <time>2019-04-07T09:38:06Z</time>
      </trkpt>
      <trkpt lat="48.55391" lon="1.95212">
        <ele>169</ele>
        <time>2019-04-07T09:38:15Z</time>
      </trkpt>
      <trkpt lat="48.55395" lon="1.95189">
        <ele>170</ele>
        <time>2019-04-07T09:38:27Z</time>
      </trkpt>
      <trkpt lat="48.55399" lon="1.95184">
        <ele>170</ele>
        <time>2019-04-07T09:38:32Z</time>
      </trkpt>
      <trkpt lat="48.55402" lon="1.95176">
        <ele>170</ele>
        <time>2019-04-07T09:38:37Z</time>
      </trkpt>
      <trkpt lat="48.55405" lon="1.95162">
        <ele>170</ele>
        <time>2019-04-07T09:38:45Z</time>
      </trkpt>
      <trkpt lat="48.55426" lon="1.95099">
        <ele>170</ele>
        <time>2019-04-07T09:39:18Z</time>
      </trkpt>
      <trkpt lat="48.5544" lon="1.95063">
        <ele>170</ele>
        <time>2019-04-07T09:39:42Z</time>
      </trkpt>
      <trkpt lat="48.55445" lon="1.95057">
        <ele>170</ele>
        <time>2019-04-07T09:39:48Z</time>
      </trkpt>
      <trkpt lat="48.55449" lon="1.95054">
        <ele>170</ele>
        <time>2019-04-07T09:39:52Z</time>
      </trkpt>
      <trkpt lat="48.55458" lon="1.95026">
        <ele>170</ele>
        <time>2019-04-07T09:40:06Z</time>
      </trkpt>
      <trkpt lat="48.55464" lon="1.95014">
        <ele>170</ele>
        <time>2019-04-07T09:40:16Z</time>
      </trkpt>
      <trkpt lat="48.55473" lon="1.94981">
        <ele>170</ele>
        <time>2019-04-07T09:40:31Z</time>
      </trkpt>
      <trkpt lat="48.55489" lon="1.94932">
        <ele>170</ele>
        <time>2019-04-07T09:41:05Z</time>
      </trkpt>
      <trkpt lat="48.55492" lon="1.94917">
        <ele>170</ele>
        <time>2019-04-07T09:41:12Z</time>
      </trkpt>
      <trkpt lat="48.55502" lon="1.94884">
        <ele>170</ele>
        <time>2019-04-07T09:41:31Z</time>
      </trkpt>
      <trkpt lat="48.55505" lon="1.94869">
        <ele>170</ele>
        <time>2019-04-07T09:41:39Z</time>
      </trkpt>
      <trkpt lat="48.55508" lon="1.94862">
        <ele>170</ele>
        <time>2019-04-07T09:41:43Z</time>
      </trkpt>
      <trkpt lat="48.55519" lon="1.94846">
        <ele>170</ele>
        <time>2019-04-07T09:41:55Z</time>
      </trkpt>
      <trkpt lat="48.55538" lon="1.9479">
        <ele>170</ele>
        <time>2019-04-07T09:42:29Z</time>
      </trkpt>
      <trkpt lat="48.55541" lon="1.94771">
        <ele>170</ele>
        <time>2019-04-07T09:42:42Z</time>
      </trkpt>
      <trkpt lat="48.55547" lon="1.94757">
        <ele>169</ele>
        <time>2019-04-07T09:42:52Z</time>
      </trkpt>
      <trkpt lat="48.55554" lon="1.94721">
        <ele>170</ele>
        <time>2019-04-07T09:43:15Z</time>
      </trkpt>
      <trkpt lat="48.55553" lon="1.94713">
        <ele>170</ele>
        <time>2019-04-07T09:43:19Z</time>
      </trkpt>
      <trkpt lat="48.55545" lon="1.947">
        <ele>170</ele>
        <time>2019-04-07T09:43:28Z</time>
      </trkpt>
      <trkpt lat="48.55532" lon="1.94689">
        <ele>170</ele>
        <time>2019-04-07T09:43:41Z</time>
      </trkpt>
      <trkpt lat="48.5551" lon="1.94674">
        <ele>170</ele>
        <time>2019-04-07T09:44:00Z</time>
      </trkpt>
      <trkpt lat="48.55505" lon="1.94668">
        <ele>170</ele>
        <time>2019-04-07T09:44:04Z</time>
      </trkpt>
      <trkpt lat="48.555" lon="1.94665">
        <ele>170</ele>
        <time>2019-04-07T09:44:08Z</time>
      </trkpt>
      <trkpt lat="48.55495" lon="1.94664">
        <ele>170</ele>
        <time>2019-04-07T09:44:12Z</time>
      </trkpt>
      <trkpt lat="48.55455" lon="1.94636">
        <ele>170</ele>
        <time>2019-04-07T09:44:45Z</time>
      </trkpt>
      <trkpt lat="48.55428" lon="1.94616">
        <ele>170</ele>
        <time>2019-04-07T09:45:05Z</time>
      </trkpt>
      <trkpt lat="48.55419" lon="1.9461">
        <ele>170</ele>
        <time>2019-04-07T09:45:13Z</time>
      </trkpt>
      <trkpt lat="48.55408" lon="1.94607">
        <ele>170</ele>
        <time>2019-04-07T09:45:21Z</time>
      </trkpt>
      <trkpt lat="48.55368" lon="1.94581">
        <ele>169</ele>
        <time>2019-04-07T09:45:54Z</time>
      </trkpt>
      <trkpt lat="48.55328" lon="1.94552">
        <ele>168</ele>
        <time>2019-04-07T09:46:24Z</time>
      </trkpt>
      <trkpt lat="48.55323" lon="1.94549">
        <ele>168</ele>
        <time>2019-04-07T09:46:28Z</time>
      </trkpt>
      <trkpt lat="48.55317" lon="1.9454">
        <ele>168</ele>
        <time>2019-04-07T09:46:37Z</time>
      </trkpt>
      <trkpt lat="48.55301" lon="1.94531">
        <ele>168</ele>
        <time>2019-04-07T09:46:47Z</time>
      </trkpt>
      <trkpt lat="48.55292" lon="1.94526">
        <ele>168</ele>
        <time>2019-04-07T09:46:54Z</time>
      </trkpt>
      <trkpt lat="48.55288" lon="1.94522">
        <ele>168</ele>
        <time>2019-04-07T09:46:58Z</time>
      </trkpt>
      <trkpt lat="48.55277" lon="1.94518">
        <ele>168</ele>
        <time>2019-04-07T09:47:09Z</time>
      </trkpt>
      <trkpt lat="48.5525" lon="1.945">
        <ele>168</ele>
        <time>2019-04-07T09:47:35Z</time>
      </trkpt>
      <trkpt lat="48.55245" lon="1.94497">
        <ele>168</ele>
        <time>2019-04-07T09:47:39Z</time>
      </trkpt>
      <trkpt lat="48.55218" lon="1.94475">
        <ele>168</ele>
        <time>2019-04-07T09:47:59Z</time>
      </trkpt>
      <trkpt lat="48.55197" lon="1.94465">
        <ele>167</ele>
        <time>2019-04-07T09:48:14Z</time>
      </trkpt>
      <trkpt lat="48.55152" lon="1.94435">
        <ele>167</ele>
        <time>2019-04-07T09:48:45Z</time>
      </trkpt>
      <trkpt lat="48.55113" lon="1.94412">
        <ele>167</ele>
        <time>2019-04-07T09:49:16Z</time>
      </trkpt>
      <trkpt lat="48.55108" lon="1.94411">
        <ele>167</ele>
        <time>2019-04-07T09:49:20Z</time>
      </trkpt>
      <trkpt lat="48.55102" lon="1.94415">
        <ele>167</ele>
        <time>2019-04-07T09:49:24Z</time>
      </trkpt>
      <trkpt lat="48.55096" lon="1.94428">
        <ele>167</ele>
        <time>2019-04-07T09:49:33Z</time>
      </trkpt>
      <trkpt lat="48.55076" lon="1.94495">
        <ele>166</ele>
        <time>2019-04-07T09:50:06Z</time>
      </trkpt>
      <trkpt lat="48.55058" lon="1.94553">
        <ele>165</ele>
        <time>2019-04-07T09:50:37Z</time>
      </trkpt>
      <trkpt lat="48.55039" lon="1.94611">
        <ele>165</ele>
        <time>2019-04-07T09:51:08Z</time>
      </trkpt>
      <trkpt lat="48.55016" lon="1.94675">
        <ele>164</ele>
        <time>2019-04-07T09:51:42Z</time>
      </trkpt>
      <trkpt lat="48.54998" lon="1.94739">
        <ele>163</ele>
        <time>2019-04-07T09:52:16Z</time>
      </trkpt>
      <trkpt lat="48.54993" lon="1.94754">
        <ele>163</ele>
        <time>2019-04-07T09:52:23Z</time>
      </trkpt>
      <trkpt lat="48.54975" lon="1.94802">
        <ele>163</ele>
        <time>2019-04-07T09:52:50Z</time>
      </trkpt>
      <trkpt lat="48.5497" lon="1.94823">
        <ele>163</ele>
        <time>2019-04-07T09:53:00Z</time>
      </trkpt>
      <trkpt lat="48.54948" lon="1.94887">
        <ele>163</ele>
        <time>2019-04-07T09:53:33Z</time>
      </trkpt>
      <trkpt lat="48.54927" lon="1.94947">
        <ele>163</ele>
        <time>2019-04-07T09:54:04Z</time>
      </trkpt>
      <trkpt lat="48.5492" lon="1.94969">
        <ele>162</ele>
        <time>2019-04-07T09:54:16Z</time>
      </trkpt>
      <trkpt lat="48.54915" lon="1.94983">
        <ele>163</ele>
        <time>2019-04-07T09:54:24Z</time>
      </trkpt>
      <trkpt lat="48.54904" lon="1.95019">
        <ele>163</ele>
        <time>2019-04-07T09:54:43Z</time>
      </trkpt>
      <trkpt lat="48.54891" lon="1.95052">
        <ele>163</ele>
        <time>2019-04-07T09:55:01Z</time>
      </trkpt>
      <trkpt lat="48.5487" lon="1.95116">
        <ele>163</ele>
        <time>2019-04-07T09:55:35Z</time>
      </trkpt>
      <trkpt lat="48.5485" lon="1.95172">
        <ele>162</ele>
        <time>2019-04-07T09:56:05Z</time>
      </trkpt>
      <trkpt lat="48.54849" lon="1.95179">
        <ele>162</ele>
        <time>2019-04-07T09:56:09Z</time>
      </trkpt>
      <trkpt lat="48.54845" lon="1.95188">
        <ele>162</ele>
        <time>2019-04-07T09:56:16Z</time>
      </trkpt>
      <trkpt lat="48.54844" lon="1.95189">
        <ele>162</ele>
        <time>2019-04-07T09:58:03Z</time>
      </trkpt>
      <trkpt lat="48.54506" lon="1.96059">
        <ele>157</ele>
        <time>2019-04-07T12:19:37Z</time>
      </trkpt>
      <trkpt lat="48.54511" lon="1.96052">
        <ele>157</ele>
        <time>2019-04-07T12:19:55Z</time>
      </trkpt>
      <trkpt lat="48.54507" lon="1.96038">
        <ele>157</ele>
        <time>2019-04-07T12:20:07Z</time>
      </trkpt>
      <trkpt lat="48.54501" lon="1.96016">
        <ele>156</ele>
        <time>2019-04-07T12:20:24Z</time>
      </trkpt>
      <trkpt lat="48.54493" lon="1.95978">
        <ele>156</ele>
        <time>2019-04-07T12:20:45Z</time>
      </trkpt>
      <trkpt lat="48.54489" lon="1.95965">
        <ele>155</ele>
        <time>2019-04-07T12:20:55Z</time>
      </trkpt>
      <trkpt lat="48.54488" lon="1.95959">
        <ele>155</ele>
        <time>2019-04-07T12:20:58Z</time>
      </trkpt>
      <trkpt lat="48.54487" lon="1.95952">
        <ele>155</ele>
        <time>2019-04-07T12:21:02Z</time>
      </trkpt>
      <trkpt lat="48.54486" lon="1.95944">
        <ele>155</ele>
        <time>2019-04-07T12:21:06Z</time>
      </trkpt>
      <trkpt lat="48.5448" lon="1.95899">
        <ele>155</ele>
        <time>2019-04-07T12:21:34Z</time>
      </trkpt>
      <trkpt lat="48.54469" lon="1.95856">
        <ele>155</ele>
        <time>2019-04-07T12:21:59Z</time>
      </trkpt>
      <trkpt lat="48.54465" lon="1.95811">
        <ele>154</ele>
        <time>2019-04-07T12:22:24Z</time>
      </trkpt>
      <trkpt lat="48.54463" lon="1.95805">
        <ele>154</ele>
        <time>2019-04-07T12:22:27Z</time>
      </trkpt>
      <trkpt lat="48.54462" lon="1.95797">
        <ele>154</ele>
        <time>2019-04-07T12:22:32Z</time>
      </trkpt>
      <trkpt lat="48.54451" lon="1.95738">
        <ele>154</ele>
        <time>2019-04-07T12:23:05Z</time>
      </trkpt>
      <trkpt lat="48.54438" lon="1.95675">
        <ele>153</ele>
        <time>2019-04-07T12:23:39Z</time>
      </trkpt>
      <trkpt lat="48.54432" lon="1.95638">
        <ele>153</ele>
        <time>2019-04-07T12:23:57Z</time>
      </trkpt>
      <trkpt lat="48.54428" lon="1.95609">
        <ele>153</ele>
        <time>2019-04-07T12:24:12Z</time>
      </trkpt>
      <trkpt lat="48.54421" lon="1.95579">
        <ele>152</ele>
        <time>2019-04-07T12:24:29Z</time>
      </trkpt>
      <trkpt lat="48.54412" lon="1.9553">
        <ele>153</ele>
        <time>2019-04-07T12:24:53Z</time>
      </trkpt>
      <trkpt lat="48.54408" lon="1.95506">
        <ele>153</ele>
        <time>2019-04-07T12:25:06Z</time>
      </trkpt>
      <trkpt lat="48.54408" lon="1.95498">
        <ele>153</ele>
        <time>2019-04-07T12:25:11Z</time>
      </trkpt>
      <trkpt lat="48.54397" lon="1.95431">
        <ele>153</ele>
        <time>2019-04-07T12:25:48Z</time>
      </trkpt>
      <trkpt lat="48.54387" lon="1.95376">
        <ele>153</ele>
        <time>2019-04-07T12:26:19Z</time>
      </trkpt>
      <trkpt lat="48.54376" lon="1.95325">
        <ele>152</ele>
        <time>2019-04-07T12:26:49Z</time>
      </trkpt>
      <trkpt lat="48.54375" lon="1.95317">
        <ele>152</ele>
        <time>2019-04-07T12:26:53Z</time>
      </trkpt>
      <trkpt lat="48.54364" lon="1.95255">
        <ele>153</ele>
        <time>2019-04-07T12:27:26Z</time>
      </trkpt>
      <trkpt lat="48.54363" lon="1.95247">
        <ele>153</ele>
        <time>2019-04-07T12:27:30Z</time>
      </trkpt>
      <trkpt lat="48.54362" lon="1.9524">
        <ele>153</ele>
        <time>2019-04-07T12:27:35Z</time>
      </trkpt>
      <trkpt lat="48.5435" lon="1.95179">
        <ele>153</ele>
        <time>2019-04-07T12:28:06Z</time>
      </trkpt>
      <trkpt lat="48.5435" lon="1.95171">
        <ele>153</ele>
        <time>2019-04-07T12:28:10Z</time>
      </trkpt>
      <trkpt lat="48.54348" lon="1.95163">
        <ele>153</ele>
        <time>2019-04-07T12:28:15Z</time>
      </trkpt>
      <trkpt lat="48.54336" lon="1.95103">
        <ele>152</ele>
        <time>2019-04-07T12:28:47Z</time>
      </trkpt>
      <trkpt lat="48.54322" lon="1.95037">
        <ele>145</ele>
        <time>2019-04-07T12:29:21Z</time>
      </trkpt>
      <trkpt lat="48.54321" lon="1.95022">
        <ele>143</ele>
        <time>2019-04-07T12:29:30Z</time>
      </trkpt>
      <trkpt lat="48.54312" lon="1.94968">
        <ele>134</ele>
        <time>2019-04-07T12:30:01Z</time>
      </trkpt>
      <trkpt lat="48.5431" lon="1.94951">
        <ele>132</ele>
        <time>2019-04-07T12:30:11Z</time>
      </trkpt>
      <trkpt lat="48.54308" lon="1.94944">
        <ele>131</ele>
        <time>2019-04-07T12:30:16Z</time>
      </trkpt>
      <trkpt lat="48.54303" lon="1.94943">
        <ele>131</ele>
        <time>2019-04-07T12:30:21Z</time>
      </trkpt>
      <trkpt lat="48.54298" lon="1.94946">
        <ele>130</ele>
        <time>2019-04-07T12:30:25Z</time>
      </trkpt>
      <trkpt lat="48.54284" lon="1.94949">
        <ele>130</ele>
        <time>2019-04-07T12:30:38Z</time>
      </trkpt>
      <trkpt lat="48.54279" lon="1.94951">
        <ele>130</ele>
        <time>2019-04-07T12:30:43Z</time>
      </trkpt>
      <trkpt lat="48.54274" lon="1.94952">
        <ele>130</ele>
        <time>2019-04-07T12:30:46Z</time>
      </trkpt>
      <trkpt lat="48.54269" lon="1.94953">
        <ele>130</ele>
        <time>2019-04-07T12:30:50Z</time>
      </trkpt>
      <trkpt lat="48.54259" lon="1.94954">
        <ele>130</ele>
        <time>2019-04-07T12:30:58Z</time>
      </trkpt>
      <trkpt lat="48.54247" lon="1.94958">
        <ele>129</ele>
        <time>2019-04-07T12:31:08Z</time>
      </trkpt>
      <trkpt lat="48.54227" lon="1.94956">
        <ele>129</ele>
        <time>2019-04-07T12:31:21Z</time>
      </trkpt>
      <trkpt lat="48.54212" lon="1.94953">
        <ele>128</ele>
        <time>2019-04-07T12:31:34Z</time>
      </trkpt>
      <trkpt lat="48.54171" lon="1.94945">
        <ele>129</ele>
        <time>2019-04-07T12:32:06Z</time>
      </trkpt>
      <trkpt lat="48.54165" lon="1.94945">
        <ele>129</ele>
        <time>2019-04-07T12:32:10Z</time>
      </trkpt>
      <trkpt lat="48.54158" lon="1.94948">
        <ele>129</ele>
        <time>2019-04-07T12:32:17Z</time>
      </trkpt>
      <trkpt lat="48.54148" lon="1.94946">
        <ele>129</ele>
        <time>2019-04-07T12:32:23Z</time>
      </trkpt>
      <trkpt lat="48.54109" lon="1.94934">
        <ele>128</ele>
        <time>2019-04-07T12:32:53Z</time>
      </trkpt>
      <trkpt lat="48.54088" lon="1.94935">
        <ele>128</ele>
        <time>2019-04-07T12:33:10Z</time>
      </trkpt>
      <trkpt lat="48.54084" lon="1.94937">
        <ele>128</ele>
        <time>2019-04-07T12:33:14Z</time>
      </trkpt>
      <trkpt lat="48.5408" lon="1.94941">
        <ele>128</ele>
        <time>2019-04-07T12:33:18Z</time>
      </trkpt>
      <trkpt lat="48.54077" lon="1.94948">
        <ele>128</ele>
        <time>2019-04-07T12:33:22Z</time>
      </trkpt>
      <trkpt lat="48.54072" lon="1.94969">
        <ele>127</ele>
        <time>2019-04-07T12:33:34Z</time>
      </trkpt>
      <trkpt lat="48.54069" lon="1.94983">
        <ele>128</ele>
        <time>2019-04-07T12:33:42Z</time>
      </trkpt>
      <trkpt lat="48.54066" lon="1.95006">
        <ele>127</ele>
        <time>2019-04-07T12:33:56Z</time>
      </trkpt>
      <trkpt lat="48.54067" lon="1.95045">
        <ele>125</ele>
        <time>2019-04-07T12:34:14Z</time>
      </trkpt>
      <trkpt lat="48.54066" lon="1.95052">
        <ele>125</ele>
        <time>2019-04-07T12:34:18Z</time>
      </trkpt>
      <trkpt lat="48.5407" lon="1.95071">
        <ele>125</ele>
        <time>2019-04-07T12:34:30Z</time>
      </trkpt>
      <trkpt lat="48.54072" lon="1.95079">
        <ele>125</ele>
        <time>2019-04-07T12:34:35Z</time>
      </trkpt>
      <trkpt lat="48.54073" lon="1.9509">
        <ele>125</ele>
        <time>2019-04-07T12:34:43Z</time>
      </trkpt>
      <trkpt lat="48.54067" lon="1.95113">
        <ele>124</ele>
        <time>2019-04-07T12:34:59Z</time>
      </trkpt>
      <trkpt lat="48.54064" lon="1.9512">
        <ele>124</ele>
        <time>2019-04-07T12:35:02Z</time>
      </trkpt>
      <trkpt lat="48.54049" lon="1.95141">
        <ele>124</ele>
        <time>2019-04-07T12:35:20Z</time>
      </trkpt>
      <trkpt lat="48.54044" lon="1.95146">
        <ele>123</ele>
        <time>2019-04-07T12:35:24Z</time>
      </trkpt>
      <trkpt lat="48.5404" lon="1.95149">
        <ele>123</ele>
        <time>2019-04-07T12:35:28Z</time>
      </trkpt>
      <trkpt lat="48.5403" lon="1.95155">
        <ele>123</ele>
        <time>2019-04-07T12:35:35Z</time>
      </trkpt>
      <trkpt lat="48.54022" lon="1.95167">
        <ele>123</ele>
        <time>2019-04-07T12:35:43Z</time>
      </trkpt>
      <trkpt lat="48.54011" lon="1.95195">
        <ele>124</ele>
        <time>2019-04-07T12:35:59Z</time>
      </trkpt>
      <trkpt lat="48.53997" lon="1.95244">
        <ele>123</ele>
        <time>2019-04-07T12:36:27Z</time>
      </trkpt>
      <trkpt lat="48.53989" lon="1.95252">
        <ele>123</ele>
        <time>2019-04-07T12:36:35Z</time>
      </trkpt>
      <trkpt lat="48.53968" lon="1.95261">
        <ele>124</ele>
        <time>2019-04-07T12:36:53Z</time>
      </trkpt>
      <trkpt lat="48.53952" lon="1.95259">
        <ele>124</ele>
        <time>2019-04-07T12:37:05Z</time>
      </trkpt>
      <trkpt lat="48.53937" lon="1.9525">
        <ele>124</ele>
        <time>2019-04-07T12:37:17Z</time>
      </trkpt>
      <trkpt lat="48.53924" lon="1.95235">
        <ele>124</ele>
        <time>2019-04-07T12:37:30Z</time>
      </trkpt>
      <trkpt lat="48.53906" lon="1.95198">
        <ele>122</ele>
        <time>2019-04-07T12:37:54Z</time>
      </trkpt>
      <trkpt lat="48.53902" lon="1.95194">
        <ele>122</ele>
        <time>2019-04-07T12:37:58Z</time>
      </trkpt>
      <trkpt lat="48.53898" lon="1.95191">
        <ele>121</ele>
        <time>2019-04-07T12:38:06Z</time>
      </trkpt>
      <trkpt lat="48.53892" lon="1.95194">
        <ele>120</ele>
        <time>2019-04-07T12:38:54Z</time>
      </trkpt>
      <trkpt lat="48.5389" lon="1.95201">
        <ele>120</ele>
        <time>2019-04-07T12:38:59Z</time>
      </trkpt>
      <trkpt lat="48.53887" lon="1.95208">
        <ele>121</ele>
        <time>2019-04-07T12:39:04Z</time>
      </trkpt>
      <trkpt lat="48.53879" lon="1.95216">
        <ele>122</ele>
        <time>2019-04-07T12:39:14Z</time>
      </trkpt>
      <trkpt lat="48.53873" lon="1.95228">
        <ele>123</ele>
        <time>2019-04-07T12:39:24Z</time>
      </trkpt>
      <trkpt lat="48.53869" lon="1.95233">
        <ele>123</ele>
        <time>2019-04-07T12:39:29Z</time>
      </trkpt>
      <trkpt lat="48.53861" lon="1.95255">
        <ele>126</ele>
        <time>2019-04-07T12:39:49Z</time>
      </trkpt>
      <trkpt lat="48.53855" lon="1.95268">
        <ele>127</ele>
        <time>2019-04-07T12:39:59Z</time>
      </trkpt>
      <trkpt lat="48.53844" lon="1.9531">
        <ele>130</ele>
        <time>2019-04-07T12:40:29Z</time>
      </trkpt>
      <trkpt lat="48.53841" lon="1.95317">
        <ele>131</ele>
        <time>2019-04-07T12:40:34Z</time>
      </trkpt>
      <trkpt lat="48.53844" lon="1.95324">
        <ele>131</ele>
        <time>2019-04-07T12:41:47Z</time>
      </trkpt>
      <trkpt lat="48.53852" lon="1.95338">
        <ele>132</ele>
        <time>2019-04-07T12:41:58Z</time>
      </trkpt>
      <trkpt lat="48.53857" lon="1.95348">
        <ele>133</ele>
        <time>2019-04-07T12:42:07Z</time>
      </trkpt>
      <trkpt lat="48.53864" lon="1.95369">
        <ele>134</ele>
        <time>2019-04-07T12:42:21Z</time>
      </trkpt>
      <trkpt lat="48.53865" lon="1.95376">
        <ele>134</ele>
        <time>2019-04-07T12:42:25Z</time>
      </trkpt>
      <trkpt lat="48.53866" lon="1.95383">
        <ele>134</ele>
        <time>2019-04-07T12:42:29Z</time>
      </trkpt>
      <trkpt lat="48.53866" lon="1.95399">
        <ele>136</ele>
        <time>2019-04-07T12:42:38Z</time>
      </trkpt>
      <trkpt lat="48.53863" lon="1.95406">
        <ele>136</ele>
        <time>2019-04-07T12:42:42Z</time>
      </trkpt>
      <trkpt lat="48.53846" lon="1.95427">
        <ele>138</ele>
        <time>2019-04-07T12:42:59Z</time>
      </trkpt>
      <trkpt lat="48.5384" lon="1.9543">
        <ele>138</ele>
        <time>2019-04-07T12:43:03Z</time>
      </trkpt>
      <trkpt lat="48.53837" lon="1.95435">
        <ele>139</ele>
        <time>2019-04-07T12:43:07Z</time>
      </trkpt>
      <trkpt lat="48.53831" lon="1.95439">
        <ele>139</ele>
        <time>2019-04-07T12:43:11Z</time>
      </trkpt>
      <trkpt lat="48.53816" lon="1.95444">
        <ele>139</ele>
        <time>2019-04-07T12:43:23Z</time>
      </trkpt>
      <trkpt lat="48.538" lon="1.95444">
        <ele>139</ele>
        <time>2019-04-07T12:43:33Z</time>
      </trkpt>
      <trkpt lat="48.53795" lon="1.95444">
        <ele>139</ele>
        <time>2019-04-07T12:43:36Z</time>
      </trkpt>
      <trkpt lat="48.5379" lon="1.95447">
        <ele>139</ele>
        <time>2019-04-07T12:43:40Z</time>
      </trkpt>
      <trkpt lat="48.53786" lon="1.9545">
        <ele>140</ele>
        <time>2019-04-07T12:43:44Z</time>
      </trkpt>
      <trkpt lat="48.53781" lon="1.95457">
        <ele>139</ele>
        <time>2019-04-07T12:43:48Z</time>
      </trkpt>
      <trkpt lat="48.53779" lon="1.95463">
        <ele>139</ele>
        <time>2019-04-07T12:43:53Z</time>
      </trkpt>
      <trkpt lat="48.53777" lon="1.9547">
        <ele>140</ele>
        <time>2019-04-07T12:43:57Z</time>
      </trkpt>
      <trkpt lat="48.53763" lon="1.95501">
        <ele>141</ele>
        <time>2019-04-07T12:44:19Z</time>
      </trkpt>
      <trkpt lat="48.53762" lon="1.95508">
        <ele>142</ele>
        <time>2019-04-07T12:44:23Z</time>
      </trkpt>
      <trkpt lat="48.53756" lon="1.95522">
        <ele>142</ele>
        <time>2019-04-07T12:44:31Z</time>
      </trkpt>
      <trkpt lat="48.53746" lon="1.9556">
        <ele>140</ele>
        <time>2019-04-07T12:44:49Z</time>
      </trkpt>
      <trkpt lat="48.53745" lon="1.95567">
        <ele>140</ele>
        <time>2019-04-07T12:44:52Z</time>
      </trkpt>
      <trkpt lat="48.53742" lon="1.9558">
        <ele>139</ele>
        <time>2019-04-07T12:44:59Z</time>
      </trkpt>
      <trkpt lat="48.53742" lon="1.95588">
        <ele>139</ele>
        <time>2019-04-07T12:45:03Z</time>
      </trkpt>
      <trkpt lat="48.53743" lon="1.95605">
        <ele>138</ele>
        <time>2019-04-07T12:45:14Z</time>
      </trkpt>
      <trkpt lat="48.53742" lon="1.95621">
        <ele>138</ele>
        <time>2019-04-07T12:45:21Z</time>
      </trkpt>
      <trkpt lat="48.53743" lon="1.95628">
        <ele>138</ele>
        <time>2019-04-07T12:45:25Z</time>
      </trkpt>
      <trkpt lat="48.53744" lon="1.95636">
        <ele>138</ele>
        <time>2019-04-07T12:45:29Z</time>
      </trkpt>
      <trkpt lat="48.53742" lon="1.95643">
        <ele>138</ele>
        <time>2019-04-07T12:45:34Z</time>
      </trkpt>
      <trkpt lat="48.53743" lon="1.95665">
        <ele>138</ele>
        <time>2019-04-07T12:45:47Z</time>
      </trkpt>
      <trkpt lat="48.5374" lon="1.95673">
        <ele>138</ele>
        <time>2019-04-07T12:45:52Z</time>
      </trkpt>
      <trkpt lat="48.53738" lon="1.95685">
        <ele>138</ele>
        <time>2019-04-07T12:46:00Z</time>
      </trkpt>
      <trkpt lat="48.53735" lon="1.95691">
        <ele>138</ele>
        <time>2019-04-07T12:46:04Z</time>
      </trkpt>
      <trkpt lat="48.53731" lon="1.95697">
        <ele>138</ele>
        <time>2019-04-07T12:46:08Z</time>
      </trkpt>
      <trkpt lat="48.53726" lon="1.95709">
        <ele>138</ele>
        <time>2019-04-07T12:46:15Z</time>
      </trkpt>
      <trkpt lat="48.5372" lon="1.95716">
        <ele>137</ele>
        <time>2019-04-07T12:46:56Z</time>
      </trkpt>
      <trkpt lat="48.53715" lon="1.95715">
        <ele>137</ele>
        <time>2019-04-07T12:48:44Z</time>
      </trkpt>
      <trkpt lat="48.53709" lon="1.95723">
        <ele>139</ele>
        <time>2019-04-07T12:50:49Z</time>
      </trkpt>
      <trkpt lat="48.53694" lon="1.95737">
        <ele>139</ele>
        <time>2019-04-07T12:51:09Z</time>
      </trkpt>
      <trkpt lat="48.53685" lon="1.95741">
        <ele>139</ele>
        <time>2019-04-07T12:51:18Z</time>
      </trkpt>
      <trkpt lat="48.5368" lon="1.95743">
        <ele>139</ele>
        <time>2019-04-07T12:51:35Z</time>
      </trkpt>
      <trkpt lat="48.53672" lon="1.95748">
        <ele>139</ele>
        <time>2019-04-07T12:51:45Z</time>
      </trkpt>
      <trkpt lat="48.53667" lon="1.95752">
        <ele>139</ele>
        <time>2019-04-07T12:51:49Z</time>
      </trkpt>
      <trkpt lat="48.53661" lon="1.95763">
        <ele>139</ele>
        <time>2019-04-07T12:52:02Z</time>
      </trkpt>
      <trkpt lat="48.53658" lon="1.95774">
        <ele>140</ele>
        <time>2019-04-07T12:52:13Z</time>
      </trkpt>
      <trkpt lat="48.53653" lon="1.9578">
        <ele>140</ele>
        <time>2019-04-07T12:53:01Z</time>
      </trkpt>
      <trkpt lat="48.53652" lon="1.95768">
        <ele>141</ele>
        <time>2019-04-07T12:53:32Z</time>
      </trkpt>
      <trkpt lat="48.53651" lon="1.95761">
        <ele>141</ele>
        <time>2019-04-07T12:53:38Z</time>
      </trkpt>
      <trkpt lat="48.53653" lon="1.95743">
        <ele>140</ele>
        <time>2019-04-07T12:53:49Z</time>
      </trkpt>
      <trkpt lat="48.53655" lon="1.95737">
        <ele>140</ele>
        <time>2019-04-07T12:53:53Z</time>
      </trkpt>
      <trkpt lat="48.53659" lon="1.95733">
        <ele>140</ele>
        <time>2019-04-07T12:53:58Z</time>
      </trkpt>
      <trkpt lat="48.53666" lon="1.9573">
        <ele>141</ele>
        <time>2019-04-07T12:54:29Z</time>
      </trkpt>
      <trkpt lat="48.53672" lon="1.95729">
        <ele>141</ele>
        <time>2019-04-07T12:54:43Z</time>
      </trkpt>
      <trkpt lat="48.53677" lon="1.95728">
        <ele>141</ele>
        <time>2019-04-07T12:55:19Z</time>
      </trkpt>
      <trkpt lat="48.53684" lon="1.95724">
        <ele>142</ele>
        <time>2019-04-07T12:55:49Z</time>
      </trkpt>
      <trkpt lat="48.53689" lon="1.95728">
        <ele>142</ele>
        <time>2019-04-07T12:57:19Z</time>
      </trkpt>
      <trkpt lat="48.53683" lon="1.95732">
        <ele>142</ele>
        <time>2019-04-07T12:58:10Z</time>
      </trkpt>
      <trkpt lat="48.53679" lon="1.95729">
        <ele>142</ele>
        <time>2019-04-07T12:59:12Z</time>
      </trkpt>
      <trkpt lat="48.53682" lon="1.9574">
        <ele>139</ele>
        <time>2019-04-07T13:02:01Z</time>
      </trkpt>
      <trkpt lat="48.53685" lon="1.95732">
        <ele>139</ele>
        <time>2019-04-07T13:02:19Z</time>
      </trkpt>
      <trkpt lat="48.53678" lon="1.95715">
        <ele>137</ele>
        <time>2019-04-07T13:05:04Z</time>
      </trkpt>
      <trkpt lat="48.53675" lon="1.95727">
        <ele>136</ele>
        <time>2019-04-07T13:07:30Z</time>
      </trkpt>
      <trkpt lat="48.53683" lon="1.95728">
        <ele>137</ele>
        <time>2019-04-07T13:08:54Z</time>
      </trkpt>
      <trkpt lat="48.53678" lon="1.95733">
        <ele>137</ele>
        <time>2019-04-07T13:09:18Z</time>
      </trkpt>
      <trkpt lat="48.53671" lon="1.95734">
        <ele>137</ele>
        <time>2019-04-07T13:09:43Z</time>
      </trkpt>
      <trkpt lat="48.53664" lon="1.95737">
        <ele>136</ele>
        <time>2019-04-07T13:10:02Z</time>
      </trkpt>
      <trkpt lat="48.53661" lon="1.95742">
        <ele>136</ele>
        <time>2019-04-07T13:10:07Z</time>
      </trkpt>
      <trkpt lat="48.53658" lon="1.95773">
        <ele>137</ele>
        <time>2019-04-07T13:10:35Z</time>
      </trkpt>
      <trkpt lat="48.53652" lon="1.95784">
        <ele>138</ele>
        <time>2019-04-07T13:10:43Z</time>
      </trkpt>
      <trkpt lat="48.5365" lon="1.9579">
        <ele>138</ele>
        <time>2019-04-07T13:10:47Z</time>
      </trkpt>
      <trkpt lat="48.5365" lon="1.95797">
        <ele>137</ele>
        <time>2019-04-07T13:10:51Z</time>
      </trkpt>
      <trkpt lat="48.53649" lon="1.95806">
        <ele>137</ele>
        <time>2019-04-07T13:10:56Z</time>
      </trkpt>
      <trkpt lat="48.53646" lon="1.95812">
        <ele>137</ele>
        <time>2019-04-07T13:10:59Z</time>
      </trkpt>
      <trkpt lat="48.53636" lon="1.95847">
        <ele>139</ele>
        <time>2019-04-07T13:11:21Z</time>
      </trkpt>
      <trkpt lat="48.53636" lon="1.95856">
        <ele>140</ele>
        <time>2019-04-07T13:11:28Z</time>
      </trkpt>
      <trkpt lat="48.53635" lon="1.95863">
        <ele>140</ele>
        <time>2019-04-07T13:11:33Z</time>
      </trkpt>
      <trkpt lat="48.5363" lon="1.95888">
        <ele>141</ele>
        <time>2019-04-07T13:11:48Z</time>
      </trkpt>
      <trkpt lat="48.53623" lon="1.95907">
        <ele>141</ele>
        <time>2019-04-07T13:12:01Z</time>
      </trkpt>
      <trkpt lat="48.53621" lon="1.95914">
        <ele>141</ele>
        <time>2019-04-07T13:12:06Z</time>
      </trkpt>
      <trkpt lat="48.53615" lon="1.95933">
        <ele>139</ele>
        <time>2019-04-07T13:12:21Z</time>
      </trkpt>
      <trkpt lat="48.53612" lon="1.95941">
        <ele>139</ele>
        <time>2019-04-07T13:12:28Z</time>
      </trkpt>
      <trkpt lat="48.53607" lon="1.95947">
        <ele>138</ele>
        <time>2019-04-07T13:12:32Z</time>
      </trkpt>
      <trkpt lat="48.53602" lon="1.9596">
        <ele>137</ele>
        <time>2019-04-07T13:12:41Z</time>
      </trkpt>
      <trkpt lat="48.53591" lon="1.95978">
        <ele>136</ele>
        <time>2019-04-07T13:12:55Z</time>
      </trkpt>
      <trkpt lat="48.53591" lon="1.95987">
        <ele>135</ele>
        <time>2019-04-07T13:12:59Z</time>
      </trkpt>
      <trkpt lat="48.53589" lon="1.95992">
        <ele>135</ele>
        <time>2019-04-07T13:13:03Z</time>
      </trkpt>
      <trkpt lat="48.53585" lon="1.95998">
        <ele>136</ele>
        <time>2019-04-07T13:13:07Z</time>
      </trkpt>
      <trkpt lat="48.5358" lon="1.96003">
        <ele>136</ele>
        <time>2019-04-07T13:13:11Z</time>
      </trkpt>
      <trkpt lat="48.53578" lon="1.96009">
        <ele>136</ele>
        <time>2019-04-07T13:13:15Z</time>
      </trkpt>
      <trkpt lat="48.53575" lon="1.96016">
        <ele>136</ele>
        <time>2019-04-07T13:13:19Z</time>
      </trkpt>
      <trkpt lat="48.53568" lon="1.96026">
        <ele>136</ele>
        <time>2019-04-07T13:13:26Z</time>
      </trkpt>
      <trkpt lat="48.53564" lon="1.9603">
        <ele>136</ele>
        <time>2019-04-07T13:13:31Z</time>
      </trkpt>
      <trkpt lat="48.53558" lon="1.96041">
        <ele>135</ele>
        <time>2019-04-07T13:13:39Z</time>
      </trkpt>
      <trkpt lat="48.53556" lon="1.96047">
        <ele>135</ele>
        <time>2019-04-07T13:13:44Z</time>
      </trkpt>
      <trkpt lat="48.53546" lon="1.9605">
        <ele>135</ele>
        <time>2019-04-07T13:13:51Z</time>
      </trkpt>
      <trkpt lat="48.53541" lon="1.96055">
        <ele>135</ele>
        <time>2019-04-07T13:13:55Z</time>
      </trkpt>
      <trkpt lat="48.53534" lon="1.96066">
        <ele>135</ele>
        <time>2019-04-07T13:14:03Z</time>
      </trkpt>
      <trkpt lat="48.53526" lon="1.96077">
        <ele>135</ele>
        <time>2019-04-07T13:14:12Z</time>
      </trkpt>
      <trkpt lat="48.53521" lon="1.96106">
        <ele>137</ele>
        <time>2019-04-07T13:14:38Z</time>
      </trkpt>
      <trkpt lat="48.5352" lon="1.96122">
        <ele>137</ele>
        <time>2019-04-07T13:14:48Z</time>
      </trkpt>
      <trkpt lat="48.53522" lon="1.96138">
        <ele>137</ele>
        <time>2019-04-07T13:14:58Z</time>
      </trkpt>
      <trkpt lat="48.53522" lon="1.96147">
        <ele>137</ele>
        <time>2019-04-07T13:15:03Z</time>
      </trkpt>
      <trkpt lat="48.53522" lon="1.96188">
        <ele>134</ele>
        <time>2019-04-07T13:15:24Z</time>
      </trkpt>
      <trkpt lat="48.53521" lon="1.96203">
        <ele>134</ele>
        <time>2019-04-07T13:15:33Z</time>
      </trkpt>
      <trkpt lat="48.53509" lon="1.96249">
        <ele>136</ele>
        <time>2019-04-07T13:16:00Z</time>
      </trkpt>
      <trkpt lat="48.53507" lon="1.96256">
        <ele>136</ele>
        <time>2019-04-07T13:16:04Z</time>
      </trkpt>
      <trkpt lat="48.53504" lon="1.96261">
        <ele>135</ele>
        <time>2019-04-07T13:16:07Z</time>
      </trkpt>
      <trkpt lat="48.53497" lon="1.96282">
        <ele>135</ele>
        <time>2019-04-07T13:16:20Z</time>
      </trkpt>
      <trkpt lat="48.53494" lon="1.96288">
        <ele>136</ele>
        <time>2019-04-07T13:16:24Z</time>
      </trkpt>
      <trkpt lat="48.53492" lon="1.96294">
        <ele>136</ele>
        <time>2019-04-07T13:16:28Z</time>
      </trkpt>
      <trkpt lat="48.53492" lon="1.96301">
        <ele>137</ele>
        <time>2019-04-07T13:16:32Z</time>
      </trkpt>
      <trkpt lat="48.53484" lon="1.96317">
        <ele>139</ele>
        <time>2019-04-07T13:16:44Z</time>
      </trkpt>
      <trkpt lat="48.53476" lon="1.96337">
        <ele>140</ele>
        <time>2019-04-07T13:16:58Z</time>
      </trkpt>
      <trkpt lat="48.53475" lon="1.96344">
        <ele>140</ele>
        <time>2019-04-07T13:17:02Z</time>
      </trkpt>
      <trkpt lat="48.53474" lon="1.96351">
        <ele>140</ele>
        <time>2019-04-07T13:17:06Z</time>
      </trkpt>
      <trkpt lat="48.53472" lon="1.96358">
        <ele>140</ele>
        <time>2019-04-07T13:17:11Z</time>
      </trkpt>
      <trkpt lat="48.53468" lon="1.96365">
        <ele>141</ele>
        <time>2019-04-07T13:17:16Z</time>
      </trkpt>
      <trkpt lat="48.53464" lon="1.9637">
        <ele>141</ele>
        <time>2019-04-07T13:17:20Z</time>
      </trkpt>
      <trkpt lat="48.53453" lon="1.96387">
        <ele>140</ele>
        <time>2019-04-07T13:17:31Z</time>
      </trkpt>
      <trkpt lat="48.53448" lon="1.964">
        <ele>140</ele>
        <time>2019-04-07T13:17:38Z</time>
      </trkpt>
      <trkpt lat="48.5344" lon="1.96412">
        <ele>140</ele>
        <time>2019-04-07T13:17:46Z</time>
      </trkpt>
      <trkpt lat="48.53436" lon="1.96414">
        <ele>140</ele>
        <time>2019-04-07T13:17:48Z</time>
      </trkpt>
      <trkpt lat="48.53432" lon="1.96418">
        <ele>140</ele>
        <time>2019-04-07T13:17:52Z</time>
      </trkpt>
      <trkpt lat="48.53432" lon="1.96425">
        <ele>141</ele>
        <time>2019-04-07T13:17:56Z</time>
      </trkpt>
      <trkpt lat="48.53427" lon="1.96447">
        <ele>140</ele>
        <time>2019-04-07T13:18:08Z</time>
      </trkpt>
      <trkpt lat="48.53425" lon="1.96454">
        <ele>140</ele>
        <time>2019-04-07T13:18:12Z</time>
      </trkpt>
      <trkpt lat="48.53422" lon="1.96461">
        <ele>140</ele>
        <time>2019-04-07T13:18:16Z</time>
      </trkpt>
      <trkpt lat="48.5342" lon="1.96467">
        <ele>139</ele>
        <time>2019-04-07T13:18:19Z</time>
      </trkpt>
      <trkpt lat="48.53417" lon="1.96472">
        <ele>140</ele>
        <time>2019-04-07T13:18:23Z</time>
      </trkpt>
      <trkpt lat="48.53417" lon="1.96481">
        <ele>140</ele>
        <time>2019-04-07T13:18:28Z</time>
      </trkpt>
      <trkpt lat="48.53413" lon="1.96496">
        <ele>140</ele>
        <time>2019-04-07T13:18:35Z</time>
      </trkpt>
      <trkpt lat="48.53412" lon="1.96505">
        <ele>140</ele>
        <time>2019-04-07T13:18:39Z</time>
      </trkpt>
      <trkpt lat="48.53399" lon="1.96554">
        <ele>138</ele>
        <time>2019-04-07T13:19:07Z</time>
      </trkpt>
      <trkpt lat="48.53397" lon="1.9657">
        <ele>137</ele>
        <time>2019-04-07T13:19:13Z</time>
      </trkpt>
      <trkpt lat="48.53392" lon="1.96585">
        <ele>136</ele>
        <time>2019-04-07T13:19:19Z</time>
      </trkpt>
      <trkpt lat="48.53391" lon="1.96599">
        <ele>136</ele>
        <time>2019-04-07T13:19:26Z</time>
      </trkpt>
      <trkpt lat="48.53381" lon="1.96611">
        <ele>135</ele>
        <time>2019-04-07T13:19:32Z</time>
      </trkpt>
      <trkpt lat="48.53378" lon="1.96618">
        <ele>135</ele>
        <time>2019-04-07T13:19:37Z</time>
      </trkpt>
      <trkpt lat="48.53376" lon="1.96626">
        <ele>134</ele>
        <time>2019-04-07T13:19:41Z</time>
      </trkpt>
      <trkpt lat="48.53374" lon="1.96632">
        <ele>134</ele>
        <time>2019-04-07T13:19:45Z</time>
      </trkpt>
      <trkpt lat="48.53374" lon="1.96639">
        <ele>133</ele>
        <time>2019-04-07T13:19:49Z</time>
      </trkpt>
      <trkpt lat="48.53371" lon="1.96648">
        <ele>133</ele>
        <time>2019-04-07T13:19:56Z</time>
      </trkpt>
      <trkpt lat="48.5337" lon="1.96659">
        <ele>134</ele>
        <time>2019-04-07T13:20:03Z</time>
      </trkpt>
      <trkpt lat="48.53361" lon="1.96668">
        <ele>135</ele>
        <time>2019-04-07T13:20:10Z</time>
      </trkpt>
      <trkpt lat="48.53359" lon="1.96675">
        <ele>135</ele>
        <time>2019-04-07T13:20:13Z</time>
      </trkpt>
      <trkpt lat="48.53351" lon="1.96685">
        <ele>135</ele>
        <time>2019-04-07T13:20:20Z</time>
      </trkpt>
      <trkpt lat="48.53345" lon="1.96698">
        <ele>135</ele>
        <time>2019-04-07T13:20:28Z</time>
      </trkpt>
      <trkpt lat="48.53341" lon="1.96704">
        <ele>135</ele>
        <time>2019-04-07T13:20:32Z</time>
      </trkpt>
      <trkpt lat="48.53332" lon="1.96731">
        <ele>134</ele>
        <time>2019-04-07T13:20:51Z</time>
      </trkpt>
      <trkpt lat="48.5333" lon="1.96739">
        <ele>134</ele>
        <time>2019-04-07T13:20:56Z</time>
      </trkpt>
      <trkpt lat="48.53326" lon="1.96742">
        <ele>134</ele>
        <time>2019-04-07T13:20:59Z</time>
      </trkpt>
      <trkpt lat="48.53316" lon="1.9676">
        <ele>135</ele>
        <time>2019-04-07T13:21:11Z</time>
      </trkpt>
      <trkpt lat="48.53312" lon="1.96765">
        <ele>137</ele>
        <time>2019-04-07T13:21:20Z</time>
      </trkpt>
      <trkpt lat="48.5331" lon="1.96772">
        <ele>139</ele>
        <time>2019-04-07T13:21:32Z</time>
      </trkpt>
      <trkpt lat="48.53317" lon="1.96781">
        <ele>141</ele>
        <time>2019-04-07T13:21:44Z</time>
      </trkpt>
      <trkpt lat="48.53325" lon="1.96799">
        <ele>142</ele>
        <time>2019-04-07T13:21:58Z</time>
      </trkpt>
      <trkpt lat="48.53329" lon="1.96807">
        <ele>142</ele>
        <time>2019-04-07T13:22:05Z</time>
      </trkpt>
      <trkpt lat="48.53336" lon="1.96817">
        <ele>142</ele>
        <time>2019-04-07T13:23:01Z</time>
      </trkpt>
      <trkpt lat="48.53337" lon="1.96828">
        <ele>142</ele>
        <time>2019-04-07T13:23:52Z</time>
      </trkpt>
      <trkpt lat="48.53339" lon="1.96834">
        <ele>141</ele>
        <time>2019-04-07T13:23:59Z</time>
      </trkpt>
      <trkpt lat="48.53355" lon="1.96862">
        <ele>141</ele>
        <time>2019-04-07T13:24:20Z</time>
      </trkpt>
      <trkpt lat="48.53356" lon="1.96869">
        <ele>142</ele>
        <time>2019-04-07T13:24:25Z</time>
      </trkpt>
      <trkpt lat="48.53357" lon="1.96878">
        <ele>141</ele>
        <time>2019-04-07T13:24:33Z</time>
      </trkpt>
      <trkpt lat="48.5336" lon="1.96911">
        <ele>141</ele>
        <time>2019-04-07T13:24:53Z</time>
      </trkpt>
      <trkpt lat="48.53351" lon="1.96919">
        <ele>141</ele>
        <time>2019-04-07T13:25:01Z</time>
      </trkpt>
      <trkpt lat="48.53336" lon="1.96925">
        <ele>141</ele>
        <time>2019-04-07T13:25:14Z</time>
      </trkpt>
      <trkpt lat="48.53294" lon="1.96924">
        <ele>142</ele>
        <time>2019-04-07T13:25:47Z</time>
      </trkpt>
      <trkpt lat="48.53288" lon="1.96924">
        <ele>142</ele>
        <time>2019-04-07T13:25:51Z</time>
      </trkpt>
      <trkpt lat="48.53283" lon="1.96922">
        <ele>142</ele>
        <time>2019-04-07T13:25:56Z</time>
      </trkpt>
      <trkpt lat="48.53272" lon="1.96923">
        <ele>142</ele>
        <time>2019-04-07T13:26:02Z</time>
      </trkpt>
      <trkpt lat="48.53262" lon="1.96921">
        <ele>142</ele>
        <time>2019-04-07T13:26:09Z</time>
      </trkpt>
      <trkpt lat="48.53251" lon="1.96924">
        <ele>142</ele>
        <time>2019-04-07T13:26:17Z</time>
      </trkpt>
      <trkpt lat="48.53227" lon="1.96933">
        <ele>140</ele>
        <time>2019-04-07T13:26:36Z</time>
      </trkpt>
      <trkpt lat="48.53219" lon="1.96938">
        <ele>138</ele>
        <time>2019-04-07T13:26:45Z</time>
      </trkpt>
      <trkpt lat="48.53188" lon="1.96937">
        <ele>135</ele>
        <time>2019-04-07T13:27:01Z</time>
      </trkpt>
      <trkpt lat="48.53158" lon="1.96922">
        <ele>130</ele>
        <time>2019-04-07T13:27:21Z</time>
      </trkpt>
      <trkpt lat="48.53154" lon="1.96927">
        <ele>130</ele>
        <time>2019-04-07T13:27:24Z</time>
      </trkpt>
      <trkpt lat="48.53151" lon="1.9692">
        <ele>129</ele>
        <time>2019-04-07T13:27:28Z</time>
      </trkpt>
      <trkpt lat="48.53142" lon="1.96915">
        <ele>128</ele>
        <time>2019-04-07T13:27:34Z</time>
      </trkpt>
      <trkpt lat="48.53112" lon="1.96906">
        <ele>126</ele>
        <time>2019-04-07T13:27:54Z</time>
      </trkpt>
      <trkpt lat="48.53105" lon="1.96897">
        <ele>125</ele>
        <time>2019-04-07T13:28:00Z</time>
      </trkpt>
      <trkpt lat="48.53097" lon="1.96885">
        <ele>124</ele>
        <time>2019-04-07T13:28:08Z</time>
      </trkpt>
      <trkpt lat="48.53088" lon="1.96877">
        <ele>122</ele>
        <time>2019-04-07T13:28:16Z</time>
      </trkpt>
      <trkpt lat="48.53085" lon="1.96871">
        <ele>122</ele>
        <time>2019-04-07T13:28:21Z</time>
      </trkpt>
      <trkpt lat="48.53086" lon="1.96844">
        <ele>121</ele>
        <time>2019-04-07T13:28:32Z</time>
      </trkpt>
      <trkpt lat="48.53091" lon="1.96834">
        <ele>121</ele>
        <time>2019-04-07T13:28:43Z</time>
      </trkpt>
      <trkpt lat="48.53109" lon="1.96776">
        <ele>116</ele>
        <time>2019-04-07T13:29:14Z</time>
      </trkpt>
      <trkpt lat="48.53109" lon="1.96769">
        <ele>116</ele>
        <time>2019-04-07T13:29:17Z</time>
      </trkpt>
      <trkpt lat="48.53111" lon="1.96761">
        <ele>115</ele>
        <time>2019-04-07T13:29:21Z</time>
      </trkpt>
      <trkpt lat="48.53114" lon="1.96754">
        <ele>114</ele>
        <time>2019-04-07T13:29:25Z</time>
      </trkpt>
      <trkpt lat="48.53113" lon="1.96745">
        <ele>114</ele>
        <time>2019-04-07T13:29:29Z</time>
      </trkpt>
      <trkpt lat="48.53111" lon="1.96738">
        <ele>114</ele>
        <time>2019-04-07T13:29:33Z</time>
      </trkpt>
      <trkpt lat="48.53111" lon="1.96731">
        <ele>113</ele>
        <time>2019-04-07T13:29:37Z</time>
      </trkpt>
      <trkpt lat="48.53109" lon="1.96724">
        <ele>113</ele>
        <time>2019-04-07T13:29:41Z</time>
      </trkpt>
      <trkpt lat="48.53107" lon="1.96717">
        <ele>113</ele>
        <time>2019-04-07T13:29:45Z</time>
      </trkpt>
      <trkpt lat="48.53104" lon="1.96711">
        <ele>113</ele>
        <time>2019-04-07T13:29:49Z</time>
      </trkpt>
      <trkpt lat="48.53098" lon="1.96698">
        <ele>112</ele>
        <time>2019-04-07T13:29:57Z</time>
      </trkpt>
      <trkpt lat="48.5308" lon="1.9667">
        <ele>110</ele>
        <time>2019-04-07T13:30:17Z</time>
      </trkpt>
      <trkpt lat="48.53075" lon="1.96666">
        <ele>109</ele>
        <time>2019-04-07T13:30:21Z</time>
      </trkpt>
      <trkpt lat="48.53072" lon="1.96659">
        <ele>109</ele>
        <time>2019-04-07T13:30:25Z</time>
      </trkpt>
      <trkpt lat="48.53067" lon="1.96629">
        <ele>108</ele>
        <time>2019-04-07T13:30:38Z</time>
      </trkpt>
      <trkpt lat="48.53066" lon="1.96622">
        <ele>108</ele>
        <time>2019-04-07T13:30:41Z</time>
      </trkpt>
      <trkpt lat="48.53064" lon="1.96615">
        <ele>108</ele>
        <time>2019-04-07T13:30:44Z</time>
      </trkpt>
      <trkpt lat="48.53061" lon="1.96585">
        <ele>107</ele>
        <time>2019-04-07T13:30:59Z</time>
      </trkpt>
      <trkpt lat="48.53058" lon="1.9657">
        <ele>107</ele>
        <time>2019-04-07T13:31:07Z</time>
      </trkpt>
      <trkpt lat="48.53058" lon="1.96555">
        <ele>107</ele>
        <time>2019-04-07T13:31:14Z</time>
      </trkpt>
      <trkpt lat="48.53059" lon="1.96548">
        <ele>107</ele>
        <time>2019-04-07T13:31:18Z</time>
      </trkpt>
      <trkpt lat="48.53061" lon="1.9654">
        <ele>106</ele>
        <time>2019-04-07T13:31:22Z</time>
      </trkpt>
      <trkpt lat="48.53061" lon="1.96531">
        <ele>106</ele>
        <time>2019-04-07T13:31:26Z</time>
      </trkpt>
      <trkpt lat="48.53057" lon="1.96494">
        <ele>105</ele>
        <time>2019-04-07T13:31:44Z</time>
      </trkpt>
      <trkpt lat="48.5306" lon="1.96479">
        <ele>105</ele>
        <time>2019-04-07T13:31:53Z</time>
      </trkpt>
      <trkpt lat="48.53058" lon="1.96472">
        <ele>105</ele>
        <time>2019-04-07T13:31:57Z</time>
      </trkpt>
      <trkpt lat="48.53048" lon="1.96471">
        <ele>105</ele>
        <time>2019-04-07T13:32:03Z</time>
      </trkpt>
      <trkpt lat="48.53038" lon="1.96461">
        <ele>104</ele>
        <time>2019-04-07T13:32:14Z</time>
      </trkpt>
      <trkpt lat="48.53026" lon="1.96409">
        <ele>103</ele>
        <time>2019-04-07T13:32:39Z</time>
      </trkpt>
      <trkpt lat="48.53024" lon="1.96387">
        <ele>103</ele>
        <time>2019-04-07T13:32:50Z</time>
      </trkpt>
      <trkpt lat="48.53026" lon="1.96363">
        <ele>103</ele>
        <time>2019-04-07T13:33:02Z</time>
      </trkpt>
      <trkpt lat="48.53034" lon="1.96324">
        <ele>102</ele>
        <time>2019-04-07T13:33:21Z</time>
      </trkpt>
      <trkpt lat="48.53035" lon="1.96316">
        <ele>102</ele>
        <time>2019-04-07T13:33:25Z</time>
      </trkpt>
      <trkpt lat="48.53036" lon="1.96308">
        <ele>103</ele>
        <time>2019-04-07T13:33:29Z</time>
      </trkpt>
      <trkpt lat="48.53043" lon="1.96272">
        <ele>102</ele>
        <time>2019-04-07T13:33:50Z</time>
      </trkpt>
      <trkpt lat="48.53049" lon="1.96255">
        <ele>103</ele>
        <time>2019-04-07T13:34:09Z</time>
      </trkpt>
      <trkpt lat="48.53054" lon="1.96253">
        <ele>103</ele>
        <time>2019-04-07T13:34:14Z</time>
      </trkpt>
      <trkpt lat="48.53068" lon="1.96256">
        <ele>103</ele>
        <time>2019-04-07T13:34:27Z</time>
      </trkpt>
      <trkpt lat="48.53072" lon="1.96261">
        <ele>103</ele>
        <time>2019-04-07T13:34:32Z</time>
      </trkpt>
      <trkpt lat="48.53065" lon="1.96263">
        <ele>103</ele>
        <time>2019-04-07T13:34:39Z</time>
      </trkpt>
      <trkpt lat="48.53059" lon="1.96261">
        <ele>103</ele>
        <time>2019-04-07T13:34:44Z</time>
      </trkpt>
      <trkpt lat="48.53052" lon="1.96255">
        <ele>103</ele>
        <time>2019-04-07T13:35:53Z</time>
      </trkpt>
      <trkpt lat="48.53047" lon="1.96253">
        <ele>103</ele>
        <time>2019-04-07T13:36:05Z</time>
      </trkpt>
      <trkpt lat="48.53035" lon="1.96244">
        <ele>103</ele>
        <time>2019-04-07T13:36:25Z</time>
      </trkpt>
      <trkpt lat="48.53012" lon="1.96237">
        <ele>104</ele>
        <time>2019-04-07T13:36:44Z</time>
      </trkpt>
      <trkpt lat="48.52993" lon="1.96228">
        <ele>104</ele>
        <time>2019-04-07T13:37:02Z</time>
      </trkpt>
      <trkpt lat="48.52955" lon="1.96215">
        <ele>105</ele>
        <time>2019-04-07T13:37:34Z</time>
      </trkpt>
      <trkpt lat="48.5292" lon="1.962">
        <ele>106</ele>
        <time>2019-04-07T13:38:04Z</time>
      </trkpt>
      <trkpt lat="48.529" lon="1.96202">
        <ele>105</ele>
        <time>2019-04-07T13:38:21Z</time>
      </trkpt>
      <trkpt lat="48.52891" lon="1.96198">
        <ele>106</ele>
        <time>2019-04-07T13:38:29Z</time>
      </trkpt>
      <trkpt lat="48.52886" lon="1.96193">
        <ele>106</ele>
        <time>2019-04-07T13:38:33Z</time>
      </trkpt>
      <trkpt lat="48.52882" lon="1.96191">
        <ele>105</ele>
        <time>2019-04-07T13:38:37Z</time>
      </trkpt>
      <trkpt lat="48.52857" lon="1.96187">
        <ele>105</ele>
        <time>2019-04-07T13:38:57Z</time>
      </trkpt>
      <trkpt lat="48.52852" lon="1.96183">
        <ele>104</ele>
        <time>2019-04-07T13:39:02Z</time>
      </trkpt>
      <trkpt lat="48.52831" lon="1.96185">
        <ele>105</ele>
        <time>2019-04-07T13:39:19Z</time>
      </trkpt>
      <trkpt lat="48.52823" lon="1.9618">
        <ele>106</ele>
        <time>2019-04-07T13:39:33Z</time>
      </trkpt>
      <trkpt lat="48.52829" lon="1.96179">
        <ele>105</ele>
        <time>2019-04-07T13:40:32Z</time>
      </trkpt>
      <trkpt lat="48.52832" lon="1.96187">
        <ele>106</ele>
        <time>2019-04-07T13:40:50Z</time>
      </trkpt>
      <trkpt lat="48.52829" lon="1.96196">
        <ele>106</ele>
        <time>2019-04-07T13:40:56Z</time>
      </trkpt>
      <trkpt lat="48.52828" lon="1.96204">
        <ele>106</ele>
        <time>2019-04-07T13:40:59Z</time>
      </trkpt>
      <trkpt lat="48.52828" lon="1.96211">
        <ele>107</ele>
        <time>2019-04-07T13:41:04Z</time>
      </trkpt>
      <trkpt lat="48.5283" lon="1.9622">
        <ele>107</ele>
        <time>2019-04-07T13:41:10Z</time>
      </trkpt>
      <trkpt lat="48.5283" lon="1.9623">
        <ele>108</ele>
        <time>2019-04-07T13:41:19Z</time>
      </trkpt>
      <trkpt lat="48.52832" lon="1.96237">
        <ele>109</ele>
        <time>2019-04-07T13:41:24Z</time>
      </trkpt>
      <trkpt lat="48.52829" lon="1.96257">
        <ele>110</ele>
        <time>2019-04-07T13:41:39Z</time>
      </trkpt>
      <trkpt lat="48.52827" lon="1.96264">
        <ele>110</ele>
        <time>2019-04-07T13:41:43Z</time>
      </trkpt>
      <trkpt lat="48.52826" lon="1.9628">
        <ele>111</ele>
        <time>2019-04-07T13:41:52Z</time>
      </trkpt>
      <trkpt lat="48.52821" lon="1.96311">
        <ele>111</ele>
        <time>2019-04-07T13:42:12Z</time>
      </trkpt>
      <trkpt lat="48.5282" lon="1.9632">
        <ele>111</ele>
        <time>2019-04-07T13:42:16Z</time>
      </trkpt>
      <trkpt lat="48.52818" lon="1.96331">
        <ele>111</ele>
        <time>2019-04-07T13:42:24Z</time>
      </trkpt>
      <trkpt lat="48.52818" lon="1.96363">
        <ele>111</ele>
        <time>2019-04-07T13:42:38Z</time>
      </trkpt>
      <trkpt lat="48.52817" lon="1.9637">
        <ele>111</ele>
        <time>2019-04-07T13:42:41Z</time>
      </trkpt>
      <trkpt lat="48.52818" lon="1.96379">
        <ele>111</ele>
        <time>2019-04-07T13:42:45Z</time>
      </trkpt>
      <trkpt lat="48.52818" lon="1.96387">
        <ele>111</ele>
        <time>2019-04-07T13:42:49Z</time>
      </trkpt>
      <trkpt lat="48.52821" lon="1.96395">
        <ele>111</ele>
        <time>2019-04-07T13:42:53Z</time>
      </trkpt>
      <trkpt lat="48.52823" lon="1.96401">
        <ele>111</ele>
        <time>2019-04-07T13:42:56Z</time>
      </trkpt>
      <trkpt lat="48.5282" lon="1.96418">
        <ele>111</ele>
        <time>2019-04-07T13:43:05Z</time>
      </trkpt>
      <trkpt lat="48.52822" lon="1.96426">
        <ele>111</ele>
        <time>2019-04-07T13:43:09Z</time>
      </trkpt>
      <trkpt lat="48.5282" lon="1.96434">
        <ele>111</ele>
        <time>2019-04-07T13:43:13Z</time>
      </trkpt>
      <trkpt lat="48.52822" lon="1.96458">
        <ele>111</ele>
        <time>2019-04-07T13:43:24Z</time>
      </trkpt>
      <trkpt lat="48.52813" lon="1.96496">
        <ele>112</ele>
        <time>2019-04-07T13:43:44Z</time>
      </trkpt>
      <trkpt lat="48.52814" lon="1.96503">
        <ele>111</ele>
        <time>2019-04-07T13:43:48Z</time>
      </trkpt>
      <trkpt lat="48.52813" lon="1.96511">
        <ele>111</ele>
        <time>2019-04-07T13:43:52Z</time>
      </trkpt>
      <trkpt lat="48.52815" lon="1.96519">
        <ele>110</ele>
        <time>2019-04-07T13:43:56Z</time>
      </trkpt>
      <trkpt lat="48.52815" lon="1.96528">
        <ele>110</ele>
        <time>2019-04-07T13:44:00Z</time>
      </trkpt>
      <trkpt lat="48.52809" lon="1.96549">
        <ele>110</ele>
        <time>2019-04-07T13:44:13Z</time>
      </trkpt>
      <trkpt lat="48.52809" lon="1.96557">
        <ele>111</ele>
        <time>2019-04-07T13:44:17Z</time>
      </trkpt>
      <trkpt lat="48.52807" lon="1.96573">
        <ele>111</ele>
        <time>2019-04-07T13:44:26Z</time>
      </trkpt>
      <trkpt lat="48.52805" lon="1.9658">
        <ele>112</ele>
        <time>2019-04-07T13:44:31Z</time>
      </trkpt>
      <trkpt lat="48.52802" lon="1.96611">
        <ele>114</ele>
        <time>2019-04-07T13:44:50Z</time>
      </trkpt>
      <trkpt lat="48.52802" lon="1.96618">
        <ele>114</ele>
        <time>2019-04-07T13:44:54Z</time>
      </trkpt>
      <trkpt lat="48.52799" lon="1.96633">
        <ele>115</ele>
        <time>2019-04-07T13:45:02Z</time>
      </trkpt>
      <trkpt lat="48.52797" lon="1.96639">
        <ele>115</ele>
        <time>2019-04-07T13:45:06Z</time>
      </trkpt>
      <trkpt lat="48.52793" lon="1.96668">
        <ele>116</ele>
        <time>2019-04-07T13:45:24Z</time>
      </trkpt>
      <trkpt lat="48.52789" lon="1.96684">
        <ele>116</ele>
        <time>2019-04-07T13:45:34Z</time>
      </trkpt>
      <trkpt lat="48.52788" lon="1.96706">
        <ele>116</ele>
        <time>2019-04-07T13:45:47Z</time>
      </trkpt>
      <trkpt lat="48.52788" lon="1.96713">
        <ele>116</ele>
        <time>2019-04-07T13:45:51Z</time>
      </trkpt>
      <trkpt lat="48.52786" lon="1.96736">
        <ele>115</ele>
        <time>2019-04-07T13:46:03Z</time>
      </trkpt>
      <trkpt lat="48.52787" lon="1.96744">
        <ele>115</ele>
        <time>2019-04-07T13:46:07Z</time>
      </trkpt>
      <trkpt lat="48.52784" lon="1.96765">
        <ele>114</ele>
        <time>2019-04-07T13:46:19Z</time>
      </trkpt>
      <trkpt lat="48.52784" lon="1.96789">
        <ele>113</ele>
        <time>2019-04-07T13:46:32Z</time>
      </trkpt>
      <trkpt lat="48.52786" lon="1.96795">
        <ele>113</ele>
        <time>2019-04-07T13:46:36Z</time>
      </trkpt>
      <trkpt lat="48.52783" lon="1.9681">
        <ele>113</ele>
        <time>2019-04-07T13:46:44Z</time>
      </trkpt>
      <trkpt lat="48.52782" lon="1.96825">
        <ele>112</ele>
        <time>2019-04-07T13:46:53Z</time>
      </trkpt>
      <trkpt lat="48.5278" lon="1.96831">
        <ele>111</ele>
        <time>2019-04-07T13:46:58Z</time>
      </trkpt>
      <trkpt lat="48.52777" lon="1.96878">
        <ele>109</ele>
        <time>2019-04-07T13:47:23Z</time>
      </trkpt>
      <trkpt lat="48.52775" lon="1.96885">
        <ele>109</ele>
        <time>2019-04-07T13:47:27Z</time>
      </trkpt>
      <trkpt lat="48.52774" lon="1.96894">
        <ele>109</ele>
        <time>2019-04-07T13:47:31Z</time>
      </trkpt>
      <trkpt lat="48.52772" lon="1.96903">
        <ele>109</ele>
        <time>2019-04-07T13:47:36Z</time>
      </trkpt>
      <trkpt lat="48.52771" lon="1.9692">
        <ele>109</ele>
        <time>2019-04-07T13:47:44Z</time>
      </trkpt>
      <trkpt lat="48.52769" lon="1.96927">
        <ele>109</ele>
        <time>2019-04-07T13:47:48Z</time>
      </trkpt>
      <trkpt lat="48.52766" lon="1.9698">
        <ele>110</ele>
        <time>2019-04-07T13:48:17Z</time>
      </trkpt>
      <trkpt lat="48.5276" lon="1.97001">
        <ele>112</ele>
        <time>2019-04-07T13:48:30Z</time>
      </trkpt>
      <trkpt lat="48.52761" lon="1.97017">
        <ele>112</ele>
        <time>2019-04-07T13:48:39Z</time>
      </trkpt>
      <trkpt lat="48.5276" lon="1.97032">
        <ele>112</ele>
        <time>2019-04-07T13:48:48Z</time>
      </trkpt>
      <trkpt lat="48.52757" lon="1.97047">
        <ele>112</ele>
        <time>2019-04-07T13:48:56Z</time>
      </trkpt>
      <trkpt lat="48.52753" lon="1.97091">
        <ele>113</ele>
        <time>2019-04-07T13:49:19Z</time>
      </trkpt>
      <trkpt lat="48.52751" lon="1.97098">
        <ele>113</ele>
        <time>2019-04-07T13:49:23Z</time>
      </trkpt>
      <trkpt lat="48.52751" lon="1.9714">
        <ele>113</ele>
        <time>2019-04-07T13:49:49Z</time>
      </trkpt>
      <trkpt lat="48.52752" lon="1.97147">
        <ele>112</ele>
        <time>2019-04-07T13:49:57Z</time>
      </trkpt>
      <trkpt lat="48.52747" lon="1.97153">
        <ele>113</ele>
        <time>2019-04-07T13:51:03Z</time>
      </trkpt>
      <trkpt lat="48.52735" lon="1.97159">
        <ele>113</ele>
        <time>2019-04-07T13:51:34Z</time>
      </trkpt>
      <trkpt lat="48.5271" lon="1.97163">
        <ele>115</ele>
        <time>2019-04-07T13:51:54Z</time>
      </trkpt>
      <trkpt lat="48.52695" lon="1.97162">
        <ele>116</ele>
        <time>2019-04-07T13:52:06Z</time>
      </trkpt>
      <trkpt lat="48.52678" lon="1.9717">
        <ele>118</ele>
        <time>2019-04-07T13:52:20Z</time>
      </trkpt>
      <trkpt lat="48.52658" lon="1.97168">
        <ele>119</ele>
        <time>2019-04-07T13:52:36Z</time>
      </trkpt>
      <trkpt lat="48.52653" lon="1.9717">
        <ele>120</ele>
        <time>2019-04-07T13:52:41Z</time>
      </trkpt>
      <trkpt lat="48.5263" lon="1.97172">
        <ele>122</ele>
        <time>2019-04-07T13:53:03Z</time>
      </trkpt>
      <trkpt lat="48.52625" lon="1.97176">
        <ele>122</ele>
        <time>2019-04-07T13:53:11Z</time>
      </trkpt>
      <trkpt lat="48.5262" lon="1.97177">
        <ele>122</ele>
        <time>2019-04-07T13:53:15Z</time>
      </trkpt>
      <trkpt lat="48.52605" lon="1.97171">
        <ele>122</ele>
        <time>2019-04-07T13:53:27Z</time>
      </trkpt>
      <trkpt lat="48.52579" lon="1.97171">
        <ele>123</ele>
        <time>2019-04-07T13:53:47Z</time>
      </trkpt>
      <trkpt lat="48.52553" lon="1.97174">
        <ele>123</ele>
        <time>2019-04-07T13:54:06Z</time>
      </trkpt>
      <trkpt lat="48.52542" lon="1.9717">
        <ele>123</ele>
        <time>2019-04-07T13:54:13Z</time>
      </trkpt>
      <trkpt lat="48.52536" lon="1.97165">
        <ele>123</ele>
        <time>2019-04-07T13:54:19Z</time>
      </trkpt>
      <trkpt lat="48.52531" lon="1.97164">
        <ele>123</ele>
        <time>2019-04-07T13:54:23Z</time>
      </trkpt>
      <trkpt lat="48.52517" lon="1.97163">
        <ele>123</ele>
        <time>2019-04-07T13:54:34Z</time>
      </trkpt>
      <trkpt lat="48.52512" lon="1.97161">
        <ele>123</ele>
        <time>2019-04-07T13:54:38Z</time>
      </trkpt>
      <trkpt lat="48.52495" lon="1.97161">
        <ele>123</ele>
        <time>2019-04-07T13:54:50Z</time>
      </trkpt>
      <trkpt lat="48.52484" lon="1.97166">
        <ele>123</ele>
        <time>2019-04-07T13:55:00Z</time>
      </trkpt>
      <trkpt lat="48.5248" lon="1.97164">
        <ele>123</ele>
        <time>2019-04-07T13:55:04Z</time>
      </trkpt>
      <trkpt lat="48.52474" lon="1.97165">
        <ele>123</ele>
        <time>2019-04-07T13:55:08Z</time>
      </trkpt>
      <trkpt lat="48.52465" lon="1.9717">
        <ele>123</ele>
        <time>2019-04-07T13:55:13Z</time>
      </trkpt>
      <trkpt lat="48.52455" lon="1.97167">
        <ele>123</ele>
        <time>2019-04-07T13:55:21Z</time>
      </trkpt>
      <trkpt lat="48.52449" lon="1.97166">
        <ele>123</ele>
        <time>2019-04-07T13:55:25Z</time>
      </trkpt>
      <trkpt lat="48.52426" lon="1.97165">
        <ele>123</ele>
        <time>2019-04-07T13:55:40Z</time>
      </trkpt>
      <trkpt lat="48.5239" lon="1.97151">
        <ele>122</ele>
        <time>2019-04-07T13:56:10Z</time>
      </trkpt>
      <trkpt lat="48.52385" lon="1.97149">
        <ele>122</ele>
        <time>2019-04-07T13:56:15Z</time>
      </trkpt>
      <trkpt lat="48.52365" lon="1.97153">
        <ele>122</ele>
        <time>2019-04-07T13:56:31Z</time>
      </trkpt>
      <trkpt lat="48.5235" lon="1.9715">
        <ele>123</ele>
        <time>2019-04-07T13:56:43Z</time>
      </trkpt>
      <trkpt lat="48.52326" lon="1.97151">
        <ele>123</ele>
        <time>2019-04-07T13:57:02Z</time>
      </trkpt>
      <trkpt lat="48.52287" lon="1.97146">
        <ele>123</ele>
        <time>2019-04-07T13:57:35Z</time>
      </trkpt>
      <trkpt lat="48.52274" lon="1.97145">
        <ele>123</ele>
        <time>2019-04-07T13:57:47Z</time>
      </trkpt>
      <trkpt lat="48.52265" lon="1.97142">
        <ele>124</ele>
        <time>2019-04-07T13:57:57Z</time>
      </trkpt>
      <trkpt lat="48.52255" lon="1.97143">
        <ele>125</ele>
        <time>2019-04-07T13:58:09Z</time>
      </trkpt>
      <trkpt lat="48.52249" lon="1.97141">
        <ele>125</ele>
        <time>2019-04-07T13:58:12Z</time>
      </trkpt>
      <trkpt lat="48.52223" lon="1.97141">
        <ele>126</ele>
        <time>2019-04-07T13:58:30Z</time>
      </trkpt>
      <trkpt lat="48.52202" lon="1.97138">
        <ele>127</ele>
        <time>2019-04-07T13:58:46Z</time>
      </trkpt>
      <trkpt lat="48.52189" lon="1.97139">
        <ele>129</ele>
        <time>2019-04-07T13:58:59Z</time>
      </trkpt>
      <trkpt lat="48.52184" lon="1.97137">
        <ele>129</ele>
        <time>2019-04-07T13:59:04Z</time>
      </trkpt>
      <trkpt lat="48.52171" lon="1.97139">
        <ele>130</ele>
        <time>2019-04-07T13:59:11Z</time>
      </trkpt>
      <trkpt lat="48.52163" lon="1.97135">
        <ele>131</ele>
        <time>2019-04-07T13:59:18Z</time>
      </trkpt>
      <trkpt lat="48.52158" lon="1.97133">
        <ele>132</ele>
        <time>2019-04-07T13:59:22Z</time>
      </trkpt>
      <trkpt lat="48.52153" lon="1.97132">
        <ele>133</ele>
        <time>2019-04-07T13:59:27Z</time>
      </trkpt>
      <trkpt lat="48.52144" lon="1.97129">
        <ele>134</ele>
        <time>2019-04-07T13:59:36Z</time>
      </trkpt>
      <trkpt lat="48.52137" lon="1.97127">
        <ele>137</ele>
        <time>2019-04-07T13:59:49Z</time>
      </trkpt>
      <trkpt lat="48.5213" lon="1.97124">
        <ele>140</ele>
        <time>2019-04-07T14:00:01Z</time>
      </trkpt>
      <trkpt lat="48.52121" lon="1.97124">
        <ele>143</ele>
        <time>2019-04-07T14:00:13Z</time>
      </trkpt>
      <trkpt lat="48.52096" lon="1.97115">
        <ele>151</ele>
        <time>2019-04-07T14:00:48Z</time>
      </trkpt>
      <trkpt lat="48.52081" lon="1.97113">
        <ele>153</ele>
        <time>2019-04-07T14:01:01Z</time>
      </trkpt>
      <trkpt lat="48.52076" lon="1.97114">
        <ele>154</ele>
        <time>2019-04-07T14:01:05Z</time>
      </trkpt>
      <trkpt lat="48.52058" lon="1.97109">
        <ele>155</ele>
        <time>2019-04-07T14:01:28Z</time>
      </trkpt>
      <trkpt lat="48.52052" lon="1.97111">
        <ele>155</ele>
        <time>2019-04-07T14:01:40Z</time>
      </trkpt>
      <trkpt lat="48.52047" lon="1.97112">
        <ele>156</ele>
        <time>2019-04-07T14:01:52Z</time>
      </trkpt>
      <trkpt lat="48.52043" lon="1.97105">
        <ele>156</ele>
        <time>2019-04-07T14:02:10Z</time>
      </trkpt>
      <trkpt lat="48.52034" lon="1.97105">
        <ele>156</ele>
        <time>2019-04-07T14:02:22Z</time>
      </trkpt>
      <trkpt lat="48.52018" lon="1.97107">
        <ele>156</ele>
        <time>2019-04-07T14:02:51Z</time>
      </trkpt>
      <trkpt lat="48.51997" lon="1.97108">
        <ele>157</ele>
        <time>2019-04-07T14:03:16Z</time>
      </trkpt>
      <trkpt lat="48.51991" lon="1.97111">
        <ele>156</ele>
        <time>2019-04-07T14:03:28Z</time>
      </trkpt>
      <trkpt lat="48.51982" lon="1.97105">
        <ele>157</ele>
        <time>2019-04-07T14:04:02Z</time>
      </trkpt>
      <trkpt lat="48.51975" lon="1.97098">
        <ele>158</ele>
        <time>2019-04-07T14:04:14Z</time>
      </trkpt>
      <trkpt lat="48.5197" lon="1.97098">
        <ele>157</ele>
        <time>2019-04-07T14:04:19Z</time>
      </trkpt>
      <trkpt lat="48.51966" lon="1.971">
        <ele>157</ele>
        <time>2019-04-07T14:04:24Z</time>
      </trkpt>
      <trkpt lat="48.51951" lon="1.97108">
        <ele>157</ele>
        <time>2019-04-07T14:04:33Z</time>
      </trkpt>
      <trkpt lat="48.5194" lon="1.97108">
        <ele>157</ele>
        <time>2019-04-07T14:04:47Z</time>
      </trkpt>
      <trkpt lat="48.51935" lon="1.97104">
        <ele>157</ele>
        <time>2019-04-07T14:04:54Z</time>
      </trkpt>
      <trkpt lat="48.51935" lon="1.97092">
        <ele>157</ele>
        <time>2019-04-07T14:05:21Z</time>
      </trkpt>
      <trkpt lat="48.51937" lon="1.97083">
        <ele>157</ele>
        <time>2019-04-07T14:06:36Z</time>
      </trkpt>
      <trkpt lat="48.51938" lon="1.97082">
        <ele>157</ele>
        <time>2019-04-07T14:07:08Z</time>
      </trkpt>
      <trkpt lat="48.51931" lon="1.97084">
        <ele>157</ele>
        <time>2019-04-07T14:13:27Z</time>
      </trkpt>
      <trkpt lat="48.51925" lon="1.97087">
        <ele>157</ele>
        <time>2019-04-07T14:13:51Z</time>
      </trkpt>
      <trkpt lat="48.51915" lon="1.97095">
        <ele>157</ele>
        <time>2019-04-07T14:13:59Z</time>
      </trkpt>
      <trkpt lat="48.51908" lon="1.97096">
        <ele>157</ele>
        <time>2019-04-07T14:14:07Z</time>
      </trkpt>
      <trkpt lat="48.51904" lon="1.97101">
        <ele>156</ele>
        <time>2019-04-07T14:14:15Z</time>
      </trkpt>
      <trkpt lat="48.51895" lon="1.97108">
        <ele>156</ele>
        <time>2019-04-07T14:14:27Z</time>
      </trkpt>
      <trkpt lat="48.51891" lon="1.97111">
        <ele>156</ele>
        <time>2019-04-07T14:14:34Z</time>
      </trkpt>
      <trkpt lat="48.51886" lon="1.97117">
        <ele>156</ele>
        <time>2019-04-07T14:14:39Z</time>
      </trkpt>
      <trkpt lat="48.51882" lon="1.97121">
        <ele>156</ele>
        <time>2019-04-07T14:14:44Z</time>
      </trkpt>
      <trkpt lat="48.51845" lon="1.97148">
        <ele>153</ele>
        <time>2019-04-07T14:15:17Z</time>
      </trkpt>
      <trkpt lat="48.51807" lon="1.97168">
        <ele>148</ele>
        <time>2019-04-07T14:15:47Z</time>
      </trkpt>
      <trkpt lat="48.51803" lon="1.97173">
        <ele>147</ele>
        <time>2019-04-07T14:15:52Z</time>
      </trkpt>
      <trkpt lat="48.51797" lon="1.97178">
        <ele>146</ele>
        <time>2019-04-07T14:15:58Z</time>
      </trkpt>
      <trkpt lat="48.51783" lon="1.97186">
        <ele>144</ele>
        <time>2019-04-07T14:16:09Z</time>
      </trkpt>
      <trkpt lat="48.51777" lon="1.97187">
        <ele>143</ele>
        <time>2019-04-07T14:16:12Z</time>
      </trkpt>
      <trkpt lat="48.51772" lon="1.97192">
        <ele>143</ele>
        <time>2019-04-07T14:16:18Z</time>
      </trkpt>
      <trkpt lat="48.51769" lon="1.97199">
        <ele>142</ele>
        <time>2019-04-07T14:16:22Z</time>
      </trkpt>
      <trkpt lat="48.51755" lon="1.97206">
        <ele>142</ele>
        <time>2019-04-07T14:16:32Z</time>
      </trkpt>
      <trkpt lat="48.5175" lon="1.9721">
        <ele>143</ele>
        <time>2019-04-07T14:16:35Z</time>
      </trkpt>
      <trkpt lat="48.5174" lon="1.97219">
        <ele>145</ele>
        <time>2019-04-07T14:16:47Z</time>
      </trkpt>
      <trkpt lat="48.51735" lon="1.97223">
        <ele>145</ele>
        <time>2019-04-07T14:16:51Z</time>
      </trkpt>
      <trkpt lat="48.51727" lon="1.97223">
        <ele>147</ele>
        <time>2019-04-07T14:17:00Z</time>
      </trkpt>
      <trkpt lat="48.51718" lon="1.97231">
        <ele>147</ele>
        <time>2019-04-07T14:17:07Z</time>
      </trkpt>
      <trkpt lat="48.51708" lon="1.97235">
        <ele>148</ele>
        <time>2019-04-07T14:17:13Z</time>
      </trkpt>
      <trkpt lat="48.51694" lon="1.97243">
        <ele>147</ele>
        <time>2019-04-07T14:17:24Z</time>
      </trkpt>
      <trkpt lat="48.51689" lon="1.97243">
        <ele>147</ele>
        <time>2019-04-07T14:17:27Z</time>
      </trkpt>
      <trkpt lat="48.5168" lon="1.97249">
        <ele>146</ele>
        <time>2019-04-07T14:17:33Z</time>
      </trkpt>
      <trkpt lat="48.51676" lon="1.97252">
        <ele>145</ele>
        <time>2019-04-07T14:17:38Z</time>
      </trkpt>
      <trkpt lat="48.51671" lon="1.97258">
        <ele>144</ele>
        <time>2019-04-07T14:17:46Z</time>
      </trkpt>
      <trkpt lat="48.51666" lon="1.97262">
        <ele>143</ele>
        <time>2019-04-07T14:17:50Z</time>
      </trkpt>
      <trkpt lat="48.51661" lon="1.97263">
        <ele>142</ele>
        <time>2019-04-07T14:17:54Z</time>
      </trkpt>
      <trkpt lat="48.51656" lon="1.97269">
        <ele>141</ele>
        <time>2019-04-07T14:17:58Z</time>
      </trkpt>
      <trkpt lat="48.51652" lon="1.97275">
        <ele>140</ele>
        <time>2019-04-07T14:18:03Z</time>
      </trkpt>
      <trkpt lat="48.51647" lon="1.97278">
        <ele>139</ele>
        <time>2019-04-07T14:18:07Z</time>
      </trkpt>
      <trkpt lat="48.51638" lon="1.9728">
        <ele>137</ele>
        <time>2019-04-07T14:18:14Z</time>
      </trkpt>
      <trkpt lat="48.51622" lon="1.97288">
        <ele>134</ele>
        <time>2019-04-07T14:18:25Z</time>
      </trkpt>
      <trkpt lat="48.51619" lon="1.97293">
        <ele>133</ele>
        <time>2019-04-07T14:18:29Z</time>
      </trkpt>
      <trkpt lat="48.51586" lon="1.97312">
        <ele>129</ele>
        <time>2019-04-07T14:18:57Z</time>
      </trkpt>
      <trkpt lat="48.51582" lon="1.97317">
        <ele>129</ele>
        <time>2019-04-07T14:19:02Z</time>
      </trkpt>
      <trkpt lat="48.5158" lon="1.97327">
        <ele>128</ele>
        <time>2019-04-07T14:19:09Z</time>
      </trkpt>
      <trkpt lat="48.51581" lon="1.97342">
        <ele>128</ele>
        <time>2019-04-07T14:19:17Z</time>
      </trkpt>
      <trkpt lat="48.5158" lon="1.97349">
        <ele>128</ele>
        <time>2019-04-07T14:19:20Z</time>
      </trkpt>
      <trkpt lat="48.51574" lon="1.97371">
        <ele>128</ele>
        <time>2019-04-07T14:19:31Z</time>
      </trkpt>
      <trkpt lat="48.51575" lon="1.97386">
        <ele>128</ele>
        <time>2019-04-07T14:19:38Z</time>
      </trkpt>
      <trkpt lat="48.51573" lon="1.97395">
        <ele>128</ele>
        <time>2019-04-07T14:19:42Z</time>
      </trkpt>
      <trkpt lat="48.51572" lon="1.97402">
        <ele>128</ele>
        <time>2019-04-07T14:19:46Z</time>
      </trkpt>
      <trkpt lat="48.5157" lon="1.97409">
        <ele>128</ele>
        <time>2019-04-07T14:19:49Z</time>
      </trkpt>
      <trkpt lat="48.51567" lon="1.97415">
        <ele>128</ele>
        <time>2019-04-07T14:19:52Z</time>
      </trkpt>
      <trkpt lat="48.51566" lon="1.97422">
        <ele>128</ele>
        <time>2019-04-07T14:19:56Z</time>
      </trkpt>
      <trkpt lat="48.51565" lon="1.97433">
        <ele>130</ele>
        <time>2019-04-07T14:20:07Z</time>
      </trkpt>
      <trkpt lat="48.51569" lon="1.97459">
        <ele>131</ele>
        <time>2019-04-07T14:20:22Z</time>
      </trkpt>
      <trkpt lat="48.5157" lon="1.97466">
        <ele>131</ele>
        <time>2019-04-07T14:20:26Z</time>
      </trkpt>
      <trkpt lat="48.5157" lon="1.97483">
        <ele>130</ele>
        <time>2019-04-07T14:20:34Z</time>
      </trkpt>
      <trkpt lat="48.51571" lon="1.975">
        <ele>130</ele>
        <time>2019-04-07T14:20:41Z</time>
      </trkpt>
      <trkpt lat="48.51572" lon="1.97507">
        <ele>129</ele>
        <time>2019-04-07T14:20:44Z</time>
      </trkpt>
      <trkpt lat="48.51569" lon="1.97522">
        <ele>128</ele>
        <time>2019-04-07T14:20:51Z</time>
      </trkpt>
      <trkpt lat="48.51569" lon="1.9753">
        <ele>128</ele>
        <time>2019-04-07T14:20:54Z</time>
      </trkpt>
      <trkpt lat="48.51568" lon="1.97538">
        <ele>128</ele>
        <time>2019-04-07T14:20:58Z</time>
      </trkpt>
      <trkpt lat="48.51568" lon="1.97546">
        <ele>127</ele>
        <time>2019-04-07T14:21:03Z</time>
      </trkpt>
      <trkpt lat="48.51574" lon="1.97558">
        <ele>126</ele>
        <time>2019-04-07T14:21:12Z</time>
      </trkpt>
      <trkpt lat="48.51576" lon="1.97565">
        <ele>126</ele>
        <time>2019-04-07T14:21:15Z</time>
      </trkpt>
      <trkpt lat="48.51577" lon="1.97573">
        <ele>125</ele>
        <time>2019-04-07T14:21:18Z</time>
      </trkpt>
      <trkpt lat="48.51587" lon="1.97593">
        <ele>125</ele>
        <time>2019-04-07T14:21:27Z</time>
      </trkpt>
      <trkpt lat="48.51593" lon="1.97596">
        <ele>125</ele>
        <time>2019-04-07T14:21:30Z</time>
      </trkpt>
      <trkpt lat="48.51597" lon="1.9761">
        <ele>125</ele>
        <time>2019-04-07T14:21:36Z</time>
      </trkpt>
      <trkpt lat="48.51598" lon="1.97618">
        <ele>125</ele>
        <time>2019-04-07T14:21:39Z</time>
      </trkpt>
      <trkpt lat="48.51595" lon="1.97644">
        <ele>124</ele>
        <time>2019-04-07T14:21:50Z</time>
      </trkpt>
      <trkpt lat="48.51596" lon="1.97653">
        <ele>124</ele>
        <time>2019-04-07T14:21:54Z</time>
      </trkpt>
      <trkpt lat="48.51595" lon="1.97679">
        <ele>124</ele>
        <time>2019-04-07T14:22:06Z</time>
      </trkpt>
      <trkpt lat="48.51592" lon="1.97685">
        <ele>124</ele>
        <time>2019-04-07T14:22:09Z</time>
      </trkpt>
      <trkpt lat="48.51593" lon="1.97693">
        <ele>124</ele>
        <time>2019-04-07T14:22:13Z</time>
      </trkpt>
      <trkpt lat="48.51594" lon="1.97701">
        <ele>124</ele>
        <time>2019-04-07T14:22:17Z</time>
      </trkpt>
      <trkpt lat="48.51598" lon="1.97705">
        <ele>124</ele>
        <time>2019-04-07T14:22:20Z</time>
      </trkpt>
      <trkpt lat="48.51601" lon="1.97718">
        <ele>125</ele>
        <time>2019-04-07T14:22:27Z</time>
      </trkpt>
      <trkpt lat="48.51602" lon="1.97726">
        <ele>125</ele>
        <time>2019-04-07T14:22:31Z</time>
      </trkpt>
      <trkpt lat="48.51604" lon="1.97732">
        <ele>125</ele>
        <time>2019-04-07T14:22:35Z</time>
      </trkpt>
      <trkpt lat="48.51606" lon="1.97765">
        <ele>124</ele>
        <time>2019-04-07T14:22:52Z</time>
      </trkpt>
      <trkpt lat="48.51609" lon="1.97772">
        <ele>124</ele>
        <time>2019-04-07T14:22:56Z</time>
      </trkpt>
      <trkpt lat="48.51613" lon="1.97776">
        <ele>124</ele>
        <time>2019-04-07T14:22:59Z</time>
      </trkpt>
      <trkpt lat="48.51614" lon="1.97783">
        <ele>123</ele>
        <time>2019-04-07T14:23:03Z</time>
      </trkpt>
      <trkpt lat="48.51613" lon="1.97791">
        <ele>123</ele>
        <time>2019-04-07T14:23:06Z</time>
      </trkpt>
      <trkpt lat="48.51615" lon="1.978">
        <ele>123</ele>
        <time>2019-04-07T14:23:10Z</time>
      </trkpt>
      <trkpt lat="48.51623" lon="1.9782">
        <ele>122</ele>
        <time>2019-04-07T14:23:21Z</time>
      </trkpt>
      <trkpt lat="48.51624" lon="1.97828">
        <ele>122</ele>
        <time>2019-04-07T14:23:25Z</time>
      </trkpt>
      <trkpt lat="48.51623" lon="1.97835">
        <ele>122</ele>
        <time>2019-04-07T14:23:28Z</time>
      </trkpt>
      <trkpt lat="48.51624" lon="1.97851">
        <ele>122</ele>
        <time>2019-04-07T14:23:35Z</time>
      </trkpt>
      <trkpt lat="48.51628" lon="1.97864">
        <ele>122</ele>
        <time>2019-04-07T14:23:42Z</time>
      </trkpt>
      <trkpt lat="48.51626" lon="1.97871">
        <ele>122</ele>
        <time>2019-04-07T14:23:46Z</time>
      </trkpt>
      <trkpt lat="48.51627" lon="1.9789">
        <ele>122</ele>
        <time>2019-04-07T14:23:54Z</time>
      </trkpt>
      <trkpt lat="48.51625" lon="1.97906">
        <ele>121</ele>
        <time>2019-04-07T14:24:02Z</time>
      </trkpt>
      <trkpt lat="48.51628" lon="1.97913">
        <ele>121</ele>
        <time>2019-04-07T14:24:05Z</time>
      </trkpt>
      <trkpt lat="48.51629" lon="1.9792">
        <ele>121</ele>
        <time>2019-04-07T14:24:08Z</time>
      </trkpt>
      <trkpt lat="48.51629" lon="1.97936">
        <ele>121</ele>
        <time>2019-04-07T14:24:15Z</time>
      </trkpt>
      <trkpt lat="48.51635" lon="1.97956">
        <ele>121</ele>
        <time>2019-04-07T14:24:24Z</time>
      </trkpt>
      <trkpt lat="48.51633" lon="1.97965">
        <ele>121</ele>
        <time>2019-04-07T14:24:27Z</time>
      </trkpt>
      <trkpt lat="48.51629" lon="1.9798">
        <ele>120</ele>
        <time>2019-04-07T14:24:33Z</time>
      </trkpt>
      <trkpt lat="48.51629" lon="1.97995">
        <ele>120</ele>
        <time>2019-04-07T14:24:39Z</time>
      </trkpt>
      <trkpt lat="48.51631" lon="1.98002">
        <ele>120</ele>
        <time>2019-04-07T14:24:42Z</time>
      </trkpt>
      <trkpt lat="48.51632" lon="1.9801">
        <ele>120</ele>
        <time>2019-04-07T14:24:46Z</time>
      </trkpt>
      <trkpt lat="48.51619" lon="1.98036">
        <ele>120</ele>
        <time>2019-04-07T14:24:59Z</time>
      </trkpt>
      <trkpt lat="48.51605" lon="1.9805">
        <ele>120</ele>
        <time>2019-04-07T14:25:14Z</time>
      </trkpt>
      <trkpt lat="48.516" lon="1.98056">
        <ele>120</ele>
        <time>2019-04-07T14:25:21Z</time>
      </trkpt>
      <trkpt lat="48.51596" lon="1.9806">
        <ele>120</ele>
        <time>2019-04-07T14:25:24Z</time>
      </trkpt>
      <trkpt lat="48.51588" lon="1.98073">
        <ele>120</ele>
        <time>2019-04-07T14:25:31Z</time>
      </trkpt>
      <trkpt lat="48.51574" lon="1.98105">
        <ele>120</ele>
        <time>2019-04-07T14:25:49Z</time>
      </trkpt>
      <trkpt lat="48.51573" lon="1.98111">
        <ele>119</ele>
        <time>2019-04-07T14:25:53Z</time>
      </trkpt>
      <trkpt lat="48.51575" lon="1.9812">
        <ele>119</ele>
        <time>2019-04-07T14:25:59Z</time>
      </trkpt>
      <trkpt lat="48.51575" lon="1.98127">
        <ele>119</ele>
        <time>2019-04-07T14:26:02Z</time>
      </trkpt>
      <trkpt lat="48.51573" lon="1.98144">
        <ele>119</ele>
        <time>2019-04-07T14:26:10Z</time>
      </trkpt>
      <trkpt lat="48.51576" lon="1.98167">
        <ele>119</ele>
        <time>2019-04-07T14:26:22Z</time>
      </trkpt>
      <trkpt lat="48.51593" lon="1.98185">
        <ele>119</ele>
        <time>2019-04-07T14:26:38Z</time>
      </trkpt>
      <trkpt lat="48.51619" lon="1.9823">
        <ele>118</ele>
        <time>2019-04-07T14:27:07Z</time>
      </trkpt>
      <trkpt lat="48.51623" lon="1.98234">
        <ele>118</ele>
        <time>2019-04-07T14:27:10Z</time>
      </trkpt>
      <trkpt lat="48.5163" lon="1.98247">
        <ele>118</ele>
        <time>2019-04-07T14:27:22Z</time>
      </trkpt>
      <trkpt lat="48.51637" lon="1.98257">
        <ele>118</ele>
        <time>2019-04-07T14:27:31Z</time>
      </trkpt>
      <trkpt lat="48.51657" lon="1.98279">
        <ele>119</ele>
        <time>2019-04-07T14:27:46Z</time>
      </trkpt>
      <trkpt lat="48.51663" lon="1.98293">
        <ele>119</ele>
        <time>2019-04-07T14:27:53Z</time>
      </trkpt>
      <trkpt lat="48.51657" lon="1.98319">
        <ele>119</ele>
        <time>2019-04-07T14:28:05Z</time>
      </trkpt>
      <trkpt lat="48.51656" lon="1.98328">
        <ele>120</ele>
        <time>2019-04-07T14:28:09Z</time>
      </trkpt>
      <trkpt lat="48.51655" lon="1.98336">
        <ele>120</ele>
        <time>2019-04-07T14:28:13Z</time>
      </trkpt>
      <trkpt lat="48.51654" lon="1.98343">
        <ele>120</ele>
        <time>2019-04-07T14:28:17Z</time>
      </trkpt>
      <trkpt lat="48.51648" lon="1.9837">
        <ele>118</ele>
        <time>2019-04-07T14:28:37Z</time>
      </trkpt>
      <trkpt lat="48.51648" lon="1.98376">
        <ele>118</ele>
        <time>2019-04-07T14:29:00Z</time>
      </trkpt>
      <trkpt lat="48.51644" lon="1.98382">
        <ele>117</ele>
        <time>2019-04-07T14:31:11Z</time>
      </trkpt>
      <trkpt lat="48.51637" lon="1.98386">
        <ele>117</ele>
        <time>2019-04-07T14:32:48Z</time>
      </trkpt>
      <trkpt lat="48.51591" lon="1.98415">
        <ele>116</ele>
        <time>2019-04-07T14:33:20Z</time>
      </trkpt>
      <trkpt lat="48.51576" lon="1.98427">
        <ele>117</ele>
        <time>2019-04-07T14:33:34Z</time>
      </trkpt>
      <trkpt lat="48.5156" lon="1.9844">
        <ele>117</ele>
        <time>2019-04-07T14:33:49Z</time>
      </trkpt>
      <trkpt lat="48.51545" lon="1.98451">
        <ele>116</ele>
        <time>2019-04-07T14:33:59Z</time>
      </trkpt>
      <trkpt lat="48.51532" lon="1.98463">
        <ele>115</ele>
        <time>2019-04-07T14:34:10Z</time>
      </trkpt>
      <trkpt lat="48.51524" lon="1.98471">
        <ele>115</ele>
        <time>2019-04-07T14:34:19Z</time>
      </trkpt>
      <trkpt lat="48.51514" lon="1.98478">
        <ele>116</ele>
        <time>2019-04-07T14:34:28Z</time>
      </trkpt>
      <trkpt lat="48.51488" lon="1.98501">
        <ele>117</ele>
        <time>2019-04-07T14:34:55Z</time>
      </trkpt>
      <trkpt lat="48.51465" lon="1.98526">
        <ele>120</ele>
        <time>2019-04-07T14:35:27Z</time>
      </trkpt>
      <trkpt lat="48.51458" lon="1.98537">
        <ele>121</ele>
        <time>2019-04-07T14:35:35Z</time>
      </trkpt>
      <trkpt lat="48.51449" lon="1.98545">
        <ele>121</ele>
        <time>2019-04-07T14:35:43Z</time>
      </trkpt>
      <trkpt lat="48.51445" lon="1.98551">
        <ele>121</ele>
        <time>2019-04-07T14:35:47Z</time>
      </trkpt>
      <trkpt lat="48.5143" lon="1.98575">
        <ele>121</ele>
        <time>2019-04-07T14:36:04Z</time>
      </trkpt>
      <trkpt lat="48.51406" lon="1.98634">
        <ele>124</ele>
        <time>2019-04-07T14:36:38Z</time>
      </trkpt>
      <trkpt lat="48.51381" lon="1.98684">
        <ele>126</ele>
        <time>2019-04-07T14:37:11Z</time>
      </trkpt>
      <trkpt lat="48.51378" lon="1.9869">
        <ele>126</ele>
        <time>2019-04-07T14:37:15Z</time>
      </trkpt>
      <trkpt lat="48.51378" lon="1.98697">
        <ele>127</ele>
        <time>2019-04-07T14:37:20Z</time>
      </trkpt>
      <trkpt lat="48.51366" lon="1.98714">
        <ele>128</ele>
        <time>2019-04-07T14:37:37Z</time>
      </trkpt>
      <trkpt lat="48.51357" lon="1.9872">
        <ele>128</ele>
        <time>2019-04-07T14:37:44Z</time>
      </trkpt>
      <trkpt lat="48.51353" lon="1.98728">
        <ele>127</ele>
        <time>2019-04-07T14:38:18Z</time>
      </trkpt>
      <trkpt lat="48.51353" lon="1.98736">
        <ele>128</ele>
        <time>2019-04-07T14:38:54Z</time>
      </trkpt>
      <trkpt lat="48.51347" lon="1.98745">
        <ele>127</ele>
        <time>2019-04-07T14:40:04Z</time>
      </trkpt>
      <trkpt lat="48.51341" lon="1.98768">
        <ele>127</ele>
        <time>2019-04-07T14:40:21Z</time>
      </trkpt>
      <trkpt lat="48.5134" lon="1.98777">
        <ele>127</ele>
        <time>2019-04-07T14:40:26Z</time>
      </trkpt>
      <trkpt lat="48.51338" lon="1.98791">
        <ele>126</ele>
        <time>2019-04-07T14:40:33Z</time>
      </trkpt>
      <trkpt lat="48.51338" lon="1.988">
        <ele>125</ele>
        <time>2019-04-07T14:40:38Z</time>
      </trkpt>
      <trkpt lat="48.51339" lon="1.98807">
        <ele>125</ele>
        <time>2019-04-07T14:40:43Z</time>
      </trkpt>
      <trkpt lat="48.51326" lon="1.9883">
        <ele>125</ele>
        <time>2019-04-07T14:40:58Z</time>
      </trkpt>
      <trkpt lat="48.51317" lon="1.98849">
        <ele>129</ele>
        <time>2019-04-07T14:41:18Z</time>
      </trkpt>
      <trkpt lat="48.51295" lon="1.98896">
        <ele>132</ele>
        <time>2019-04-07T14:41:55Z</time>
      </trkpt>
      <trkpt lat="48.51275" lon="1.98928">
        <ele>133</ele>
        <time>2019-04-07T14:42:17Z</time>
      </trkpt>
      <trkpt lat="48.51265" lon="1.9895">
        <ele>134</ele>
        <time>2019-04-07T14:42:32Z</time>
      </trkpt>
      <trkpt lat="48.51261" lon="1.98963">
        <ele>133</ele>
        <time>2019-04-07T14:42:42Z</time>
      </trkpt>
      <trkpt lat="48.51253" lon="1.98976">
        <ele>133</ele>
        <time>2019-04-07T14:42:49Z</time>
      </trkpt>
      <trkpt lat="48.51248" lon="1.98988">
        <ele>132</ele>
        <time>2019-04-07T14:42:54Z</time>
      </trkpt>
      <trkpt lat="48.51244" lon="1.98995">
        <ele>132</ele>
        <time>2019-04-07T14:42:57Z</time>
      </trkpt>
      <trkpt lat="48.51241" lon="1.99">
        <ele>131</ele>
        <time>2019-04-07T14:42:59Z</time>
      </trkpt>
      <trkpt lat="48.51237" lon="1.99007">
        <ele>131</ele>
        <time>2019-04-07T14:43:03Z</time>
      </trkpt>
      <trkpt lat="48.51229" lon="1.99028">
        <ele>129</ele>
        <time>2019-04-07T14:43:14Z</time>
      </trkpt>
      <trkpt lat="48.51219" lon="1.99047">
        <ele>127</ele>
        <time>2019-04-07T14:43:26Z</time>
      </trkpt>
      <trkpt lat="48.51211" lon="1.99076">
        <ele>124</ele>
        <time>2019-04-07T14:43:40Z</time>
      </trkpt>
      <trkpt lat="48.5121" lon="1.99084">
        <ele>122</ele>
        <time>2019-04-07T14:43:45Z</time>
      </trkpt>
      <trkpt lat="48.51207" lon="1.99092">
        <ele>122</ele>
        <time>2019-04-07T14:43:49Z</time>
      </trkpt>
      <trkpt lat="48.51203" lon="1.99096">
        <ele>121</ele>
        <time>2019-04-07T14:43:51Z</time>
      </trkpt>
      <trkpt lat="48.51198" lon="1.99107">
        <ele>121</ele>
        <time>2019-04-07T14:43:55Z</time>
      </trkpt>
      <trkpt lat="48.51189" lon="1.99133">
        <ele>118</ele>
        <time>2019-04-07T14:44:11Z</time>
      </trkpt>
      <trkpt lat="48.51158" lon="1.99192">
        <ele>115</ele>
        <time>2019-04-07T14:44:45Z</time>
      </trkpt>
      <trkpt lat="48.51143" lon="1.99216">
        <ele>115</ele>
        <time>2019-04-07T14:44:59Z</time>
      </trkpt>
      <trkpt lat="48.51138" lon="1.9923">
        <ele>115</ele>
        <time>2019-04-07T14:45:08Z</time>
      </trkpt>
      <trkpt lat="48.51125" lon="1.99254">
        <ele>115</ele>
        <time>2019-04-07T14:45:25Z</time>
      </trkpt>
      <trkpt lat="48.51119" lon="1.99268">
        <ele>116</ele>
        <time>2019-04-07T14:45:33Z</time>
      </trkpt>
      <trkpt lat="48.51115" lon="1.99282">
        <ele>116</ele>
        <time>2019-04-07T14:45:41Z</time>
      </trkpt>
      <trkpt lat="48.51091" lon="1.9932">
        <ele>115</ele>
        <time>2019-04-07T14:46:10Z</time>
      </trkpt>
      <trkpt lat="48.51091" lon="1.99328">
        <ele>114</ele>
        <time>2019-04-07T14:46:15Z</time>
      </trkpt>
      <trkpt lat="48.51096" lon="1.99331">
        <ele>114</ele>
        <time>2019-04-07T14:46:18Z</time>
      </trkpt>
      <trkpt lat="48.511" lon="1.99333">
        <ele>114</ele>
        <time>2019-04-07T14:46:21Z</time>
      </trkpt>
      <trkpt lat="48.51105" lon="1.99338">
        <ele>114</ele>
        <time>2019-04-07T14:46:25Z</time>
      </trkpt>
      <trkpt lat="48.51125" lon="1.99363">
        <ele>112</ele>
        <time>2019-04-07T14:46:45Z</time>
      </trkpt>
      <trkpt lat="48.5116" lon="1.99405">
        <ele>111</ele>
        <time>2019-04-07T14:47:17Z</time>
      </trkpt>
      <trkpt lat="48.51176" lon="1.99431">
        <ele>110</ele>
        <time>2019-04-07T14:47:30Z</time>
      </trkpt>
      <trkpt lat="48.5118" lon="1.99435">
        <ele>110</ele>
        <time>2019-04-07T14:47:33Z</time>
      </trkpt>
      <trkpt lat="48.51186" lon="1.99454">
        <ele>109</ele>
        <time>2019-04-07T14:47:42Z</time>
      </trkpt>
      <trkpt lat="48.5119" lon="1.9946">
        <ele>109</ele>
        <time>2019-04-07T14:47:46Z</time>
      </trkpt>
      <trkpt lat="48.51195" lon="1.99464">
        <ele>109</ele>
        <time>2019-04-07T14:47:50Z</time>
      </trkpt>
      <trkpt lat="48.51198" lon="1.9947">
        <ele>109</ele>
        <time>2019-04-07T14:47:54Z</time>
      </trkpt>
      <trkpt lat="48.51212" lon="1.9948">
        <ele>109</ele>
        <time>2019-04-07T14:48:04Z</time>
      </trkpt>
      <trkpt lat="48.51222" lon="1.99495">
        <ele>108</ele>
        <time>2019-04-07T14:48:14Z</time>
      </trkpt>
      <trkpt lat="48.51225" lon="1.99518">
        <ele>107</ele>
        <time>2019-04-07T14:48:27Z</time>
      </trkpt>
      <trkpt lat="48.51233" lon="1.99535">
        <ele>107</ele>
        <time>2019-04-07T14:48:36Z</time>
      </trkpt>
      <trkpt lat="48.51238" lon="1.99551">
        <ele>107</ele>
        <time>2019-04-07T14:48:43Z</time>
      </trkpt>
      <trkpt lat="48.51238" lon="1.99558">
        <ele>107</ele>
        <time>2019-04-07T14:48:46Z</time>
      </trkpt>
      <trkpt lat="48.51233" lon="1.99571">
        <ele>106</ele>
        <time>2019-04-07T14:48:52Z</time>
      </trkpt>
      <trkpt lat="48.51233" lon="1.99587">
        <ele>106</ele>
        <time>2019-04-07T14:48:59Z</time>
      </trkpt>
      <trkpt lat="48.51233" lon="1.99596">
        <ele>105</ele>
        <time>2019-04-07T14:49:02Z</time>
      </trkpt>
      <trkpt lat="48.51235" lon="1.99606">
        <ele>105</ele>
        <time>2019-04-07T14:49:06Z</time>
      </trkpt>
      <trkpt lat="48.51235" lon="1.99614">
        <ele>105</ele>
        <time>2019-04-07T14:49:10Z</time>
      </trkpt>
      <trkpt lat="48.51233" lon="1.9963">
        <ele>104</ele>
        <time>2019-04-07T14:49:19Z</time>
      </trkpt>
      <trkpt lat="48.51234" lon="1.99637">
        <ele>104</ele>
        <time>2019-04-07T14:49:23Z</time>
      </trkpt>
      <trkpt lat="48.51234" lon="1.99653">
        <ele>104</ele>
        <time>2019-04-07T14:49:30Z</time>
      </trkpt>
      <trkpt lat="48.51236" lon="1.99659">
        <ele>104</ele>
        <time>2019-04-07T14:49:33Z</time>
      </trkpt>
      <trkpt lat="48.51234" lon="1.99682">
        <ele>103</ele>
        <time>2019-04-07T14:49:46Z</time>
      </trkpt>
      <trkpt lat="48.5124" lon="1.99702">
        <ele>103</ele>
        <time>2019-04-07T14:50:03Z</time>
      </trkpt>
      <trkpt lat="48.51244" lon="1.99707">
        <ele>103</ele>
        <time>2019-04-07T14:50:06Z</time>
      </trkpt>
      <trkpt lat="48.51244" lon="1.99715">
        <ele>103</ele>
        <time>2019-04-07T14:50:11Z</time>
      </trkpt>
      <trkpt lat="48.51246" lon="1.99722">
        <ele>103</ele>
        <time>2019-04-07T14:50:15Z</time>
      </trkpt>
      <trkpt lat="48.51247" lon="1.9973">
        <ele>103</ele>
        <time>2019-04-07T14:50:20Z</time>
      </trkpt>
      <trkpt lat="48.51251" lon="1.99737">
        <ele>102</ele>
        <time>2019-04-07T14:50:26Z</time>
      </trkpt>
      <trkpt lat="48.51252" lon="1.99745">
        <ele>101</ele>
        <time>2019-04-07T14:50:31Z</time>
      </trkpt>
      <trkpt lat="48.51251" lon="1.99761">
        <ele>102</ele>
        <time>2019-04-07T14:50:42Z</time>
      </trkpt>
      <trkpt lat="48.51256" lon="1.99775">
        <ele>101</ele>
        <time>2019-04-07T14:50:50Z</time>
      </trkpt>
      <trkpt lat="48.51262" lon="1.99797">
        <ele>102</ele>
        <time>2019-04-07T14:50:59Z</time>
      </trkpt>
      <trkpt lat="48.51268" lon="1.99826">
        <ele>101</ele>
        <time>2019-04-07T14:51:11Z</time>
      </trkpt>
      <trkpt lat="48.51272" lon="1.99837">
        <ele>101</ele>
        <time>2019-04-07T14:51:16Z</time>
      </trkpt>
      <trkpt lat="48.51279" lon="1.99849">
        <ele>101</ele>
        <time>2019-04-07T14:51:22Z</time>
      </trkpt>
      <trkpt lat="48.51284" lon="1.99875">
        <ele>101</ele>
        <time>2019-04-07T14:51:34Z</time>
      </trkpt>
      <trkpt lat="48.51286" lon="1.99889">
        <ele>101</ele>
        <time>2019-04-07T14:51:40Z</time>
      </trkpt>
      <trkpt lat="48.51286" lon="1.99908">
        <ele>101</ele>
        <time>2019-04-07T14:51:52Z</time>
      </trkpt>
      <trkpt lat="48.51298" lon="1.99928">
        <ele>101</ele>
        <time>2019-04-07T14:52:05Z</time>
      </trkpt>
      <trkpt lat="48.51298" lon="1.99946">
        <ele>101</ele>
        <time>2019-04-07T14:52:16Z</time>
      </trkpt>
      <trkpt lat="48.51304" lon="1.99989">
        <ele>100</ele>
        <time>2019-04-07T14:52:38Z</time>
      </trkpt>
      <trkpt lat="48.51302" lon="2.00004">
        <ele>100</ele>
        <time>2019-04-07T14:52:45Z</time>
      </trkpt>
      <trkpt lat="48.51305" lon="2.0002">
        <ele>100</ele>
        <time>2019-04-07T14:52:52Z</time>
      </trkpt>
      <trkpt lat="48.51304" lon="2.00035">
        <ele>100</ele>
        <time>2019-04-07T14:52:59Z</time>
      </trkpt>
      <trkpt lat="48.51313" lon="2.00064">
        <ele>101</ele>
        <time>2019-04-07T14:53:11Z</time>
      </trkpt>
      <trkpt lat="48.51311" lon="2.00078">
        <ele>101</ele>
        <time>2019-04-07T14:53:18Z</time>
      </trkpt>
      <trkpt lat="48.51319" lon="2.00111">
        <ele>101</ele>
        <time>2019-04-07T14:53:34Z</time>
      </trkpt>
      <trkpt lat="48.51316" lon="2.00126">
        <ele>101</ele>
        <time>2019-04-07T14:53:41Z</time>
      </trkpt>
      <trkpt lat="48.5132" lon="2.00139">
        <ele>101</ele>
        <time>2019-04-07T14:53:45Z</time>
      </trkpt>
      <trkpt lat="48.51326" lon="2.00147">
        <ele>101</ele>
        <time>2019-04-07T14:53:49Z</time>
      </trkpt>
      <trkpt lat="48.51333" lon="2.00159">
        <ele>100</ele>
        <time>2019-04-07T14:53:56Z</time>
      </trkpt>
      <trkpt lat="48.51341" lon="2.00169">
        <ele>100</ele>
        <time>2019-04-07T14:54:03Z</time>
      </trkpt>
      <trkpt lat="48.51347" lon="2.00181">
        <ele>100</ele>
        <time>2019-04-07T14:54:10Z</time>
      </trkpt>
      <trkpt lat="48.51351" lon="2.00196">
        <ele>100</ele>
        <time>2019-04-07T14:54:18Z</time>
      </trkpt>
      <trkpt lat="48.51354" lon="2.00201">
        <ele>100</ele>
        <time>2019-04-07T14:54:21Z</time>
      </trkpt>
      <trkpt lat="48.51358" lon="2.00205">
        <ele>100</ele>
        <time>2019-04-07T14:54:24Z</time>
      </trkpt>
      <trkpt lat="48.51359" lon="2.00212">
        <ele>100</ele>
        <time>2019-04-07T14:54:27Z</time>
      </trkpt>
      <trkpt lat="48.51356" lon="2.00218">
        <ele>100</ele>
        <time>2019-04-07T14:54:31Z</time>
      </trkpt>
      <trkpt lat="48.51357" lon="2.00226">
        <ele>100</ele>
        <time>2019-04-07T14:54:35Z</time>
      </trkpt>
      <trkpt lat="48.51371" lon="2.00238">
        <ele>100</ele>
        <time>2019-04-07T14:54:44Z</time>
      </trkpt>
      <trkpt lat="48.51368" lon="2.00245">
        <ele>100</ele>
        <time>2019-04-07T14:54:50Z</time>
      </trkpt>
      <trkpt lat="48.51368" lon="2.00252">
        <ele>100</ele>
        <time>2019-04-07T14:54:55Z</time>
      </trkpt>
      <trkpt lat="48.51375" lon="2.00266">
        <ele>100</ele>
        <time>2019-04-07T14:55:01Z</time>
      </trkpt>
      <trkpt lat="48.51374" lon="2.00275">
        <ele>100</ele>
        <time>2019-04-07T14:55:09Z</time>
      </trkpt>
      <trkpt lat="48.51378" lon="2.00278">
        <ele>100</ele>
        <time>2019-04-07T14:55:14Z</time>
      </trkpt>
      <trkpt lat="48.51378" lon="2.00295">
        <ele>100</ele>
        <time>2019-04-07T14:55:22Z</time>
      </trkpt>
      <trkpt lat="48.51379" lon="2.00301">
        <ele>100</ele>
        <time>2019-04-07T14:55:26Z</time>
      </trkpt>
      <trkpt lat="48.51379" lon="2.00309">
        <ele>100</ele>
        <time>2019-04-07T14:55:30Z</time>
      </trkpt>
      <trkpt lat="48.51381" lon="2.00315">
        <ele>100</ele>
        <time>2019-04-07T14:55:33Z</time>
      </trkpt>
      <trkpt lat="48.51391" lon="2.00334">
        <ele>101</ele>
        <time>2019-04-07T14:55:42Z</time>
      </trkpt>
      <trkpt lat="48.5139" lon="2.00343">
        <ele>101</ele>
        <time>2019-04-07T14:55:47Z</time>
      </trkpt>
      <trkpt lat="48.51391" lon="2.00351">
        <ele>101</ele>
        <time>2019-04-07T14:55:51Z</time>
      </trkpt>
      <trkpt lat="48.5139" lon="2.00358">
        <ele>102</ele>
        <time>2019-04-07T14:55:55Z</time>
      </trkpt>
      <trkpt lat="48.51389" lon="2.00365">
        <ele>102</ele>
        <time>2019-04-07T14:56:00Z</time>
      </trkpt>
      <trkpt lat="48.51388" lon="2.00372">
        <ele>102</ele>
        <time>2019-04-07T14:56:04Z</time>
      </trkpt>
      <trkpt lat="48.51392" lon="2.0038">
        <ele>102</ele>
        <time>2019-04-07T14:56:10Z</time>
      </trkpt>
      <trkpt lat="48.51394" lon="2.00397">
        <ele>103</ele>
        <time>2019-04-07T14:56:20Z</time>
      </trkpt>
      <trkpt lat="48.51386" lon="2.00406">
        <ele>103</ele>
        <time>2019-04-07T14:56:26Z</time>
      </trkpt>
      <trkpt lat="48.51382" lon="2.00411">
        <ele>103</ele>
        <time>2019-04-07T14:56:29Z</time>
      </trkpt>
      <trkpt lat="48.51382" lon="2.00419">
        <ele>103</ele>
        <time>2019-04-07T14:56:33Z</time>
      </trkpt>
      <trkpt lat="48.51385" lon="2.00425">
        <ele>103</ele>
        <time>2019-04-07T14:56:37Z</time>
      </trkpt>
      <trkpt lat="48.51385" lon="2.00442">
        <ele>103</ele>
        <time>2019-04-07T14:56:45Z</time>
      </trkpt>
      <trkpt lat="48.51385" lon="2.00449">
        <ele>103</ele>
        <time>2019-04-07T14:56:49Z</time>
      </trkpt>
      <trkpt lat="48.51389" lon="2.00455">
        <ele>103</ele>
        <time>2019-04-07T14:56:52Z</time>
      </trkpt>
      <trkpt lat="48.5139" lon="2.00463">
        <ele>103</ele>
        <time>2019-04-07T14:56:56Z</time>
      </trkpt>
      <trkpt lat="48.5139" lon="2.00504">
        <ele>103</ele>
        <time>2019-04-07T14:57:16Z</time>
      </trkpt>
      <trkpt lat="48.51394" lon="2.00511">
        <ele>103</ele>
        <time>2019-04-07T14:57:19Z</time>
      </trkpt>
      <trkpt lat="48.51395" lon="2.00518">
        <ele>103</ele>
        <time>2019-04-07T14:57:23Z</time>
      </trkpt>
      <trkpt lat="48.51394" lon="2.00533">
        <ele>103</ele>
        <time>2019-04-07T14:57:29Z</time>
      </trkpt>
      <trkpt lat="48.51403" lon="2.00544">
        <ele>103</ele>
        <time>2019-04-07T14:57:35Z</time>
      </trkpt>
      <trkpt lat="48.51405" lon="2.00551">
        <ele>103</ele>
        <time>2019-04-07T14:57:38Z</time>
      </trkpt>
      <trkpt lat="48.51407" lon="2.00566">
        <ele>103</ele>
        <time>2019-04-07T14:57:45Z</time>
      </trkpt>
      <trkpt lat="48.5141" lon="2.00572">
        <ele>103</ele>
        <time>2019-04-07T14:57:49Z</time>
      </trkpt>
      <trkpt lat="48.5141" lon="2.0058">
        <ele>103</ele>
        <time>2019-04-07T14:57:53Z</time>
      </trkpt>
      <trkpt lat="48.51407" lon="2.00586">
        <ele>103</ele>
        <time>2019-04-07T14:57:57Z</time>
      </trkpt>
      <trkpt lat="48.51406" lon="2.00593">
        <ele>102</ele>
        <time>2019-04-07T14:58:01Z</time>
      </trkpt>
      <trkpt lat="48.51409" lon="2.0061">
        <ele>102</ele>
        <time>2019-04-07T14:58:10Z</time>
      </trkpt>
      <trkpt lat="48.51416" lon="2.00623">
        <ele>102</ele>
        <time>2019-04-07T14:58:17Z</time>
      </trkpt>
      <trkpt lat="48.5142" lon="2.00627">
        <ele>102</ele>
        <time>2019-04-07T14:58:19Z</time>
      </trkpt>
      <trkpt lat="48.51423" lon="2.00634">
        <ele>102</ele>
        <time>2019-04-07T14:58:23Z</time>
      </trkpt>
      <trkpt lat="48.51426" lon="2.00648">
        <ele>102</ele>
        <time>2019-04-07T14:58:31Z</time>
      </trkpt>
      <trkpt lat="48.51424" lon="2.00656">
        <ele>102</ele>
        <time>2019-04-07T14:58:36Z</time>
      </trkpt>
      <trkpt lat="48.51427" lon="2.00663">
        <ele>103</ele>
        <time>2019-04-07T14:58:45Z</time>
      </trkpt>
      <trkpt lat="48.51417" lon="2.00667">
        <ele>103</ele>
        <time>2019-04-07T14:59:33Z</time>
      </trkpt>
      <trkpt lat="48.5141" lon="2.00676">
        <ele>103</ele>
        <time>2019-04-07T14:59:52Z</time>
      </trkpt>
      <trkpt lat="48.5141" lon="2.00683">
        <ele>103</ele>
        <time>2019-04-07T15:00:03Z</time>
      </trkpt>
      <trkpt lat="48.51415" lon="2.00682">
        <ele>103</ele>
        <time>2019-04-07T15:00:39Z</time>
      </trkpt>
      <trkpt lat="48.51419" lon="2.00677">
        <ele>103</ele>
        <time>2019-04-07T15:01:36Z</time>
      </trkpt>
      <trkpt lat="48.51412" lon="2.00665">
        <ele>103</ele>
        <time>2019-04-07T15:02:12Z</time>
      </trkpt>
      <trkpt lat="48.51413" lon="2.00664">
        <ele>103</ele>
        <time>2019-04-07T15:03:01Z</time>
      </trkpt>
      <trkpt lat="48.5142" lon="2.00677">
        <ele>102</ele>
        <time>2019-04-07T15:03:13Z</time>
      </trkpt>
      <trkpt lat="48.51417" lon="2.00681">
        <ele>102</ele>
        <time>2019-04-07T15:04:15Z</time>
      </trkpt>
      <trkpt lat="48.51411" lon="2.00684">
        <ele>102</ele>
        <time>2019-04-07T15:05:21Z</time>
      </trkpt>
      <trkpt lat="48.51421" lon="2.00694">
        <ele>102</ele>
        <time>2019-04-07T15:05:59Z</time>
      </trkpt>
      <trkpt lat="48.51427" lon="2.00693">
        <ele>102</ele>
        <time>2019-04-07T15:07:53Z</time>
      </trkpt>
      <trkpt lat="48.51431" lon="2.00694">
        <ele>101</ele>
        <time>2019-04-07T15:07:57Z</time>
      </trkpt>
      <trkpt lat="48.51448" lon="2.00721">
        <ele>101</ele>
        <time>2019-04-07T15:08:22Z</time>
      </trkpt>
      <trkpt lat="48.51455" lon="2.00743">
        <ele>100</ele>
        <time>2019-04-07T15:08:39Z</time>
      </trkpt>
      <trkpt lat="48.51459" lon="2.0075">
        <ele>100</ele>
        <time>2019-04-07T15:08:43Z</time>
      </trkpt>
      <trkpt lat="48.51465" lon="2.00771">
        <ele>100</ele>
        <time>2019-04-07T15:08:54Z</time>
      </trkpt>
      <trkpt lat="48.51476" lon="2.00794">
        <ele>100</ele>
        <time>2019-04-07T15:09:06Z</time>
      </trkpt>
      <trkpt lat="48.51478" lon="2.00809">
        <ele>100</ele>
        <time>2019-04-07T15:09:13Z</time>
      </trkpt>
      <trkpt lat="48.51477" lon="2.00823">
        <ele>100</ele>
        <time>2019-04-07T15:09:20Z</time>
      </trkpt>
      <trkpt lat="48.51482" lon="2.00852">
        <ele>100</ele>
        <time>2019-04-07T15:09:34Z</time>
      </trkpt>
      <trkpt lat="48.51482" lon="2.00866">
        <ele>100</ele>
        <time>2019-04-07T15:09:41Z</time>
      </trkpt>
      <trkpt lat="48.51469" lon="2.00933">
        <ele>101</ele>
        <time>2019-04-07T15:10:17Z</time>
      </trkpt>
      <trkpt lat="48.51479" lon="2.00964">
        <ele>102</ele>
        <time>2019-04-07T15:10:39Z</time>
      </trkpt>
      <trkpt lat="48.51489" lon="2.00976">
        <ele>102</ele>
        <time>2019-04-07T15:10:43Z</time>
      </trkpt>
      <trkpt lat="48.51492" lon="2.00983">
        <ele>102</ele>
        <time>2019-04-07T15:10:47Z</time>
      </trkpt>
      <trkpt lat="48.51493" lon="2.00992">
        <ele>102</ele>
        <time>2019-04-07T15:10:51Z</time>
      </trkpt>
      <trkpt lat="48.51486" lon="2.01007">
        <ele>102</ele>
        <time>2019-04-07T15:10:58Z</time>
      </trkpt>
      <trkpt lat="48.51483" lon="2.0103">
        <ele>102</ele>
        <time>2019-04-07T15:11:11Z</time>
      </trkpt>
      <trkpt lat="48.51486" lon="2.01053">
        <ele>102</ele>
        <time>2019-04-07T15:11:23Z</time>
      </trkpt>
      <trkpt lat="48.51494" lon="2.01075">
        <ele>102</ele>
        <time>2019-04-07T15:11:34Z</time>
      </trkpt>
      <trkpt lat="48.51497" lon="2.01089">
        <ele>102</ele>
        <time>2019-04-07T15:11:41Z</time>
      </trkpt>
      <trkpt lat="48.51507" lon="2.01109">
        <ele>103</ele>
        <time>2019-04-07T15:12:00Z</time>
      </trkpt>
      <trkpt lat="48.51487" lon="2.01103">
        <ele>103</ele>
        <time>2019-04-07T15:12:14Z</time>
      </trkpt>
      <trkpt lat="48.51484" lon="2.01095">
        <ele>103</ele>
        <time>2019-04-07T15:12:28Z</time>
      </trkpt>
      <trkpt lat="48.51481" lon="2.01083">
        <ele>102</ele>
        <time>2019-04-07T15:12:40Z</time>
      </trkpt>
      <trkpt lat="48.51469" lon="2.01052">
        <ele>102</ele>
        <time>2019-04-07T15:13:03Z</time>
      </trkpt>
      <trkpt lat="48.51467" lon="2.01041">
        <ele>102</ele>
        <time>2019-04-07T15:13:10Z</time>
      </trkpt>
      <trkpt lat="48.51461" lon="2.00985">
        <ele>102</ele>
        <time>2019-04-07T15:13:46Z</time>
      </trkpt>
      <trkpt lat="48.51458" lon="2.00976">
        <ele>102</ele>
        <time>2019-04-07T15:13:54Z</time>
      </trkpt>
      <trkpt lat="48.5145" lon="2.00965">
        <ele>102</ele>
        <time>2019-04-07T15:14:04Z</time>
      </trkpt>
      <trkpt lat="48.51452" lon="2.00947">
        <ele>102</ele>
        <time>2019-04-07T15:14:11Z</time>
      </trkpt>
      <trkpt lat="48.51453" lon="2.00941">
        <ele>102</ele>
        <time>2019-04-07T15:14:14Z</time>
      </trkpt>
      <trkpt lat="48.51457" lon="2.00934">
        <ele>102</ele>
        <time>2019-04-07T15:14:18Z</time>
      </trkpt>
      <trkpt lat="48.51473" lon="2.00901">
        <ele>101</ele>
        <time>2019-04-07T15:14:37Z</time>
      </trkpt>
      <trkpt lat="48.51473" lon="2.00893">
        <ele>101</ele>
        <time>2019-04-07T15:14:41Z</time>
      </trkpt>
      <trkpt lat="48.51469" lon="2.00879">
        <ele>100</ele>
        <time>2019-04-07T15:14:49Z</time>
      </trkpt>
      <trkpt lat="48.51469" lon="2.00872">
        <ele>99</ele>
        <time>2019-04-07T15:14:53Z</time>
      </trkpt>
      <trkpt lat="48.51473" lon="2.00864">
        <ele>99</ele>
        <time>2019-04-07T15:14:59Z</time>
      </trkpt>
      <trkpt lat="48.51474" lon="2.00857">
        <ele>99</ele>
        <time>2019-04-07T15:15:04Z</time>
      </trkpt>
      <trkpt lat="48.51479" lon="2.00852">
        <ele>99</ele>
        <time>2019-04-07T15:15:07Z</time>
      </trkpt>
      <trkpt lat="48.51482" lon="2.00848">
        <ele>99</ele>
        <time>2019-04-07T15:15:10Z</time>
      </trkpt>
      <trkpt lat="48.51487" lon="2.00834">
        <ele>98</ele>
        <time>2019-04-07T15:15:19Z</time>
      </trkpt>
      <trkpt lat="48.51511" lon="2.00788">
        <ele>98</ele>
        <time>2019-04-07T15:15:49Z</time>
      </trkpt>
      <trkpt lat="48.51522" lon="2.00765">
        <ele>98</ele>
        <time>2019-04-07T15:16:04Z</time>
      </trkpt>
      <trkpt lat="48.51524" lon="2.00751">
        <ele>99</ele>
        <time>2019-04-07T15:16:12Z</time>
      </trkpt>
      <trkpt lat="48.51531" lon="2.00739">
        <ele>99</ele>
        <time>2019-04-07T15:16:19Z</time>
      </trkpt>
      <trkpt lat="48.51537" lon="2.00731">
        <ele>99</ele>
        <time>2019-04-07T15:16:26Z</time>
      </trkpt>
      <trkpt lat="48.5155" lon="2.00691">
        <ele>100</ele>
        <time>2019-04-07T15:16:49Z</time>
      </trkpt>
      <trkpt lat="48.51566" lon="2.00657">
        <ele>102</ele>
        <time>2019-04-07T15:17:10Z</time>
      </trkpt>
      <trkpt lat="48.51575" lon="2.0065">
        <ele>103</ele>
        <time>2019-04-07T15:17:18Z</time>
      </trkpt>
      <trkpt lat="48.51606" lon="2.00593">
        <ele>101</ele>
        <time>2019-04-07T15:17:55Z</time>
      </trkpt>
      <trkpt lat="48.51627" lon="2.00556">
        <ele>100</ele>
        <time>2019-04-07T15:18:21Z</time>
      </trkpt>
      <trkpt lat="48.51636" lon="2.00546">
        <ele>100</ele>
        <time>2019-04-07T15:18:28Z</time>
      </trkpt>
      <trkpt lat="48.51644" lon="2.00542">
        <ele>100</ele>
        <time>2019-04-07T15:18:33Z</time>
      </trkpt>
      <trkpt lat="48.51681" lon="2.0054">
        <ele>102</ele>
        <time>2019-04-07T15:19:05Z</time>
      </trkpt>
      <trkpt lat="48.51719" lon="2.00554">
        <ele>105</ele>
        <time>2019-04-07T15:19:36Z</time>
      </trkpt>
      <trkpt lat="48.51736" lon="2.00565">
        <ele>106</ele>
        <time>2019-04-07T15:19:53Z</time>
      </trkpt>
      <trkpt lat="48.51764" lon="2.00572">
        <ele>110</ele>
        <time>2019-04-07T15:20:21Z</time>
      </trkpt>
      <trkpt lat="48.51782" lon="2.00581">
        <ele>112</ele>
        <time>2019-04-07T15:20:38Z</time>
      </trkpt>
      <trkpt lat="48.51791" lon="2.00579">
        <ele>113</ele>
        <time>2019-04-07T15:20:45Z</time>
      </trkpt>
      <trkpt lat="48.51798" lon="2.00571">
        <ele>115</ele>
        <time>2019-04-07T15:20:53Z</time>
      </trkpt>
      <trkpt lat="48.51807" lon="2.00567">
        <ele>115</ele>
        <time>2019-04-07T15:21:02Z</time>
      </trkpt>
      <trkpt lat="48.51816" lon="2.00559">
        <ele>115</ele>
        <time>2019-04-07T15:21:10Z</time>
      </trkpt>
      <trkpt lat="48.51828" lon="2.00545">
        <ele>115</ele>
        <time>2019-04-07T15:21:22Z</time>
      </trkpt>
      <trkpt lat="48.51837" lon="2.00539">
        <ele>115</ele>
        <time>2019-04-07T15:21:30Z</time>
      </trkpt>
      <trkpt lat="48.51852" lon="2.00534">
        <ele>117</ele>
        <time>2019-04-07T15:21:42Z</time>
      </trkpt>
      <trkpt lat="48.51861" lon="2.00531">
        <ele>117</ele>
        <time>2019-04-07T15:21:49Z</time>
      </trkpt>
      <trkpt lat="48.51866" lon="2.00531">
        <ele>117</ele>
        <time>2019-04-07T15:21:53Z</time>
      </trkpt>
      <trkpt lat="48.5187" lon="2.00528">
        <ele>118</ele>
        <time>2019-04-07T15:21:57Z</time>
      </trkpt>
      <trkpt lat="48.51873" lon="2.00522">
        <ele>118</ele>
        <time>2019-04-07T15:22:02Z</time>
      </trkpt>
      <trkpt lat="48.51893" lon="2.00516">
        <ele>119</ele>
        <time>2019-04-07T15:22:18Z</time>
      </trkpt>
      <trkpt lat="48.51897" lon="2.00512">
        <ele>119</ele>
        <time>2019-04-07T15:22:23Z</time>
      </trkpt>
      <trkpt lat="48.51907" lon="2.00508">
        <ele>119</ele>
        <time>2019-04-07T15:22:32Z</time>
      </trkpt>
      <trkpt lat="48.51943" lon="2.00513">
        <ele>121</ele>
        <time>2019-04-07T15:23:03Z</time>
      </trkpt>
      <trkpt lat="48.51974" lon="2.00517">
        <ele>121</ele>
        <time>2019-04-07T15:23:28Z</time>
      </trkpt>
      <trkpt lat="48.51988" lon="2.00526">
        <ele>121</ele>
        <time>2019-04-07T15:23:39Z</time>
      </trkpt>
      <trkpt lat="48.52019" lon="2.00536">
        <ele>123</ele>
        <time>2019-04-07T15:24:04Z</time>
      </trkpt>
      <trkpt lat="48.52038" lon="2.00545">
        <ele>123</ele>
        <time>2019-04-07T15:24:19Z</time>
      </trkpt>
      <trkpt lat="48.52069" lon="2.00575">
        <ele>125</ele>
        <time>2019-04-07T15:24:45Z</time>
      </trkpt>
      <trkpt lat="48.52073" lon="2.00582">
        <ele>126</ele>
        <time>2019-04-07T15:24:49Z</time>
      </trkpt>
      <trkpt lat="48.5208" lon="2.0059">
        <ele>126</ele>
        <time>2019-04-07T15:24:56Z</time>
      </trkpt>
      <trkpt lat="48.52083" lon="2.00595">
        <ele>126</ele>
        <time>2019-04-07T15:25:00Z</time>
      </trkpt>
      <trkpt lat="48.52118" lon="2.00622">
        <ele>126</ele>
        <time>2019-04-07T15:25:30Z</time>
      </trkpt>
      <trkpt lat="48.52125" lon="2.00623">
        <ele>126</ele>
        <time>2019-04-07T15:25:37Z</time>
      </trkpt>
      <trkpt lat="48.52139" lon="2.00628">
        <ele>124</ele>
        <time>2019-04-07T15:25:50Z</time>
      </trkpt>
      <trkpt lat="48.52144" lon="2.00631">
        <ele>123</ele>
        <time>2019-04-07T15:25:53Z</time>
      </trkpt>
      <trkpt lat="48.52154" lon="2.00634">
        <ele>122</ele>
        <time>2019-04-07T15:26:00Z</time>
      </trkpt>
      <trkpt lat="48.52172" lon="2.00645">
        <ele>121</ele>
        <time>2019-04-07T15:26:15Z</time>
      </trkpt>
      <trkpt lat="48.52177" lon="2.00646">
        <ele>120</ele>
        <time>2019-04-07T15:26:20Z</time>
      </trkpt>
      <trkpt lat="48.52185" lon="2.00654">
        <ele>120</ele>
        <time>2019-04-07T15:26:28Z</time>
      </trkpt>
      <trkpt lat="48.5219" lon="2.00655">
        <ele>120</ele>
        <time>2019-04-07T15:26:31Z</time>
      </trkpt>
      <trkpt lat="48.52227" lon="2.00686">
        <ele>118</ele>
        <time>2019-04-07T15:27:20Z</time>
      </trkpt>
      <trkpt lat="48.52226" lon="2.00691">
        <ele>118</ele>
        <time>2019-04-07T15:29:21Z</time>
      </trkpt>
      <trkpt lat="48.5223" lon="2.00693">
        <ele>118</ele>
        <time>2019-04-07T15:29:25Z</time>
      </trkpt>
      <trkpt lat="48.52245" lon="2.00713">
        <ele>117</ele>
        <time>2019-04-07T15:29:37Z</time>
      </trkpt>
      <trkpt lat="48.52265" lon="2.00732">
        <ele>115</ele>
        <time>2019-04-07T15:30:00Z</time>
      </trkpt>
      <trkpt lat="48.5227" lon="2.00734">
        <ele>115</ele>
        <time>2019-04-07T15:30:03Z</time>
      </trkpt>
      <trkpt lat="48.52293" lon="2.00768">
        <ele>114</ele>
        <time>2019-04-07T15:30:29Z</time>
      </trkpt>
      <trkpt lat="48.52308" lon="2.00779">
        <ele>115</ele>
        <time>2019-04-07T15:30:45Z</time>
      </trkpt>
      <trkpt lat="48.52313" lon="2.0078">
        <ele>114</ele>
        <time>2019-04-07T15:30:49Z</time>
      </trkpt>
      <trkpt lat="48.52353" lon="2.00807">
        <ele>111</ele>
        <time>2019-04-07T15:31:23Z</time>
      </trkpt>
      <trkpt lat="48.52391" lon="2.00832">
        <ele>110</ele>
        <time>2019-04-07T15:31:52Z</time>
      </trkpt>
      <trkpt lat="48.52406" lon="2.00836">
        <ele>109</ele>
        <time>2019-04-07T15:32:02Z</time>
      </trkpt>
      <trkpt lat="48.52416" lon="2.00844">
        <ele>109</ele>
        <time>2019-04-07T15:32:08Z</time>
      </trkpt>
      <trkpt lat="48.52432" lon="2.00863">
        <ele>108</ele>
        <time>2019-04-07T15:32:21Z</time>
      </trkpt>
      <trkpt lat="48.52455" lon="2.00878">
        <ele>107</ele>
        <time>2019-04-07T15:32:37Z</time>
      </trkpt>
      <trkpt lat="48.52458" lon="2.00884">
        <ele>106</ele>
        <time>2019-04-07T15:32:42Z</time>
      </trkpt>
      <trkpt lat="48.52497" lon="2.00913">
        <ele>104</ele>
        <time>2019-04-07T15:33:13Z</time>
      </trkpt>
      <trkpt lat="48.52506" lon="2.00918">
        <ele>104</ele>
        <time>2019-04-07T15:33:20Z</time>
      </trkpt>
      <trkpt lat="48.5251" lon="2.00923">
        <ele>104</ele>
        <time>2019-04-07T15:33:24Z</time>
      </trkpt>
      <trkpt lat="48.52514" lon="2.00931">
        <ele>104</ele>
        <time>2019-04-07T15:33:31Z</time>
      </trkpt>
      <trkpt lat="48.52514" lon="2.0094">
        <ele>104</ele>
        <time>2019-04-07T15:33:35Z</time>
      </trkpt>
      <trkpt lat="48.52525" lon="2.00934">
        <ele>104</ele>
        <time>2019-04-07T15:33:45Z</time>
      </trkpt>
      <trkpt lat="48.52536" lon="2.00933">
        <ele>104</ele>
        <time>2019-04-07T15:33:50Z</time>
      </trkpt>
      <trkpt lat="48.52544" lon="2.0094">
        <ele>103</ele>
        <time>2019-04-07T15:33:56Z</time>
      </trkpt>
      <trkpt lat="48.52547" lon="2.00946">
        <ele>103</ele>
        <time>2019-04-07T15:33:59Z</time>
      </trkpt>
      <trkpt lat="48.5257" lon="2.00962">
        <ele>101</ele>
        <time>2019-04-07T15:34:14Z</time>
      </trkpt>
      <trkpt lat="48.52579" lon="2.00967">
        <ele>101</ele>
        <time>2019-04-07T15:34:21Z</time>
      </trkpt>
      <trkpt lat="48.52597" lon="2.00981">
        <ele>99</ele>
        <time>2019-04-07T15:34:36Z</time>
      </trkpt>
      <trkpt lat="48.52608" lon="2.00986">
        <ele>99</ele>
        <time>2019-04-07T15:34:43Z</time>
      </trkpt>
      <trkpt lat="48.52648" lon="2.01018">
        <ele>97</ele>
        <time>2019-04-07T15:35:17Z</time>
      </trkpt>
      <trkpt lat="48.52657" lon="2.01022">
        <ele>97</ele>
        <time>2019-04-07T15:35:25Z</time>
      </trkpt>
      <trkpt lat="48.52662" lon="2.01023">
        <ele>97</ele>
        <time>2019-04-07T15:35:29Z</time>
      </trkpt>
      <trkpt lat="48.52667" lon="2.01026">
        <ele>97</ele>
        <time>2019-04-07T15:35:33Z</time>
      </trkpt>
      <trkpt lat="48.52676" lon="2.01033">
        <ele>97</ele>
        <time>2019-04-07T15:35:41Z</time>
      </trkpt>
      <trkpt lat="48.52681" lon="2.01036">
        <ele>97</ele>
        <time>2019-04-07T15:35:45Z</time>
      </trkpt>
      <trkpt lat="48.5269" lon="2.0104">
        <ele>96</ele>
        <time>2019-04-07T15:35:52Z</time>
      </trkpt>
      <trkpt lat="48.52705" lon="2.0105">
        <ele>96</ele>
        <time>2019-04-07T15:36:04Z</time>
      </trkpt>
      <trkpt lat="48.52712" lon="2.0105">
        <ele>96</ele>
        <time>2019-04-07T15:36:13Z</time>
      </trkpt>
      <trkpt lat="48.5272" lon="2.01058">
        <ele>96</ele>
        <time>2019-04-07T15:36:20Z</time>
      </trkpt>
      <trkpt lat="48.52729" lon="2.01065">
        <ele>96</ele>
        <time>2019-04-07T15:36:27Z</time>
      </trkpt>
      <trkpt lat="48.52733" lon="2.01069">
        <ele>96</ele>
        <time>2019-04-07T15:36:30Z</time>
      </trkpt>
      <trkpt lat="48.52739" lon="2.01081">
        <ele>96</ele>
        <time>2019-04-07T15:36:36Z</time>
      </trkpt>
      <trkpt lat="48.52743" lon="2.01094">
        <ele>96</ele>
        <time>2019-04-07T15:36:43Z</time>
      </trkpt>
      <trkpt lat="48.52755" lon="2.0111">
        <ele>95</ele>
        <time>2019-04-07T15:36:54Z</time>
      </trkpt>
      <trkpt lat="48.52772" lon="2.01142">
        <ele>95</ele>
        <time>2019-04-07T15:37:14Z</time>
      </trkpt>
      <trkpt lat="48.52795" lon="2.01176">
        <ele>95</ele>
        <time>2019-04-07T15:37:39Z</time>
      </trkpt>
      <trkpt lat="48.52801" lon="2.01179">
        <ele>96</ele>
        <time>2019-04-07T15:37:53Z</time>
      </trkpt>
      <trkpt lat="48.52806" lon="2.01187">
        <ele>96</ele>
        <time>2019-04-07T15:38:54Z</time>
      </trkpt>
      <trkpt lat="48.52811" lon="2.0119">
        <ele>96</ele>
        <time>2019-04-07T15:38:59Z</time>
      </trkpt>
      <trkpt lat="48.52816" lon="2.01198">
        <ele>97</ele>
        <time>2019-04-07T15:39:07Z</time>
      </trkpt>
      <trkpt lat="48.52825" lon="2.01208">
        <ele>97</ele>
        <time>2019-04-07T15:39:15Z</time>
      </trkpt>
      <trkpt lat="48.52828" lon="2.01213">
        <ele>97</ele>
        <time>2019-04-07T15:39:18Z</time>
      </trkpt>
      <trkpt lat="48.52841" lon="2.01225">
        <ele>99</ele>
        <time>2019-04-07T15:39:30Z</time>
      </trkpt>
      <trkpt lat="48.52852" lon="2.0123">
        <ele>99</ele>
        <time>2019-04-07T15:39:38Z</time>
      </trkpt>
      <trkpt lat="48.52877" lon="2.01251">
        <ele>101</ele>
        <time>2019-04-07T15:40:03Z</time>
      </trkpt>
      <trkpt lat="48.52883" lon="2.01261">
        <ele>102</ele>
        <time>2019-04-07T15:40:09Z</time>
      </trkpt>
      <trkpt lat="48.52912" lon="2.01265">
        <ele>104</ele>
        <time>2019-04-07T15:40:35Z</time>
      </trkpt>
      <trkpt lat="48.5292" lon="2.01259">
        <ele>104</ele>
        <time>2019-04-07T15:40:44Z</time>
      </trkpt>
      <trkpt lat="48.52932" lon="2.01236">
        <ele>105</ele>
        <time>2019-04-07T15:41:04Z</time>
      </trkpt>
      <trkpt lat="48.5294" lon="2.01227">
        <ele>105</ele>
        <time>2019-04-07T15:41:13Z</time>
      </trkpt>
      <trkpt lat="48.52945" lon="2.01223">
        <ele>106</ele>
        <time>2019-04-07T15:41:18Z</time>
      </trkpt>
      <trkpt lat="48.52956" lon="2.01218">
        <ele>107</ele>
        <time>2019-04-07T15:41:32Z</time>
      </trkpt>
      <trkpt lat="48.52961" lon="2.01214">
        <ele>107</ele>
        <time>2019-04-07T15:41:36Z</time>
      </trkpt>
      <trkpt lat="48.52991" lon="2.01174">
        <ele>109</ele>
        <time>2019-04-07T15:42:07Z</time>
      </trkpt>
      <trkpt lat="48.53003" lon="2.01164">
        <ele>109</ele>
        <time>2019-04-07T15:42:19Z</time>
      </trkpt>
      <trkpt lat="48.53016" lon="2.01149">
        <ele>110</ele>
        <time>2019-04-07T15:42:32Z</time>
      </trkpt>
      <trkpt lat="48.53022" lon="2.01137">
        <ele>110</ele>
        <time>2019-04-07T15:42:39Z</time>
      </trkpt>
      <trkpt lat="48.53039" lon="2.01119">
        <ele>111</ele>
        <time>2019-04-07T15:42:56Z</time>
      </trkpt>
      <trkpt lat="48.53048" lon="2.01114">
        <ele>111</ele>
        <time>2019-04-07T15:43:04Z</time>
      </trkpt>
      <trkpt lat="48.53056" lon="2.01103">
        <ele>112</ele>
        <time>2019-04-07T15:43:12Z</time>
      </trkpt>
      <trkpt lat="48.53058" lon="2.01096">
        <ele>112</ele>
        <time>2019-04-07T15:43:17Z</time>
      </trkpt>
      <trkpt lat="48.5306" lon="2.01088">
        <ele>112</ele>
        <time>2019-04-07T15:43:21Z</time>
      </trkpt>
      <trkpt lat="48.53063" lon="2.01083">
        <ele>112</ele>
        <time>2019-04-07T15:43:26Z</time>
      </trkpt>
      <trkpt lat="48.53069" lon="2.01062">
        <ele>113</ele>
        <time>2019-04-07T15:43:40Z</time>
      </trkpt>
      <trkpt lat="48.53073" lon="2.01058">
        <ele>113</ele>
        <time>2019-04-07T15:43:44Z</time>
      </trkpt>
      <trkpt lat="48.5308" lon="2.01048">
        <ele>113</ele>
        <time>2019-04-07T15:43:52Z</time>
      </trkpt>
      <trkpt lat="48.53094" lon="2.0104">
        <ele>114</ele>
        <time>2019-04-07T15:44:04Z</time>
      </trkpt>
      <trkpt lat="48.53098" lon="2.01035">
        <ele>114</ele>
        <time>2019-04-07T15:44:09Z</time>
      </trkpt>
      <trkpt lat="48.53111" lon="2.01026">
        <ele>114</ele>
        <time>2019-04-07T15:44:22Z</time>
      </trkpt>
      <trkpt lat="48.5312" lon="2.01017">
        <ele>115</ele>
        <time>2019-04-07T15:44:32Z</time>
      </trkpt>
      <trkpt lat="48.5313" lon="2.01015">
        <ele>115</ele>
        <time>2019-04-07T15:44:40Z</time>
      </trkpt>
      <trkpt lat="48.53146" lon="2.00995">
        <ele>116</ele>
        <time>2019-04-07T15:44:56Z</time>
      </trkpt>
      <trkpt lat="48.53157" lon="2.01009">
        <ele>116</ele>
        <time>2019-04-07T15:45:17Z</time>
      </trkpt>
      <trkpt lat="48.53158" lon="2.00997">
        <ele>117</ele>
        <time>2019-04-07T15:45:28Z</time>
      </trkpt>
      <trkpt lat="48.5316" lon="2.00989">
        <ele>117</ele>
        <time>2019-04-07T15:45:32Z</time>
      </trkpt>
      <trkpt lat="48.53164" lon="2.00983">
        <ele>116</ele>
        <time>2019-04-07T15:45:37Z</time>
      </trkpt>
      <trkpt lat="48.53168" lon="2.00979">
        <ele>116</ele>
        <time>2019-04-07T15:45:42Z</time>
      </trkpt>
      <trkpt lat="48.53181" lon="2.00967">
        <ele>117</ele>
        <time>2019-04-07T15:45:55Z</time>
      </trkpt>
      <trkpt lat="48.5319" lon="2.00949">
        <ele>117</ele>
        <time>2019-04-07T15:46:06Z</time>
      </trkpt>
      <trkpt lat="48.53202" lon="2.00935">
        <ele>118</ele>
        <time>2019-04-07T15:46:18Z</time>
      </trkpt>
      <trkpt lat="48.53223" lon="2.00927">
        <ele>118</ele>
        <time>2019-04-07T15:46:37Z</time>
      </trkpt>
      <trkpt lat="48.53232" lon="2.00932">
        <ele>118</ele>
        <time>2019-04-07T15:46:45Z</time>
      </trkpt>
      <trkpt lat="48.53251" lon="2.00943">
        <ele>118</ele>
        <time>2019-04-07T15:46:58Z</time>
      </trkpt>
      <trkpt lat="48.53272" lon="2.00946">
        <ele>119</ele>
        <time>2019-04-07T15:47:17Z</time>
      </trkpt>
      <trkpt lat="48.53278" lon="2.00946">
        <ele>119</ele>
        <time>2019-04-07T15:47:22Z</time>
      </trkpt>
      <trkpt lat="48.53316" lon="2.00952">
        <ele>119</ele>
        <time>2019-04-07T15:47:55Z</time>
      </trkpt>
      <trkpt lat="48.53322" lon="2.00955">
        <ele>119</ele>
        <time>2019-04-07T15:47:59Z</time>
      </trkpt>
      <trkpt lat="48.5333" lon="2.00965">
        <ele>119</ele>
        <time>2019-04-07T15:48:06Z</time>
      </trkpt>
      <trkpt lat="48.53335" lon="2.00968">
        <ele>119</ele>
        <time>2019-04-07T15:48:17Z</time>
      </trkpt>
      <trkpt lat="48.53338" lon="2.00973">
        <ele>119</ele>
        <time>2019-04-07T15:49:32Z</time>
      </trkpt>
      <trkpt lat="48.53342" lon="2.0098">
        <ele>120</ele>
        <time>2019-04-07T15:49:43Z</time>
      </trkpt>
      <trkpt lat="48.53352" lon="2.00965">
        <ele>120</ele>
        <time>2019-04-07T15:49:58Z</time>
      </trkpt>
      <trkpt lat="48.53356" lon="2.00943">
        <ele>120</ele>
        <time>2019-04-07T15:50:10Z</time>
      </trkpt>
      <trkpt lat="48.5337" lon="2.00927">
        <ele>117</ele>
        <time>2019-04-07T15:50:42Z</time>
      </trkpt>
      <trkpt lat="48.53371" lon="2.00912">
        <ele>120</ele>
        <time>2019-04-07T15:51:24Z</time>
      </trkpt>
    </trkseg>
  </trk>
</gpx>